NoveltyWeather Station
Hourly Leaf Wetness Data

Source: University of Missouri

To the bottom of the page

Year Month Day Hour Leaf Wetness Total
Precipitation
Avg. Temp Avg. Rel.
Humidity
Wind
Speed
CST mV in mm F C % mph
2017 08 12 1:00 Wet 425.3 0.0 0.00 58.3 14.6 97 2.1
2017 08 12 2:00 Wet 465.7 0.0 0.00 56.8 13.8 96.7 2.1
2017 08 12 3:00 Wet 470.8 0.0 0.00 56.2 13.4 97.5 2.3
2017 08 12 4:00 Wet 470.8 0.0 0.00 54.8 12.7 97.7 2.6
2017 08 12 5:00 Wet 487.1 0.0 0.00 54.3 12.4 96.9 3.6
2017 08 12 6:00 Wet 459.6 0.0 0.00 54.9 12.7 94.4 3.6
2017 08 12 7:00 Wet 352.9 0.0 0.00 58.0 14.4 90.1 4.1
2017 08 12 8:00 268.4 0.0 0.00 63.6 17.5 82.6 4.0
2017 08 12 9:00 266.5 0.0 0.00 68.6 20.4 70.47 4.9
2017 08 12 10:00 265.1 0.0 0.00 72.2 22.4 53.28 5.7
2017 08 12 11:00 263.8 0.0 0.00 73.9 23.3 45.85 7.5
2017 08 12 12:00 262.4 0.0 0.00 75.6 24.2 43.92 6.9
2017 08 12 13:00 261.4 0.0 0.00 77.1 25.1 42.74 6.7
2017 08 12 14:00 260.6 0.0 0.00 77.9 25.5 42.88 5.5
2017 08 12 15:00 260.5 0.0 0.00 78.3 25.8 43.73 5.0
2017 08 12 16:00 260.5 0.0 0.00 78.2 25.6 43.7 4.1
2017 08 12 17:00 260.5 0.0 0.00 77.9 25.5 44.66 4.0
2017 08 12 18:00 260.5 0.0 0.00 77.5 25.3 46.23 3.7
2017 08 12 19:00 262.5 0.0 0.00 73.3 22.9 57.69 3.5
2017 08 12 20:00 265.2 0.0 0.00 68.7 20.4 67.76 2.0
2017 08 12 21:00 273.6 0.0 0.00 64.5 18.1 84 1.3
2017 08 12 22:00 Wet 307.3 0.0 0.00 62.6 17.0 90.8 0.6
2017 08 12 23:00 Wet 344.4 0.0 0.00 61.0 16.1 90.7 0.7
2017 08 12 24:00 Wet 401.4 0.0 0.00 59.2 15.1 96.2 1.0
2017 08 13 1:00 Wet 466.9 0.0 0.00 58.2 14.6 98.8 0.5
2017 08 13 2:00 Wet 483.4 0.0 0.00 58.3 14.6 93.8 2.5
2017 08 13 3:00 Wet 491.9 0.0 0.00 57.1 14.0 94.5 1.5
2017 08 13 4:00 Wet 503.1 0.0 0.00 56.5 13.6 97 1.8
2017 08 13 5:00 Wet 507.4 0.0 0.00 56.0 13.4 97.7 2.5
2017 08 13 6:00 Wet 509.3 0.0 0.00 55.5 13.0 97.9 2.1
2017 08 13 7:00 Wet 404.2 0.0 0.00 59.3 15.2 92.4 2.4
2017 08 13 8:00 273.8 0.0 0.00 64.3 18.0 81.8 5.4
2017 08 13 9:00 266.4 0.0 0.00 69.1 20.6 68.14 7.5
2017 08 13 10:00 265.5 0.0 0.00 72.7 22.6 61.01 7.8
2017 08 13 11:00 264.6 0.0 0.00 74.0 23.3 57.06 6.7
2017 08 13 12:00 263.2 0.0 0.00 75.9 24.4 52.69 6.6
2017 08 13 13:00 262.4 0.0 0.00 76.9 24.9 49.81 6.2
2017 08 13 14:00 261.2 0.0 0.00 78.4 25.8 45.31 6.1
2017 08 13 15:00 261.0 0.0 0.00 78.4 25.8 45.48 6.3
2017 08 13 16:00 260.6 0.0 0.00 78.6 25.9 44.7 5.8
2017 08 13 17:00 261.0 0.0 0.00 77.7 25.4 47.73 5.4
2017 08 13 18:00 261.9 0.0 0.00 76.1 24.5 52.42 6.1
2017 08 13 19:00 263.4 0.0 0.00 72.6 22.5 60.21 4.9
2017 08 13 20:00 264.9 0.0 0.00 68.7 20.4 68.91 3.8
2017 08 13 21:00 265.7 0.0 0.00 66.5 19.2 74.44 3.8
2017 08 13 22:00 266.7 0.0 0.00 64.6 18.1 80.5 3.2
2017 08 13 23:00 267.6 0.0 0.00 63.3 17.4 84.1 3.5
2017 08 13 24:00 267.8 0.0 0.00 63.0 17.3 85 3.5
2017 08 14 1:00 274.1 0.0 0.00 61.4 16.3 90.1 1.7
2017 08 14 2:00 Wet 289.0 0.0 0.00 60.3 15.7 92.5 2.0
2017 08 14 3:00 Wet 312.1 0.0 0.00 59.1 15.1 96.2 1.2
2017 08 14 4:00 Wet 351.0 0.0 0.00 58.5 14.8 96.5 1.6
2017 08 14 5:00 Wet 393.3 0.0 0.00 58.4 14.7 98.1 2.3
2017 08 14 6:00 Wet 442.4 0.0 0.00 58.1 14.5 98.5 3.0
2017 08 14 7:00 Wet 353.0 0.0 0.00 61.4 16.3 96.1 2.1
2017 08 14 8:00 270.8 0.0 0.00 66.8 19.3 92 5.8
2017 08 14 9:00 267.3 0.0 0.00 70.8 21.5 81.9 7.2
2017 08 14 10:00 266.3 0.0 0.00 73.4 23.0 76.16 6.2
2017 08 14 11:00 265.7 0.0 0.00 75.3 24.0 72.66 8.6
2017 08 14 12:00 264.5 0.0 0.00 77.9 25.5 67.1 7.2
2017 08 14 13:00 263.3 0.0 0.00 80.4 26.9 61.37 5.8
2017 08 14 14:00 263.2 0.0 0.00 81.6 27.6 61.43 7.4
2017 08 14 15:00 263.3 0.0 0.00 82.4 28.0 60.05 8.1
2017 08 14 16:00 263.0 0.0 0.00 83.4 28.6 58.45 7.4
2017 08 14 17:00 263.2 0.0 0.00 83.3 28.5 60.08 7.7
2017 08 14 18:00 264.4 0.0 0.00 80.6 27.0 65.62 6.2
2017 08 14 19:00 265.5 0.0 0.00 77.8 25.5 72.54 4.2
2017 08 14 20:00 266.6 0.0 0.00 74.7 23.7 79.78 3.6
2017 08 14 21:00 267.7 0.0 0.00 72.7 22.6 84.5 3.8
2017 08 14 22:00 268.2 0.0 0.00 71.9 22.2 86.2 4.1
2017 08 14 23:00 268.3 0.0 0.00 71.8 22.1 86.9 3.6
2017 08 14 24:00 270.6 0.0 0.00 68.8 20.4 93.2 3.2
2017 08 15 1:00 275.9 0.0 0.00 67.2 19.6 96.7 3.3
2017 08 15 2:00 Wet 291.4 0.0 0.00 66.9 19.4 97.7 3.1
2017 08 15 3:00 Wet 324.0 0.0 0.00 66.9 19.4 98.6 3.2
2017 08 15 4:00 Wet 342.2 0.0 0.00 67.2 19.6 98 3.1
2017 08 15 5:00 Wet 386.0 0.0 0.00 65.8 18.8 99.3 2.3
2017 08 15 6:00 Wet 419.4 0.0 0.00 65.0 18.3 99.8 2.2
2017 08 15 7:00 Wet 375.2 0.0 0.00 67.5 19.7 98.9 2.6
2017 08 15 8:00 272.0 0.0 0.00 72.9 22.7 89.7 4.0
2017 08 15 9:00 267.6 0.0 0.00 77.1 25.1 81.1 4.7
2017 08 15 10:00 266.5 0.0 0.00 80.6 27.0 74.15 4.7
2017 08 15 11:00 265.5 0.0 0.00 83.0 28.4 67.51 5.4
2017 08 15 12:00 263.7 0.0 0.00 85.4 29.7 61.36 5.5
2017 08 15 13:00 262.6 0.0 0.00 87.0 30.5 56.7 4.8
2017 08 15 14:00 261.9 0.0 0.00 87.8 31.0 54.53 5.7
2017 08 15 15:00 261.7 0.0 0.00 87.9 31.1 53.93 5.8
2017 08 15 16:00 261.2 0.0 0.00 88.7 31.5 50.67 5.6
2017 08 15 17:00 263.2 0.0 0.00 80.1 26.7 68.61 8.6
2017 08 15 18:00 263.2 0.0 0.00 79.8 26.6 68.3 6.7
2017 08 15 19:00 264.4 0.0 0.00 77.4 25.2 71.52 3.5
2017 08 15 20:00 267.4 0.0 0.00 74.1 23.4 82.9 1.4
2017 08 15 21:00 268.7 0.0 0.00 71.8 22.1 87.9 2.7
2017 08 15 22:00 269.0 0.0 0.00 70.3 21.3 91.2 3.3
2017 08 15 23:00 282.0 0.0 0.00 69.1 20.6 95.3 2.7
2017 08 15 24:00 Wet 303.0 0.0 0.00 68.8 20.4 96.4 2.9
2017 08 16 1:00 Wet 317.0 0.0 0.00 67.9 20.0 97.2 2.8
2017 08 16 2:00 Wet 335.2 0.0 0.00 68.5 20.3 96.2 3.6
2017 08 16 3:00 Wet 310.3 0.0 0.00 70.2 21.2 94.9 6.4
2017 08 16 4:00 272.4 0.0 0.00 70.6 21.4 95.2 5.0
2017 08 16 5:00 Wet 293.7 0.0 0.00 68.9 20.5 97.8 3.0
2017 08 16 6:00 Wet 318.1 0.0 0.00 68.8 20.4 99.4 4.3
2017 08 16 7:00 273.0 0.0 0.00 71.0 21.7 96.7 5.7
2017 08 16 8:00 269.5 0.0 0.00 73.0 22.8 94.6 5.9
2017 08 16 9:00 Wet 287.2 0.0 0.00 73.6 23.1 94.6 5.8
2017 08 16 10:00 279.7 0.0 0.00 74.6 23.7 91 6.9
2017 08 16 11:00 Wet 313.6 0.0 0.25 75.9 24.4 88.9 9.1
2017 08 16 12:00 Wet 287.7 0.0 0.00 76.5 24.7 89.1 10.9
2017 08 16 13:00 Wet 297.1 0.0 0.25 77.9 25.5 80.2 10.5
2017 08 16 14:00 273.2 0.0 0.00 76.8 24.9 88.3 11.7
2017 08 16 15:00 267.6 0.0 0.00 78.5 25.8 86.2 13.5
2017 08 16 16:00 267.8 0.0 0.00 78.0 25.6 86.7 9.6
2017 08 16 17:00 266.3 0.0 0.00 80.2 26.8 78.81 11.8
2017 08 16 18:00 266.5 0.0 0.00 79.1 26.2 78.51 9.0
2017 08 16 19:00 267.6 0.0 0.00 75.9 24.4 84.5 7.1
2017 08 16 20:00 272.8 0.0 0.00 74.0 23.4 89.5 6.2
2017 08 16 21:00 Wet 337.0 0.0 0.00 72.8 22.7 93.6 10.1
2017 08 16 22:00 278.1 0.0 0.00 72.5 22.5 94.4 7.1
2017 08 16 23:00 270.7 0.0 0.00 72.4 22.4 95.3 5.9
2017 08 16 24:00 270.2 0.0 0.00 71.7 22.1 96.7 7.8
2017 08 17 1:00 269.4 0.0 0.00 71.3 21.8 88.9 8.9
2017 08 17 2:00 268.9 0.0 0.00 69.8 21.0 85.9 9.0
2017 08 17 3:00 269.3 0.0 0.00 68.5 20.3 90.5 8.5
2017 08 17 4:00 269.6 0.0 0.00 68.0 20.0 93.6 7.7
2017 08 17 5:00 269.6 0.0 0.00 68.3 20.1 95.1 8.3
2017 08 17 6:00 269.8 0.0 0.00 68.6 20.3 95.6 8.6
2017 08 17 7:00 269.5 0.0 0.00 69.3 20.8 92.7 8.1
2017 08 17 8:00 268.5 0.0 0.00 70.9 21.6 87.3 9.3
2017 08 17 9:00 267.7 0.0 0.00 72.4 22.4 79.48 10.2
2017 08 17 10:00 266.9 0.0 0.00 74.4 23.6 73.16 10.5
2017 08 17 11:00 266.1 0.0 0.00 76.4 24.6 68 11.3
2017 08 17 12:00 265.2 0.0 0.00 77.9 25.5 64.43 11.5
2017 08 17 13:00 264.1 0.0 0.00 80.6 27.0 59.52 12.5
2017 08 17 14:00 263.2 0.0 0.00 82.3 27.9 51.26 13.7
2017 08 17 15:00 262.3 0.0 0.00 82.5 28.0 47.91 14.2
2017 08 17 16:00 261.9 0.0 0.00 82.6 28.1 46.44 13.8
2017 08 17 17:00 261.9 0.0 0.00 81.8 27.7 47.65 12.6
2017 08 17 18:00 262.6 0.0 0.00 80.3 26.9 51.28 11.2
2017 08 17 19:00 263.6 0.0 0.00 76.9 24.9 57.83 8.6
2017 08 17 20:00 265.1 0.0 0.00 72.3 22.4 67.64 6.0
2017 08 17 21:00 265.9 0.0 0.00 70.0 21.1 73.12 5.9
2017 08 17 22:00 266.7 0.0 0.00 67.9 19.9 78.98 5.2
2017 08 17 23:00 267.6 0.0 0.00 66.1 18.9 83.9 5.1
2017 08 17 24:00 268.3 0.0 0.00 64.5 18.1 87.4 5.1
2017 08 18 1:00 269.3 0.0 0.00 63.4 17.4 89.8 4.0
2017 08 18 2:00 270.3 0.0 0.00 62.7 17.1 91.1 4.5
2017 08 18 3:00 270.3 0.0 0.00 62.4 16.9 90.9 4.2
2017 08 18 4:00 272.9 0.0 0.00 61.5 16.4 92.1 4.0
2017 08 18 5:00 278.1 0.0 0.00 60.7 15.9 93 3.4
2017 08 18 6:00 Wet 299.0 0.0 0.00 59.6 15.3 94.8 3.0
2017 08 18 7:00 273.2 0.0 0.00 62.6 17.0 90.8 3.9
2017 08 18 8:00 267.5 0.0 0.00 67.4 19.7 81.8 5.0
2017 08 18 9:00 266.4 0.0 0.00 73.4 23.0 68.76 3.2
2017 08 18 10:00 265.0 0.0 0.00 78.0 25.6 58.58 4.0
2017 08 18 11:00 263.9 0.0 0.00 80.5 26.9 54.98 3.8
2017 08 18 12:00 263.2 0.0 0.00 82.3 28.0 52.22 5.8
2017 08 18 13:00 263.1 0.0 0.00 84.2 29.0 49.63 9.8
2017 08 18 14:00 262.5 0.0 0.00 86.2 30.1 46.51 10.7
2017 08 18 15:00 261.2 0.0 0.00 87.9 31.0 41.78 12.7
2017 08 18 16:00 260.9 0.0 0.00 87.2 30.7 39.52 12.3
2017 08 18 17:00 266.1 0.0 0.00 84.1 28.9 46.16 9.6
2017 08 18 18:00 265.0 0.0 0.00 80.9 27.2 56.33 8.4
2017 08 18 19:00 264.1 0.0 0.00 78.7 25.9 61.96 5.8
2017 08 18 20:00 265.3 0.0 0.00 75.7 24.3 72.37 4.0
2017 08 18 21:00 266.3 0.0 0.00 73.6 23.1 79.89 4.8
2017 08 18 22:00 267.7 0.0 0.00 72.4 22.4 84.7 3.7
2017 08 18 23:00 279.7 0.0 0.00 69.0 20.6 92.2 2.5
2017 08 18 24:00 Wet 298.2 0.0 0.00 67.8 19.9 94.5 4.4
2017 08 19 1:00 Wet 304.1 0.0 0.00 68.2 20.1 94.9 4.6
2017 08 19 2:00 Wet 326.8 0.0 0.00 65.9 18.9 97.6 3.5
2017 08 19 3:00 Wet 397.5 0.0 0.00 64.8 18.2 99.3 2.6
2017 08 19 4:00 Wet 411.5 0.0 0.00 63.2 17.3 99.8 1.4
2017 08 19 5:00 Wet 369.9 0.0 0.00 61.9 16.6 99.9 1.8
2017 08 19 6:00 Wet 358.7 0.0 0.00 62.3 16.8 99.9 2.3
2017 08 19 7:00 Wet 307.1 0.0 0.00 64.5 18.0 99.8 2.0
2017 08 19 8:00 270.6 0.0 0.00 69.4 20.8 91.1 2.9
2017 08 19 9:00 267.5 0.0 0.00 74.3 23.5 79.99 2.9
2017 08 19 10:00 266.2 0.0 0.00 78.8 26.0 69.51 2.8
2017 08 19 11:00 264.9 0.0 0.00 82.5 28.0 61.71 5.1
2017 08 19 12:00 263.4 0.0 0.00 84.9 29.4 55.66 5.9
2017 08 19 13:00 261.7 0.0 0.00 87.9 31.1 43.81 7.8
2017 08 19 14:00 260.6 0.0 0.00 89.3 31.8 38.83 7.5
2017 08 19 15:00 259.6 0.0 0.00 90.4 32.5 30.51 7.9
2017 08 19 16:00 259.1 0.0 0.00 89.9 32.2 28.86 7.7
2017 08 19 17:00 259.1 0.0 0.00 89.1 31.7 30.38 6.4
2017 08 19 18:00 259.7 0.0 0.00 87.7 30.9 36 3.3
2017 08 19 19:00 261.8 0.0 0.00 82.5 28.1 48.62 2.1
2017 08 19 20:00 265.5 0.0 0.00 73.0 22.8 72.57 2.0
2017 08 19 21:00 267.5 0.0 0.00 69.7 20.9 79.78 2.1
2017 08 19 22:00 269.6 0.0 0.00 66.3 19.1 85.8 1.5
2017 08 19 23:00 Wet 289.5 0.0 0.00 64.2 17.9 90.2 2.2
2017 08 19 24:00 269.6 0.0 0.00 63.9 17.7 85 1.3
2017 08 20 1:00 271.2 0.0 0.00 63.0 17.2 91.6 1.0
2017 08 20 2:00 270.3 0.0 0.00 62.4 16.9 89.5 1.5
2017 08 20 3:00 269.6 0.0 0.00 62.4 16.9 86.2 2.2
2017 08 20 4:00 268.3 0.0 0.00 63.8 17.7 83.2 2.8
2017 08 20 5:00 268.4 0.0 0.00 65.4 18.6 85.3 1.8
2017 08 20 6:00 268.3 0.0 0.00 67.7 19.9 86.5 5.4
2017 08 20 7:00 Wet 305.6 0.0 0.25 69.1 20.6 86.8 10.5
2017 08 20 8:00 Wet 377.6 0.1 1.52 67.6 19.8 93.8 7.9
2017 08 20 9:00 Wet 334.5 0.0 0.76 69.5 20.9 86.6 10.4
2017 08 20 10:00 268.0 0.0 0.00 75.6 24.2 69.94 9.7
2017 08 20 11:00 265.6 0.0 0.00 78.5 25.9 62.58 10.8
2017 08 20 12:00 264.8 0.0 0.00 81.0 27.2 62.5 10.5
2017 08 20 13:00 263.4 0.0 0.00 85.9 29.9 54.26 11.0
2017 08 20 14:00 263.0 0.0 0.00 87.6 30.9 52.54 13.2
2017 08 20 15:00 264.4 0.0 0.00 81.9 27.7 65.33 13.1
2017 08 20 16:00 Wet 320.4 0.0 0.25 74.2 23.4 83.3 9.3
2017 08 20 17:00 266.1 0.0 0.00 76.9 25.0 78.01 7.4
2017 08 20 18:00 265.3 0.0 0.00 78.1 25.6 75.13 2.0
2017 08 20 19:00 266.1 0.0 0.00 76.1 24.5 78.69 2.8
2017 08 20 20:00 281.0 0.0 0.00 71.5 21.9 90.8 2.0
2017 08 20 21:00 Wet 314.1 0.0 0.00 69.0 20.5 95.2 2.9
2017 08 20 22:00 Wet 318.1 0.0 0.00 69.2 20.7 92.6 1.1
2017 08 20 23:00 Wet 307.2 0.0 0.00 68.3 20.2 93.9 2.1
2017 08 20 24:00 Wet 303.6 0.0 0.00 68.0 20.0 93.8 1.8
2017 08 21 1:00 Wet 293.2 0.0 0.00 67.7 19.9 92.2 3.0
2017 08 21 2:00 271.5 0.0 0.00 67.7 19.9 93 3.2
2017 08 21 3:00 283.0 0.0 0.00 66.4 19.1 97.3 2.7
2017 08 21 4:00 Wet 286.1 0.0 0.00 68.5 20.3 98.3 5.3
2017 08 21 5:00 272.4 0.0 0.00 69.1 20.6 96.5 4.7
2017 08 21 6:00 275.5 0.0 0.00 68.6 20.3 96.8 2.5
2017 08 21 7:00 269.8 0.0 0.00 69.8 21.0 93.4 4.7
2017 08 21 8:00 268.7 0.0 0.00 71.6 22.0 87.5 6.3
2017 08 21 9:00 269.8 0.0 0.00 75.7 24.3 76.29 6.0
2017 08 21 10:00 Wet 315.5 0.1 3.05 72.0 22.2 92.2 5.2
2017 08 21 11:00 272.2 0.0 0.51 73.5 23.1 90.3 7.6
2017 08 21 12:00 Wet 400.2 0.7 16.51 72.6 22.5 95.5 5.2
2017 08 21 13:00 Wet 355.2 0.0 1.02 70.8 21.6 99.9 5.1
2017 08 21 14:00 Wet 325.1 0.0 0.25 71.9 22.2 99.4 8.4
2017 08 21 15:00 267.7 0.0 0.00 79.2 26.2 81.6 7.5
2017 08 21 16:00 267.1 0.0 0.00 78.8 26.0 81.8 7.2
2017 08 21 17:00 Wet 355.1 0.0 1.02 76.6 24.8 89 6.5
2017 08 21 18:00 Wet 418.3 0.1 2.03 74.6 23.7 97.3 5.2
2017 08 21 19:00 Wet 293.4 0.0 0.00 74.5 23.6 97.8 5.6
2017 08 21 20:00 279.2 0.0 0.00 72.7 22.6 96.7 5.2
2017 08 21 21:00 271.7 0.0 0.00 71.0 21.7 95.7 5.2
2017 08 21 22:00 Wet 342.5 0.2 4.83 70.4 21.3 95.8 6.9
2017 08 21 23:00 Wet 471.8 1.2 31.50 67.1 19.5 99.6 6.5
2017 08 21 24:00 Wet 425.7 0.3 8.38 67.0 19.5 99.9 5.4
2017 08 22 1:00 Wet 396.4 0.1 2.29 66.9 19.4 99.9 3.8
2017 08 22 2:00 Wet 455.5 0.3 8.64 66.7 19.3 99.9 3.5
2017 08 22 3:00 Wet 431.0 0.4 9.40 65.9 18.8 99.9 4.6
2017 08 22 4:00 Wet 379.9 0.1 2.29 64.7 18.2 99.7 7.9
2017 08 22 5:00 Wet 297.8 0.0 0.00 64.8 18.2 97.8 4.6
2017 08 22 6:00 282.9 0.0 0.00 64.3 17.9 98.8 6.1
2017 08 22 7:00 278.0 0.0 0.00 65.0 18.4 97.8 6.7
2017 08 22 8:00 271.1 0.0 0.00 66.8 19.3 94.3 6.8
2017 08 22 9:00 269.1 0.0 0.00 69.5 20.9 86.8 10.1
2017 08 22 10:00 268.1 0.0 0.00 72.2 22.3 81.6 10.8
2017 08 22 11:00 267.0 0.0 0.00 74.8 23.8 74.73 10.9
2017 08 22 12:00 265.3 0.0 0.00 76.7 24.8 59.23 12.5
2017 08 22 13:00 263.8 0.0 0.00 77.5 25.3 51.95 12.3
2017 08 22 14:00 263.1 0.0 0.00 78.1 25.6 48.08 12.6
2017 08 22 15:00 262.1 0.0 0.00 78.3 25.7 46.33 11.7
2017 08 22 16:00 261.7 0.0 0.00 77.8 25.5 41.93 12.3
2017 08 22 17:00 261.5 0.0 0.00 76.8 24.9 41.9 11.2
2017 08 22 18:00 261.9 0.0 0.00 74.5 23.6 42.56 9.3
2017 08 22 19:00 263.4 0.0 0.00 68.8 20.5 57.52 5.2
2017 08 22 20:00 265.9 0.0 0.00 63.7 17.6 66.37 4.4
2017 08 22 21:00 266.7 0.0 0.00 61.3 16.3 73.14 4.8
2017 08 22 22:00 267.3 0.0 0.00 59.9 15.5 76.81 2.6
2017 08 22 23:00 268.9 0.0 0.00 58.4 14.7 81.2 2.2
2017 08 22 24:00 276.5 0.0 0.00 57.4 14.1 86.1 1.9
2017 08 23 1:00 Wet 304.1 0.0 0.00 56.5 13.6 89.6 2.1
2017 08 23 2:00 Wet 330.5 0.0 0.00 55.1 12.8 88.5 3.3
2017 08 23 3:00 Wet 333.6 0.0 0.00 54.4 12.4 89.3 3.8
2017 08 23 4:00 Wet 351.0 0.0 0.00 53.5 12.0 90.9 3.8
2017 08 23 5:00 Wet 413.1 0.0 0.00 53.2 11.8 92.8 3.0
2017 08 23 6:00 Wet 424.4 0.0 0.00 52.9 11.6 92.5 3.4
2017 08 23 7:00 Wet 302.2 0.0 0.00 56.2 13.4 89.1 3.7
2017 08 23 8:00 267.9 0.0 0.00 62.8 17.1 78.62 4.5
2017 08 23 9:00 266.4 0.0 0.00 68.4 20.2 62.13 5.4
2017 08 23 10:00 265.1 0.0 0.00 71.4 21.9 50.55 7.0
2017 08 23 11:00 263.8 0.0 0.00 73.2 22.9 45.62 7.7
2017 08 23 12:00 262.5 0.0 0.00 74.2 23.4 44.07 7.0
2017 08 23 13:00 261.4 0.0 0.00 75.1 23.9 42.02 7.0
2017 08 23 14:00 260.6 0.0 0.00 76.0 24.4 40.97 6.9
2017 08 23 15:00 259.9 0.0 0.00 76.6 24.8 39.58 6.0
2017 08 23 16:00 259.6 0.0 0.00 76.7 24.8 38.96 5.5
2017 08 23 17:00 259.5 0.0 0.00 76.5 24.7 39.04 4.9
2017 08 23 18:00 259.9 0.0 0.00 75.7 24.3 40.84 3.4
2017 08 23 19:00 262.2 0.0 0.00 72.8 22.7 51.07 1.1
2017 08 23 20:00 269.2 0.0 0.00 65.1 18.4 78.45 0.7
2017 08 23 21:00 Wet 301.5 0.0 0.00 61.1 16.1 91.1 1.0
2017 08 23 22:00 Wet 365.7 0.0 0.00 59.0 15.0 96.9 0.6
2017 08 23 23:00 Wet 423.8 0.0 0.00 57.9 14.4 97 1.9
2017 08 23 24:00 Wet 454.2 0.0 0.00 57.2 14.0 94.3 1.5
2017 08 24 1:00 Wet 473.1 0.0 0.00 56.0 13.3 96.9 1.9
2017 08 24 2:00 Wet 484.5 0.0 0.00 54.6 12.5 97.9 2.5
2017 08 24 3:00 Wet 484.0 0.0 0.00 54.9 12.7 99 1.8
2017 08 24 4:00 Wet 444.5 0.0 0.00 55.1 12.8 98.2 2.2
2017 08 24 5:00 Wet 396.1 0.0 0.00 56.0 13.3 97.4 1.1
2017 08 24 6:00 Wet 335.6 0.0 0.00 58.5 14.7 92.2 1.9
2017 08 24 7:00 Wet 310.9 0.0 0.00 59.5 15.3 93.1 1.6
2017 08 24 8:00 272.8 0.0 0.00 63.4 17.4 88 2.1
2017 08 24 9:00 266.4 0.0 0.00 68.2 20.1 74.1 1.5
2017 08 24 10:00 265.5 0.0 0.00 72.0 22.2 60.87 2.3
2017 08 24 11:00 263.8 0.0 0.00 74.9 23.8 51.28 3.3
2017 08 24 12:00 262.7 0.0 0.00 76.3 24.6 48.73 4.5
2017 08 24 13:00 261.8 0.0 0.00 77.2 25.1 48.06 5.3
2017 08 24 14:00 261.9 0.0 0.00 77.5 25.3 50.26 6.5
2017 08 24 15:00 261.8 0.0 0.00 77.4 25.2 50.2 5.1
2017 08 24 16:00 261.3 0.0 0.00 77.6 25.3 50.26 5.8
2017 08 24 17:00 262.9 0.0 0.00 75.9 24.4 55.77 4.0
2017 08 24 18:00 263.6 0.0 0.00 74.5 23.6 60.97 3.3
2017 08 24 19:00 264.7 0.0 0.00 71.9 22.2 68.28 3.3
2017 08 24 20:00 265.6 0.0 0.00 68.8 20.4 71.49 3.8
2017 08 24 21:00 266.3 0.0 0.00 66.5 19.1 75.67 3.9
2017 08 24 22:00 267.2 0.0 0.00 63.7 17.6 84.7 3.4
2017 08 24 23:00 269.1 0.0 0.00 62.4 16.9 88.6 2.1
2017 08 24 24:00 269.3 0.0 0.00 62.1 16.7 89 3.1
2017 08 25 1:00 269.0 0.0 0.00 61.9 16.6 88.6 3.8
2017 08 25 2:00 270.5 0.0 0.00 61.0 16.1 90.3 2.8
2017 08 25 3:00 273.9 0.0 0.00 59.8 15.4 93.1 3.1
2017 08 25 4:00 280.5 0.0 0.00 59.5 15.3 94.8 3.8
2017 08 25 5:00 272.2 0.0 0.00 59.3 15.2 93.6 4.6
2017 08 25 6:00 271.1 0.0 0.00 58.6 14.8 94 4.7
2017 08 25 7:00 269.0 0.0 0.00 59.3 15.2 93.1 4.9
2017 08 25 8:00 267.9 0.0 0.00 62.2 16.8 87.3 5.7
2017 08 25 9:00 267.4 0.0 0.00 66.1 19.0 77.97 6.2
2017 08 25 10:00 266.2 0.0 0.00 69.6 20.9 68.98 6.2
2017 08 25 11:00 265.2 0.0 0.00 72.2 22.4 64.48 6.8
2017 08 25 12:00 264.3 0.0 0.00 74.5 23.6 60.36 8.4
2017 08 25 13:00 263.5 0.0 0.00 75.7 24.3 58.32 8.4
2017 08 25 14:00 263.4 0.0 0.00 76.0 24.4 58.23 8.0
2017 08 25 15:00 263.8 0.0 0.00 75.3 24.1 60.77 7.6
2017 08 25 16:00 264.0 0.0 0.00 75.0 23.9 61.57 7.2
2017 08 25 17:00 263.8 0.0 0.00 75.6 24.2 61.14 5.7
2017 08 25 18:00 264.2 0.0 0.00 73.8 23.2 63.5 4.5
2017 08 25 19:00 265.2 0.0 0.00 70.9 21.6 71.39 4.3
2017 08 25 20:00 266.5 0.0 0.00 68.0 20.0 77.62 4.5
2017 08 25 21:00 267.3 0.0 0.00 66.0 18.9 82.7 4.4
2017 08 25 22:00 268.1 0.0 0.00 64.2 17.9 86.5 4.2
2017 08 25 23:00 268.5 0.0 0.00 62.6 17.0 87.7 4.4
2017 08 25 24:00 268.4 0.0 0.00 61.5 16.4 85.7 5.3
2017 08 26 1:00 268.4 0.0 0.00 59.9 15.5 87.1 4.5
2017 08 26 2:00 268.9 0.0 0.00 59.2 15.1 86 3.3
2017 08 26 3:00 272.9 0.0 0.00 57.9 14.4 89.4 2.2
2017 08 26 4:00 275.2 0.0 0.00 56.9 13.8 90.8 3.1
2017 08 26 5:00 282.1 0.0 0.00 55.6 13.1 94.5 2.6
2017 08 26 6:00 Wet 311.6 0.0 0.00 55.5 13.1 96.2 2.4
2017 08 26 7:00 278.7 0.0 0.00 57.9 14.4 92.5 3.5
2017 08 26 8:00 267.8 0.0 0.00 63.3 17.4 81.8 5.5
2017 08 26 9:00 266.9 0.0 0.00 68.9 20.5 71.76 7.2
2017 08 26 10:00 265.9 0.0 0.00 72.8 22.7 65.05 8.4
2017 08 26 11:00 265.3 0.0 0.00 73.9 23.3 63.48 7.3
2017 08 26 12:00 264.3 0.0 0.00 76.6 24.8 58.56 7.1
2017 08 26 13:00 263.4 0.0 0.00 78.5 25.9 55.21 7.6
2017 08 26 14:00 263.6 0.0 0.00 78.4 25.8 55.77 6.3
2017 08 26 15:00 262.3 0.0 0.00 80.7 27.1 51.4 7.2
2017 08 26 16:00 261.9 0.0 0.00 80.5 27.0 52.81 6.7
2017 08 26 17:00 262.3 0.0 0.00 79.8 26.6 54.46 6.6
2017 08 26 18:00 263.3 0.0 0.00 77.7 25.4 59.6 5.3
2017 08 26 19:00 264.6 0.0 0.00 73.8 23.3 67.15 4.6
2017 08 26 20:00 265.9 0.0 0.00 70.1 21.1 71.71 3.5
2017 08 26 21:00 266.4 0.0 0.00 67.8 19.9 76.11 3.4
2017 08 26 22:00 268.0 0.0 0.00 65.7 18.7 81.5 2.0
2017 08 26 23:00 269.7 0.0 0.00 64.4 18.0 85.1 1.7
2017 08 26 24:00 270.1 0.0 0.00 63.6 17.6 89 2.4
2017 08 27 1:00 271.3 0.0 0.00 62.9 17.1 90.9 2.3
2017 08 27 2:00 276.9 0.0 0.00 62.2 16.8 92.5 2.3
2017 08 27 3:00 271.2 0.0 0.00 62.2 16.8 91.9 2.9
2017 08 27 4:00 273.3 0.0 0.00 61.4 16.4 93.6 2.8
2017 08 27 5:00 271.4 0.0 0.00 61.1 16.2 93.9 3.5
2017 08 27 6:00 276.1 0.0 0.00 60.2 15.7 95.8 2.7
2017 08 27 7:00 269.2 0.0 0.00 62.2 16.8 94.7 4.5
2017 08 27 8:00 268.5 0.0 0.00 65.7 18.7 89.9 4.4
2017 08 27 9:00 277.3 0.0 0.00 68.3 20.2 86.5 6.0
2017 08 27 10:00 Wet 308.0 0.0 0.00 68.9 20.5 90.1 3.7
2017 08 27 11:00 268.8 0.0 0.00 72.3 22.4 81.6 4.1
2017 08 27 12:00 267.6 0.0 0.00 73.0 22.8 78.68 5.8
2017 08 27 13:00 276.6 0.0 0.25 70.6 21.4 85.7 7.6
2017 08 27 14:00 Wet 437.7 0.4 10.41 65.7 18.7 96.8 7.6
2017 08 27 15:00 Wet 439.6 0.2 4.06 66.0 18.9 96.5 7.2
2017 08 27 16:00 Wet 363.5 0.1 1.52 65.4 18.6 97.9 5.1
2017 08 27 17:00 275.9 0.0 0.00 65.8 18.8 97.6 4.9
2017 08 27 18:00 270.3 0.0 0.00 65.8 18.8 96.7 4.2
2017 08 27 19:00 275.4 0.0 0.00 65.5 18.6 97.1 3.3
2017 08 27 20:00 Wet 360.2 0.0 0.00 63.8 17.6 99.5 3.4
2017 08 27 21:00 Wet 473.7 0.0 0.00 62.6 17.0 99.1 2.9
2017 08 27 22:00 Wet 475.5 0.0 0.00 60.7 16.0 99.9 3.0
2017 08 27 23:00 Wet 452.9 0.0 0.00 60.3 15.7 99.9 2.0
2017 08 27 24:00 Wet 401.8 0.0 0.00 60.3 15.7 99.9 1.9
2017 08 28 1:00 Wet 375.1 0.0 0.00 60.9 16.1 99.9 1.7
2017 08 28 2:00 Wet 366.1 0.0 0.00 60.9 16.1 99.9 1.0
2017 08 28 3:00 Wet 360.5 0.0 0.00 61.8 16.6 99.9 2.3
2017 08 28 4:00 Wet 357.2 0.0 0.00 62.8 17.1 99.9 3.5
2017 08 28 5:00 Wet 374.3 0.0 0.00 63.4 17.4 99.9 3.6
2017 08 28 6:00 Wet 371.1 0.0 0.00 63.9 17.7 99.9 3.7
2017 08 28 7:00 Wet 344.2 0.0 0.00 64.8 18.2 99.9 4.9
2017 08 28 8:00 Wet 302.8 0.0 0.00 65.6 18.7 99.9 6.1
2017 08 28 9:00 282.1 0.0 0.00 66.6 19.2 99.9 6.3
2017 08 28 10:00 269.2 0.0 0.00 68.7 20.4 96.4 5.8
2017 08 28 11:00 268.9 0.0 0.00 67.9 19.9 95.2 5.9
2017 08 28 12:00 268.4 0.0 0.00 68.0 20.0 93 5.7
2017 08 28 13:00 265.5 0.0 0.00 73.0 22.8 80.6 4.8
2017 08 28 14:00 264.3 0.0 0.00 75.7 24.3 68.67 6.4
2017 08 28 15:00 263.3 0.0 0.00 77.5 25.3 57.61 7.9
2017 08 28 16:00 263.6 0.0 0.00 76.5 24.7 58.37 8.7
2017 08 28 17:00 263.7 0.0 0.00 74.8 23.8 61.37 9.2
2017 08 28 18:00 264.1 0.0 0.00 72.3 22.4 65.93 9.2
2017 08 28 19:00 265.4 0.0 0.00 68.8 20.5 71.38 5.1
2017 08 28 20:00 267.3 0.0 0.00 65.0 18.3 80 4.5
2017 08 28 21:00 268.2 0.0 0.00 63.3 17.4 84.2 3.6
2017 08 28 22:00 270.7 0.0 0.00 61.6 16.4 88.7 3.2
2017 08 28 23:00 Wet 298.1 0.0 0.00 58.8 14.9 95.5 3.8
2017 08 28 24:00 Wet 344.2 0.0 0.00 58.0 14.4 97.3 3.4
2017 08 29 1:00 Wet 413.6 0.0 0.00 57.2 14.0 98.5 4.0
2017 08 29 2:00 Wet 456.1 0.0 0.00 57.2 14.0 98.9 3.7
2017 08 29 3:00 Wet 464.7 0.0 0.00 56.9 13.8 99.5 3.7
2017 08 29 4:00 Wet 448.4 0.0 0.00 57.4 14.1 99.9 4.0
2017 08 29 5:00 Wet 439.5 0.0 0.00 56.7 13.7 99.8 4.0
2017 08 29 6:00 Wet 440.3 0.0 0.00 56.9 13.9 99.9 4.0
2017 08 29 7:00 Wet 364.7 0.0 0.00 58.4 14.7 99.1 4.7
2017 08 29 8:00 280.1 0.0 0.00 62.0 16.6 94.5 4.7
2017 08 29 9:00 268.8 0.0 0.00 66.4 19.1 87.7 4.2
2017 08 29 10:00 267.8 0.0 0.00 70.1 21.2 80.1 5.3
2017 08 29 11:00 265.8 0.0 0.00 73.2 22.9 71.46 5.5
2017 08 29 12:00 264.5 0.0 0.00 74.5 23.6 65.29 4.6
2017 08 29 13:00 263.4 0.0 0.00 76.1 24.5 61.38 4.9
2017 08 29 14:00 263.2 0.0 0.00 76.4 24.7 59.79 4.3
2017 08 29 15:00 262.4 0.0 0.00 77.4 25.2 57.24 5.0
2017 08 29 16:00 262.3 0.0 0.00 77.9 25.5 57.14 5.3
2017 08 29 17:00 263.4 0.0 0.00 76.3 24.6 60.73 5.6
2017 08 29 18:00 263.3 0.0 0.00 75.9 24.4 59.81 4.3
2017 08 29 19:00 264.8 0.0 0.00 72.3 22.4 68.27 2.6
2017 08 29 20:00 268.1 0.0 0.00 67.7 19.8 80.1 2.0
2017 08 29 21:00 Wet 295.6 0.0 0.00 64.3 17.9 92.4 1.3
2017 08 29 22:00 Wet 330.3 0.0 0.00 63.8 17.6 91.7 2.3
2017 08 29 23:00 Wet 365.5 0.0 0.00 62.6 17.0 94.6 2.5
2017 08 29 24:00 Wet 403.1 0.0 0.00 61.8 16.5 95.7 1.5
2017 08 30 1:00 Wet 452.6 0.0 0.00 60.4 15.8 99.7 1.8
2017 08 30 2:00 Wet 461.8 0.0 0.00 59.9 15.5 99.9 1.6
2017 08 30 3:00 Wet 412.2 0.0 0.00 59.0 15.0 100 1.5
2017 08 30 4:00 Wet 380.0 0.0 0.00 57.8 14.4 99.9 1.5
2017 08 30 5:00 Wet 364.4 0.0 0.00 56.9 13.9 99.9 2.1
2017 08 30 6:00 Wet 358.6 0.0 0.00 57.3 14.0 99.9 3.9
2017 08 30 7:00 Wet 311.1 0.0 0.00 59.6 15.3 99.9 2.5
2017 08 30 8:00 Wet 285.6 0.0 0.00 64.2 17.9 94.3 3.9
2017 08 30 9:00 270.7 0.0 0.00 68.6 20.4 83.4 4.7
2017 08 30 10:00 267.2 0.0 0.00 71.8 22.1 74.87 5.1
2017 08 30 11:00 265.3 0.0 0.00 74.6 23.7 66.98 5.1
2017 08 30 12:00 264.3 0.0 0.00 75.6 24.2 62.3 5.7
2017 08 30 13:00 263.3 0.0 0.00 76.9 24.9 58.93 5.1
2017 08 30 14:00 261.9 0.0 0.00 78.3 25.7 55.4 5.0
2017 08 30 15:00 261.7 0.0 0.00 78.4 25.8 54.99 5.2
2017 08 30 16:00 261.9 0.0 0.00 78.0 25.6 55.05 5.2
2017 08 30 17:00 261.6 0.0 0.00 78.2 25.7 53.73 4.1
2017 08 30 18:00 262.8 0.0 0.00 76.9 24.9 58.63 3.2
2017 08 30 19:00 264.7 0.0 0.00 74.3 23.5 64.14 1.8
2017 08 30 20:00 270.9 0.0 0.00 68.5 20.3 81.3 1.5
2017 08 30 21:00 Wet 294.2 0.0 0.00 65.8 18.8 88.9 1.5
2017 08 30 22:00 Wet 326.7 0.0 0.00 64.1 17.8 92 2.0
2017 08 30 23:00 Wet 327.7 0.0 0.00 63.5 17.5 92 1.6
2017 08 30 24:00 Wet 382.2 0.0 0.00 61.3 16.3 98 2.0
2017 08 31 1:00 Wet 421.6 0.0 0.00 60.4 15.8 98.2 2.5
2017 08 31 2:00 Wet 417.2 0.0 0.00 58.8 14.9 99.3 2.2
2017 08 31 3:00 Wet 393.7 0.0 0.00 58.8 14.9 99.9 3.1
2017 08 31 4:00 Wet 383.8 0.0 0.00 58.6 14.8 99.7 2.5
2017 08 31 5:00 Wet 381.4 0.0 0.00 58.6 14.8 99.7 3.1
2017 08 31 6:00 Wet 374.4 0.0 0.00 58.8 14.9 99.1 3.0
2017 08 31 7:00 Wet 320.4 0.0 0.00 60.6 15.9 97 3.1
2017 08 31 8:00 278.1 0.0 0.00 65.0 18.4 90.8 4.7
2017 08 31 9:00 268.3 0.0 0.00 69.0 20.6 81 6.5
2017 08 31 10:00 267.1 0.0 0.00 72.0 22.2 72.91 7.5
2017 08 31 11:00 265.8 0.0 0.00 74.6 23.7 67.49 7.9
2017 08 31 12:00 264.8 0.0 0.00 76.2 24.6 63.32 7.9
2017 08 31 13:00 264.1 0.0 0.00 77.5 25.3 61.68 7.3
2017 08 31 14:00 263.5 0.0 0.00 78.4 25.8 58.99 8.2
2017 08 31 15:00 263.6 0.0 0.00 78.3 25.7 59.49 8.5
2017 08 31 16:00 263.5 0.0 0.00 78.0 25.6 62.22 7.6
2017 08 31 17:00 263.6 0.0 0.00 77.2 25.1 64.12 7.9
2017 08 31 18:00 264.5 0.0 0.00 75.1 23.9 69.11 6.1
2017 08 31 19:00 266.1 0.0 0.00 71.2 21.8 77.76 5.2
2017 08 31 20:00 267.5 0.0 0.00 68.4 20.2 84.9 5.7
2017 08 31 21:00 267.6 0.0 0.00 67.0 19.4 82.5 6.7
2017 08 31 22:00 267.6 0.0 0.00 64.8 18.2 80.7 6.5
2017 08 31 23:00 267.7 0.0 0.00 62.3 16.8 80.4 6.0
2017 08 31 24:00 267.3 0.0 0.00 60.4 15.8 78.46 7.2
2017 09 01 1:00 267.5 0.0 0.00 58.3 14.6 80.5 6.1
2017 09 01 2:00 268.7 0.0 0.00 55.8 13.2 87.4 4.4
2017 09 01 3:00 271.2 0.0 0.00 54.3 12.4 90.7 3.4
2017 09 01 4:00 277.2 0.0 0.00 53.4 11.9 94 4.2
2017 09 01 5:00 Wet 294.3 0.0 0.00 52.7 11.5 96.3 4.0
2017 09 01 6:00 Wet 338.9 0.0 0.00 52.1 11.2 97.7 4.1
2017 09 01 7:00 Wet 344.4 0.0 0.00 53.0 11.7 97.7 5.1
2017 09 01 8:00 274.6 0.0 0.00 56.6 13.7 92.8 6.4
2017 09 01 9:00 268.0 0.0 0.00 61.0 16.1 81.6 8.1
2017 09 01 10:00 266.8 0.0 0.00 64.2 17.9 70.12 8.6
2017 09 01 11:00 265.3 0.0 0.00 67.0 19.4 61.27 7.8
2017 09 01 12:00 264.0 0.0 0.00 68.6 20.3 56.06 7.8
2017 09 01 13:00 263.3 0.0 0.00 69.6 20.9 50.54 7.2
2017 09 01 14:00 262.2 0.0 0.00 70.6 21.4 49.5 6.8
2017 09 01 15:00 261.8 0.0 0.00 71.3 21.8 47.86 6.1
2017 09 01 16:00 261.4 0.0 0.00 71.7 22.0 46.27 6.1
2017 09 01 17:00 261.9 0.0 0.00 70.7 21.5 46.08 5.8
2017 09 01 18:00 262.7 0.0 0.00 68.4 20.2 52.75 4.6
2017 09 01 19:00 264.9 0.0 0.00 64.0 17.8 67.19 2.5
2017 09 01 20:00 277.0 0.0 0.00 57.8 14.4 82.6 2.5
2017 09 01 21:00 Wet 326.0 0.0 0.00 54.8 12.7 91.4 1.3
2017 09 01 22:00 Wet 373.7 0.0 0.00 53.7 12.0 88.8 1.4
2017 09 01 23:00 Wet 408.1 0.0 0.00 52.2 11.2 92.8 2.3
2017 09 01 24:00 Wet 430.6 0.0 0.00 50.6 10.3 95 2.5
2017 09 02 1:00 Wet 457.1 0.0 0.00 49.0 9.5 98.8 2.4
2017 09 02 2:00 Wet 462.2 0.0 0.00 48.4 9.1 98.9 1.7
2017 09 02 3:00 Wet 407.4 0.0 0.00 47.4 8.6 99.9 1.6
2017 09 02 4:00 Wet 372.4 0.0 0.00 47.1 8.4 100 0.7
2017 09 02 5:00 Wet 348.1 0.0 0.00 47.5 8.6 100 1.8
2017 09 02 6:00 Wet 334.2 0.0 0.00 49.7 9.8 100 1.9
2017 09 02 7:00 Wet 300.2 0.0 0.00 51.8 11.0 99.9 1.3
2017 09 02 8:00 278.8 0.0 0.00 57.2 14.0 90.2 4.8
2017 09 02 9:00 267.8 0.0 0.00 62.7 17.0 75.58 7.0
2017 09 02 10:00 266.1 0.0 0.00 67.1 19.5 64.95 6.6
2017 09 02 11:00 264.9 0.0 0.00 70.0 21.1 62.94 4.8
2017 09 02 12:00 263.8 0.0 0.00 73.0 22.8 59.78 4.3
2017 09 02 13:00 263.3 0.0 0.00 75.2 24.0 56.58 5.5
2017 09 02 14:00 262.8 0.0 0.00 77.1 25.1 55.37 6.1
2017 09 02 15:00 263.0 0.0 0.00 78.2 25.7 57.19 6.9
2017 09 02 16:00 263.3 0.0 0.00 78.7 25.9 58.57 8.1
2017 09 02 17:00 263.3 0.0 0.00 78.4 25.8 61 7.3
2017 09 02 18:00 264.3 0.0 0.00 76.9 24.9 65.52 5.7
2017 09 02 19:00 266.1 0.0 0.00 73.8 23.2 74.86 3.5
2017 09 02 20:00 267.1 0.0 0.00 71.2 21.8 80.8 3.6
2017 09 02 21:00 268.1 0.0 0.00 69.2 20.7 85.7 3.9
2017 09 02 22:00 268.3 0.0 0.00 69.7 20.9 85 3.9
2017 09 02 23:00 268.3 0.0 0.00 69.2 20.6 88.2 4.8
2017 09 02 24:00 269.9 0.0 0.00 67.8 19.9 91.8 4.1
2017 09 03 1:00 271.0 0.0 0.00 66.8 19.3 93.7 2.8
2017 09 03 2:00 Wet 298.1 0.0 0.00 65.6 18.6 97 1.5
2017 09 03 3:00 Wet 333.6 0.0 0.00 65.7 18.7 95 3.3
2017 09 03 4:00 Wet 391.3 0.0 0.00 62.4 16.9 99.4 1.4
2017 09 03 5:00 Wet 409.1 0.0 0.00 61.1 16.1 99.9 0.7
2017 09 03 6:00 Wet 358.5 0.0 0.00 58.5 14.7 99.9 1.1
2017 09 03 7:00 Wet 324.0 0.0 0.00 59.4 15.2 99.9 2.3
2017 09 03 8:00 280.2 0.0 0.00 66.2 19.0 94.7 3.3
2017 09 03 9:00 268.2 0.0 0.00 71.9 22.1 76.64 3.9
2017 09 03 10:00 266.2 0.0 0.00 75.6 24.2 63.78 4.4
2017 09 03 11:00 264.3 0.0 0.00 78.1 25.6 52.73 4.1
2017 09 03 12:00 263.0 0.0 0.00 80.2 26.8 51.09 3.3
2017 09 03 13:00 262.1 0.0 0.00 81.8 27.7 46.6 4.1
2017 09 03 14:00 261.1 0.0 0.00 83.1 28.4 41.74 4.3
2017 09 03 15:00 260.7 0.0 0.00 83.5 28.6 40.09 5.3
2017 09 03 16:00 260.5 0.0 0.00 83.7 28.7 39.91 4.8
2017 09 03 17:00 261.2 0.0 0.00 82.1 27.8 46.8 5.0
2017 09 03 18:00 262.6 0.0 0.00 78.8 26.0 55.26 3.5
2017 09 03 19:00 265.1 0.0 0.00 73.1 22.8 68.22 1.6
2017 09 03 20:00 267.3 0.0 0.00 68.3 20.1 78.3 2.3
2017 09 03 21:00 267.6 0.0 0.00 67.3 19.6 78.98 2.9
2017 09 03 22:00 267.8 0.0 0.00 66.1 19.0 80.4 2.6
2017 09 03 23:00 267.9 0.0 0.00 65.1 18.4 81.9 3.9
2017 09 03 24:00 267.7 0.0 0.00 65.6 18.7 80.8 5.0
2017 09 04 1:00 267.7 0.0 0.00 65.7 18.7 79.38 5.9
2017 09 04 2:00 268.3 0.0 0.00 65.2 18.5 87.4 5.4
2017 09 04 3:00 269.0 0.0 0.00 66.2 19.0 90.2 5.7
2017 09 04 4:00 269.1 0.0 0.00 66.5 19.1 91.2 6.5
2017 09 04 5:00 269.4 0.0 0.00 66.8 19.3 91.9 6.8
2017 09 04 6:00 269.2 0.0 0.00 68.4 20.2 89.5 7.6
2017 09 04 7:00 268.2 0.0 0.00 71.9 22.1 82.5 11.0
2017 09 04 8:00 267.7 0.0 0.00 74.1 23.4 77.33 12.2
2017 09 04 9:00 267.0 0.0 0.00 76.6 24.8 73.61 12.9
2017 09 04 10:00 266.5 0.0 0.00 79.4 26.3 71.37 12.7
2017 09 04 11:00 265.6 0.0 0.00 81.9 27.7 65.78 13.6
2017 09 04 12:00 265.1 0.0 0.00 82.4 28.0 65.2 12.5
2017 09 04 13:00 264.9 0.0 0.00 81.5 27.5 66.61 11.2
2017 09 04 14:00 265.3 0.0 0.00 80.2 26.8 69.93 9.5
2017 09 04 15:00 265.9 0.0 0.00 77.8 25.4 71.81 8.7
2017 09 04 16:00 266.0 0.0 0.00 75.3 24.1 73.13 5.8
2017 09 04 17:00 265.7 0.0 0.00 75.2 24.0 68.4 7.8
2017 09 04 18:00 265.7 0.0 0.00 72.9 22.7 66.02 7.8
2017 09 04 19:00 265.9 0.0 0.00 68.4 20.2 61.55 7.1
2017 09 04 20:00 267.2 0.0 0.00 62.9 17.1 74.77 4.3
2017 09 04 21:00 268.1 0.0 0.00 60.6 15.9 80.8 4.2
2017 09 04 22:00 268.9 0.0 0.00 60.5 15.9 84.5 3.9
2017 09 04 23:00 271.8 0.0 0.00 58.5 14.8 88.7 4.1
2017 09 04 24:00 268.7 0.0 0.00 60.3 15.7 84 6.1
2017 09 05 1:00 268.5 0.0 0.00 60.7 16.0 82.6 7.4
2017 09 05 2:00 268.4 0.0 0.00 60.1 15.6 85.5 6.5
2017 09 05 3:00 269.1 0.0 0.00 58.5 14.8 88.3 6.2
2017 09 05 4:00 283.4 0.0 0.00 56.1 13.4 93.3 4.3
2017 09 05 5:00 Wet 335.0 0.0 0.00 54.4 12.4 94.6 3.7
2017 09 05 6:00 Wet 394.9 0.0 0.00 52.9 11.6 95 4.4
2017 09 05 7:00 Wet 321.9 0.0 0.00 54.9 12.7 89.4 6.9
2017 09 05 8:00 268.6 0.0 0.00 59.0 15.0 75.73 8.7
2017 09 05 9:00 266.7 0.0 0.00 62.8 17.1 62.95 10.3
2017 09 05 10:00 265.5 0.0 0.00 66.0 18.9 52.36 10.8
2017 09 05 11:00 264.2 0.0 0.00 67.9 19.9 46.35 11.2
2017 09 05 12:00 263.8 0.0 0.00 67.8 19.9 45.03 12.5
2017 09 05 13:00 263.2 0.0 0.00 69.0 20.5 41.42 14.1
2017 09 05 14:00 262.5 0.0 0.00 69.0 20.5 38.86 14.7
2017 09 05 15:00 261.7 0.0 0.00 69.7 20.9 37.58 13.6
2017 09 05 16:00 261.6 0.0 0.00 69.1 20.6 37.41 13.1
2017 09 05 17:00 261.7 0.0 0.00 68.0 20.0 37.35 12.1
2017 09 05 18:00 262.3 0.0 0.00 65.7 18.7 40.39 8.9
2017 09 05 19:00 264.0 0.0 0.00 59.6 15.3 52.98 5.3
2017 09 05 20:00 265.7 0.0 0.00 55.5 13.1 62.31 3.5
2017 09 05 21:00 267.1 0.0 0.00 53.1 11.7 70.38 2.9
2017 09 05 22:00 267.6 0.0 0.00 51.0 10.6 76.3 3.3
2017 09 05 23:00 268.3 0.0 0.00 49.8 9.9 78.63 3.7
2017 09 05 24:00 268.3 0.0 0.00 49.0 9.5 80.6 3.9
2017 09 06 1:00 269.2 0.0 0.00 47.8 8.8 83.2 3.9
2017 09 06 2:00 269.3 0.0 0.00 47.5 8.6 84.7 4.0
2017 09 06 3:00 269.1 0.0 0.00 47.1 8.4 85.8 4.9
2017 09 06 4:00 269.4 0.0 0.00 46.8 8.2 86.7 5.2
2017 09 06 5:00 273.3 0.0 0.00 46.0 7.8 90.3 4.3
2017 09 06 6:00 Wet 297.1 0.0 0.00 44.9 7.2 92.9 4.1
2017 09 06 7:00 275.6 0.0 0.00 47.4 8.6 90.5 6.4
2017 09 06 8:00 267.9 0.0 0.00 52.6 11.5 82 7.2
2017 09 06 9:00 267.0 0.0 0.00 56.6 13.7 71.12 8.3
2017 09 06 10:00 265.9 0.0 0.00 59.8 15.4 63.7 9.1
2017 09 06 11:00 264.6 0.0 0.00 62.7 17.0 57.58 10.7
2017 09 06 12:00 263.8 0.0 0.00 64.0 17.8 54.2 9.8
2017 09 06 13:00 263.5 0.0 0.00 64.9 18.3 50.91 10.9
2017 09 06 14:00 263.3 0.0 0.00 65.4 18.6 48.93 10.5
2017 09 06 15:00 263.4 0.0 0.00 65.2 18.4 49.02 8.4
2017 09 06 16:00 263.8 0.0 0.00 64.5 18.1 51.38 6.4
2017 09 06 17:00 264.1 0.0 0.00 64.0 17.8 53.45 6.3
2017 09 06 18:00 264.5 0.0 0.00 63.2 17.3 58.36 3.7
2017 09 06 19:00 265.3 0.0 0.00 61.4 16.4 60.79 2.8
2017 09 06 20:00 268.9 0.0 0.00 57.3 14.1 81.2 1.3
2017 09 06 21:00 Wet 306.7 0.0 0.00 53.4 11.9 92.1 2.1
2017 09 06 22:00 Wet 366.6 0.0 0.00 51.1 10.6 96.5 2.0
2017 09 06 23:00 Wet 414.8 0.0 0.00 49.8 9.9 97.9 0.9
2017 09 06 24:00 Wet 432.3 0.0 0.00 47.9 8.8 99 0.9
2017 09 07 1:00 Wet 427.1 0.0 0.00 46.3 7.9 99.3 1.3
2017 09 07 2:00 Wet 423.3 0.0 0.00 48.0 8.9 99.5 1.8
2017 09 07 3:00 Wet 395.6 0.0 0.00 47.2 8.4 99.1 1.1
2017 09 07 4:00 Wet 377.0 0.0 0.00 46.8 8.2 99.2 0.1
2017 09 07 5:00 Wet 365.8 0.0 0.00 45.7 7.6 99.1 1.2
2017 09 07 6:00 Wet 357.1 0.0 0.00 45.9 7.7 97 3.0
2017 09 07 7:00 Wet 304.8 0.0 0.00 49.3 9.6 90.5 4.1
2017 09 07 8:00 273.6 0.0 0.00 56.1 13.4 76.94 6.2
2017 09 07 9:00 266.8 0.0 0.00 62.1 16.7 64.64 6.9
2017 09 07 10:00 265.2 0.0 0.00 66.1 19.0 49.93 7.5
2017 09 07 11:00 263.7 0.0 0.00 68.1 20.1 42.7 7.9
2017 09 07 12:00 262.6 0.0 0.00 69.3 20.7 40.68 7.2
2017 09 07 13:00 261.8 0.0 0.00 70.4 21.4 41 6.8
2017 09 07 14:00 260.9 0.0 0.00 71.4 21.9 39.21 6.2
2017 09 07 15:00 260.4 0.0 0.00 72.1 22.3 38.65 5.7
2017 09 07 16:00 259.9 0.0 0.00 72.5 22.5 38.09 4.9
2017 09 07 17:00 260.4 0.0 0.00 72.1 22.3 39.56 4.5
2017 09 07 18:00 261.7 0.0 0.00 70.6 21.4 46.68 3.1
2017 09 07 19:00 264.3 0.0 0.00 65.2 18.5 60.83 1.5
2017 09 07 20:00 272.0 0.0 0.00 58.3 14.6 82.6 1.7
2017 09 07 21:00 Wet 304.2 0.0 0.00 54.7 12.6 92.3 1.4
2017 09 07 22:00 Wet 345.8 0.0 0.00 52.5 11.4 92.7 2.2
2017 09 07 23:00 Wet 371.6 0.0 0.00 52.5 11.4 88.1 1.9
2017 09 07 24:00 Wet 394.1 0.0 0.00 51.8 11.0 90.1 1.7
2017 09 08 1:00 Wet 397.3 0.0 0.00 51.6 10.9 86.8 2.3
2017 09 08 2:00 Wet 398.2 0.0 0.00 51.6 10.9 84.6 2.3
2017 09 08 3:00 Wet 390.4 0.0 0.00 51.6 10.9 83 1.7
2017 09 08 4:00 Wet 381.9 0.0 0.00 51.5 10.8 83.1 2.1
2017 09 08 5:00 Wet 368.3 0.0 0.00 50.9 10.5 83.8 2.6
2017 09 08 6:00 Wet 341.6 0.0 0.00 51.1 10.6 82.5 2.7
2017 09 08 7:00 282.7 0.0 0.00 53.0 11.7 81.7 2.7
2017 09 08 8:00 267.7 0.0 0.00 59.6 15.4 75.03 4.5
2017 09 08 9:00 266.3 0.0 0.00 66.7 19.3 62.14 6.0
2017 09 08 10:00 265.1 0.0 0.00 71.9 22.2 55.49 7.5
2017 09 08 11:00 263.9 0.0 0.00 75.2 24.0 49.52 9.1
2017 09 08 12:00 263.3 0.0 0.00 77.4 25.2 48.13 9.0
2017 09 08 13:00 262.2 0.0 0.00 79.5 26.4 45.83 7.7
2017 09 08 14:00 261.3 0.0 0.00 81.1 27.3 43.34 6.8
2017 09 08 15:00 260.6 0.0 0.00 82.2 27.9 42.19 5.7
2017 09 08 16:00 260.4 0.0 0.00 82.8 28.3 42.43 5.2
2017 09 08 17:00 260.5 0.0 0.00 81.8 27.7 44.89 4.5
2017 09 08 18:00 262.1 0.0 0.00 78.7 25.9 51.65 4.0
2017 09 08 19:00 264.1 0.0 0.00 72.9 22.7 61.95 3.6
2017 09 08 20:00 265.2 0.0 0.00 69.4 20.8 67.71 3.5
2017 09 08 21:00 265.1 0.0 0.00 68.9 20.5 65.49 4.4
2017 09 08 22:00 265.3 0.0 0.00 67.3 19.6 67.23 4.4
2017 09 08 23:00 266.0 0.0 0.00 64.7 18.1 73.63 3.9
2017 09 08 24:00 266.4 0.0 0.00 63.0 17.2 77.91 3.4
2017 09 09 1:00 266.9 0.0 0.00 62.1 16.7 80.9 2.8
2017 09 09 2:00 268.1 0.0 0.00 60.2 15.6 85.7 2.9
2017 09 09 3:00 268.4 0.0 0.00 58.9 15.0 89 2.6
2017 09 09 4:00 268.6 0.0 0.00 58.5 14.7 89.8 3.8
2017 09 09 5:00 268.7 0.0 0.00 58.2 14.5 89.1 2.8
2017 09 09 6:00 269.2 0.0 0.00 57.3 14.1 89.7 2.9
2017 09 09 7:00 269.1 0.0 0.00 56.6 13.7 91.2 2.9
2017 09 09 8:00 268.0 0.0 0.00 59.8 15.4 84.9 3.3
2017 09 09 9:00 266.6 0.0 0.00 66.3 19.1 71.54 4.1
2017 09 09 10:00 265.2 0.0 0.00 71.8 22.1 64.1 2.9
2017 09 09 11:00 264.4 0.0 0.00 74.4 23.6 63.3 5.0
2017 09 09 12:00 263.5 0.0 0.00 76.4 24.7 60.98 5.8
2017 09 09 13:00 263.3 0.0 0.00 77.5 25.3 59.82 4.9
2017 09 09 14:00 262.4 0.0 0.00 80.0 26.6 55.4 5.5
2017 09 09 15:00 262.8 0.0 0.00 79.7 26.5 53.75 5.8
2017 09 09 16:00 262.0 0.0 0.00 80.1 26.7 53.29 6.3
2017 09 09 17:00 262.8 0.0 0.00 79.1 26.2 56.4 4.8
2017 09 09 18:00 263.7 0.0 0.00 76.9 25.0 61.28 4.0
2017 09 09 19:00 265.3 0.0 0.00 72.8 22.7 68.62 3.5
2017 09 09 20:00 266.5 0.0 0.00 68.5 20.3 77.26 3.5
2017 09 09 21:00 267.3 0.0 0.00 66.7 19.3 80.2 3.2
2017 09 09 22:00 267.5 0.0 0.00 65.1 18.4 80.4 3.4
2017 09 09 23:00 267.7 0.0 0.00 63.8 17.7 80.3 3.5
2017 09 09 24:00 267.4 0.0 0.00 63.4 17.5 78.04 4.8
2017 09 10 1:00 267.2 0.0 0.00 62.4 16.9 79.06 4.5
2017 09 10 2:00 267.7 0.0 0.00 61.2 16.2 81.3 3.5
2017 09 10 3:00 269.0 0.0 0.00 59.2 15.1 85.8 2.5
2017 09 10 4:00 269.6 0.0 0.00 56.8 13.8 91.7 3.3
2017 09 10 5:00 271.3 0.0 0.00 55.7 13.2 94.7 3.6
2017 09 10 6:00 272.1 0.0 0.00 55.8 13.2 94.5 4.3
2017 09 10 7:00 270.5 0.0 0.00 56.2 13.4 94.5 3.8
2017 09 10 8:00 268.5 0.0 0.00 59.7 15.4 89.3 4.9
2017 09 10 9:00 267.3 0.0 0.00 64.9 18.3 77.71 6.2
2017 09 10 10:00 265.9 0.0 0.00 69.0 20.5 69.06 5.2
2017 09 10 11:00 264.4 0.0 0.00 72.7 22.6 62.18 4.6
2017 09 10 12:00 263.2 0.0 0.00 76.3 24.6 53.46 5.2
2017 09 10 13:00 262.0 0.0 0.00 78.2 25.7 49.53 5.6
2017 09 10 14:00 261.8 0.0 0.00 78.0 25.5 50.66 5.7
2017 09 10 15:00 261.3 0.0 0.00 78.6 25.9 47.27 6.2
2017 09 10 16:00 261.1 0.0 0.00 78.1 25.6 45.31 5.7
2017 09 10 17:00 261.1 0.0 0.00 77.2 25.1 45.71 5.9
2017 09 10 18:00 262.4 0.0 0.00 74.2 23.4 52.36 4.9
2017 09 10 19:00 264.3 0.0 0.00 68.4 20.2 62.81 4.0
2017 09 10 20:00 265.5 0.0 0.00 63.8 17.6 71.04 3.9
2017 09 10 21:00 266.1 0.0 0.00 61.4 16.3 74.7 3.9
2017 09 10 22:00 267.0 0.0 0.00 59.1 15.1 77.62 3.5
2017 09 10 23:00 268.0 0.0 0.00 58.0 14.4 76.54 2.0
2017 09 10 24:00 269.2 0.0 0.00 56.1 13.4 79.55 1.7
2017 09 11 1:00 270.8 0.0 0.00 54.7 12.6 81 1.6
2017 09 11 2:00 275.7 0.0 0.00 52.7 11.5 84.4 0.6
2017 09 11 3:00 Wet 317.2 0.0 0.00 49.6 9.8 94.4 0.9
2017 09 11 4:00 Wet 375.1 0.0 0.00 47.4 8.5 97.8 1.1
2017 09 11 5:00 Wet 403.0 0.0 0.00 47.6 8.7 96.4 1.0
2017 09 11 6:00 Wet 415.6 0.0 0.00 47.1 8.4 95.6 1.3
2017 09 11 7:00 Wet 406.1 0.0 0.00 49.1 9.5 94.6 0.6
2017 09 11 8:00 Wet 342.9 0.0 0.00 56.0 13.4 81.4 2.9
2017 09 11 9:00 267.7 0.0 0.00 63.9 17.7 64.66 2.6
2017 09 11 10:00 265.0 0.0 0.00 68.6 20.3 54.07 3.9
2017 09 11 11:00 263.0 0.0 0.00 71.9 22.1 43.49 3.9
2017 09 11 12:00 261.8 0.0 0.00 73.1 22.8 40.69 5.5
2017 09 11 13:00 260.7 0.0 0.00 74.7 23.7 39.34 5.1
2017 09 11 14:00 260.0 0.0 0.00 76.0 24.4 35.94 5.4
2017 09 11 15:00 259.6 0.0 0.00 76.7 24.8 35.84 6.1
2017 09 11 16:00 259.7 0.0 0.00 76.6 24.8 35.05 5.8
2017 09 11 17:00 259.9 0.0 0.00 75.5 24.1 37.26 5.1
2017 09 11 18:00 261.2 0.0 0.00 72.2 22.3 45.9 3.7
2017 09 11 19:00 263.5 0.0 0.00 67.2 19.6 54.29 2.6
2017 09 11 20:00 264.9 0.0 0.00 60.6 15.9 71.55 0.8
2017 09 11 21:00 271.3 0.0 0.00 56.6 13.7 82.4 1.3
2017 09 11 22:00 268.3 0.0 0.00 56.3 13.5 80 2.0
2017 09 11 23:00 270.2 0.0 0.00 54.6 12.6 83.9 1.5
2017 09 11 24:00 271.1 0.0 0.00 54.0 12.3 86.3 1.5
2017 09 12 1:00 269.0 0.0 0.00 54.8 12.6 83.5 2.4
2017 09 12 2:00 271.9 0.0 0.00 51.5 10.8 92.9 2.9
2017 09 12 3:00 274.2 0.0 0.00 51.7 11.0 92.2 3.5
2017 09 12 4:00 270.9 0.0 0.00 52.9 11.6 89.8 4.3
2017 09 12 5:00 269.2 0.0 0.00 53.4 11.9 88.4 5.6
2017 09 12 6:00 270.3 0.0 0.00 51.8 11.0 92.1 3.2
2017 09 12 7:00 269.9 0.0 0.00 52.0 11.1 92.9 4.6
2017 09 12 8:00 268.1 0.0 0.00 56.5 13.6 85.9 3.0
2017 09 12 9:00 266.5 0.0 0.00 62.5 16.9 71.4 4.7
2017 09 12 10:00 265.0 0.0 0.00 66.9 19.4 59.42 6.8
2017 09 12 11:00 263.8 0.0 0.00 70.3 21.3 50.76 9.6
2017 09 12 12:00 262.9 0.0 0.00 72.8 22.7 45.31 9.1
2017 09 12 13:00 262.1 0.0 0.00 73.6 23.1 41.18 8.3
2017 09 12 14:00 260.9 0.0 0.00 76.0 24.5 35.15 8.2
2017 09 12 15:00 260.1 0.0 0.00 78.0 25.5 28.46 8.1
2017 09 12 16:00 260.2 0.0 0.00 77.7 25.4 28.62 7.7
2017 09 12 17:00 261.1 0.0 0.00 75.5 24.2 35.51 5.1
2017 09 12 18:00 262.5 0.0 0.00 71.3 21.8 48.78 2.8
2017 09 12 19:00 263.9 0.0 0.00 67.0 19.5 52.05 2.9
2017 09 12 20:00 264.9 0.0 0.00 63.8 17.7 59.76 3.3
2017 09 12 21:00 265.2 0.0 0.00 63.1 17.3 59.49 3.0
2017 09 12 22:00 267.0 0.0 0.00 57.6 14.2 75.29 2.2
2017 09 12 23:00 268.1 0.0 0.00 55.2 12.9 80.3 2.4
2017 09 12 24:00 272.0 0.0 0.00 53.1 11.7 86.9 2.2
2017 09 13 1:00 Wet 290.8 0.0 0.00 52.5 11.4 87 3.1
2017 09 13 2:00 Wet 296.9 0.0 0.00 53.0 11.7 87.9 3.3
2017 09 13 3:00 Wet 320.9 0.0 0.00 50.8 10.5 93 3.7
2017 09 13 4:00 Wet 348.2 0.0 0.00 51.8 11.0 92.1 4.0
2017 09 13 5:00 Wet 389.0 0.0 0.00 50.5 10.3 96 4.3
2017 09 13 6:00 Wet 414.0 0.0 0.00 50.4 10.2 97 2.8
2017 09 13 7:00 Wet 423.2 0.0 0.00 49.8 9.9 99.4 1.7
2017 09 13 8:00 Wet 375.2 0.0 0.00 57.8 14.3 88.8 3.7
2017 09 13 9:00 281.0 0.0 0.00 64.5 18.1 72.86 4.1
2017 09 13 10:00 265.5 0.0 0.00 69.6 20.9 62.26 5.1
2017 09 13 11:00 263.6 0.0 0.00 73.6 23.1 48.79 6.2
2017 09 13 12:00 261.6 0.0 0.00 76.2 24.6 37.54 6.2
2017 09 13 13:00 260.3 0.0 0.00 77.8 25.4 34.52 5.6
2017 09 13 14:00 259.1 0.0 0.00 79.6 26.4 30.81 4.8
2017 09 13 15:00 258.3 0.0 0.00 80.7 27.0 28.38 4.0
2017 09 13 16:00 257.9 0.0 0.00 81.2 27.3 28.46 3.6
2017 09 13 17:00 258.4 0.0 0.00 81.3 27.4 29.74 2.5
2017 09 13 18:00 260.3 0.0 0.00 77.7 25.4 40.77 2.9
2017 09 13 19:00 263.5 0.0 0.00 70.1 21.1 55.56 1.9
2017 09 13 20:00 264.8 0.0 0.00 64.8 18.2 64.95 1.8
2017 09 13 21:00 265.7 0.0 0.00 61.8 16.5 71.22 1.9
2017 09 13 22:00 267.3 0.0 0.00 60.6 15.9 77.76 1.3
2017 09 13 23:00 267.2 0.0 0.00 59.3 15.2 75.71 1.6
2017 09 13 24:00 267.6 0.0 0.00 58.3 14.6 79.27 1.0
2017 09 14 1:00 269.8 0.0 0.00 56.7 13.7 87 1.3
2017 09 14 2:00 268.9 0.0 0.00 55.3 12.9 84.7 1.7
2017 09 14 3:00 268.3 0.0 0.00 55.6 13.1 83 1.9
2017 09 14 4:00 268.2 0.0 0.00 56.0 13.3 81.5 2.2
2017 09 14 5:00 268.3 0.0 0.00 55.6 13.1 83.1 2.4
2017 09 14 6:00 268.6 0.0 0.00 55.0 12.8 84.9 2.2
2017 09 14 7:00 268.1 0.0 0.00 56.4 13.6 84.8 2.3
2017 09 14 8:00 267.5 0.0 0.00 63.4 17.4 80.4 3.6
2017 09 14 9:00 266.0 0.0 0.00 70.8 21.6 64.64 6.1
2017 09 14 10:00 264.5 0.0 0.00 76.5 24.7 53.79 7.0
2017 09 14 11:00 263.4 0.0 0.00 80.2 26.8 49.32 7.8
2017 09 14 12:00 262.3 0.0 0.00 82.5 28.1 45.23 8.2
2017 09 14 13:00 261.4 0.0 0.00 83.8 28.8 42.27 8.4
2017 09 14 14:00 260.7 0.0 0.00 85.0 29.5 39.93 7.7
2017 09 14 15:00 260.4 0.0 0.00 85.9 29.9 39.2 7.4
2017 09 14 16:00 260.4 0.0 0.00 85.5 29.7 38.48 7.2
2017 09 14 17:00 260.7 0.0 0.00 84.0 28.9 40.3 6.5
2017 09 14 18:00 262.0 0.0 0.00 80.1 26.7 46.56 4.5
2017 09 14 19:00 263.3 0.0 0.00 74.7 23.7 53.04 3.9
2017 09 14 20:00 264.1 0.0 0.00 71.8 22.1 59.57 4.7
2017 09 14 21:00 264.5 0.0 0.00 69.9 21.1 64.53 3.4
2017 09 14 22:00 265.6 0.0 0.00 66.3 19.0 72.41 3.3
2017 09 14 23:00 266.1 0.0 0.00 65.0 18.3 73.16 2.9
2017 09 14 24:00 266.4 0.0 0.00 64.1 17.9 72.44 2.3
2017 09 15 1:00 266.7 0.0 0.00 63.4 17.4 74.98 2.6
2017 09 15 2:00 267.1 0.0 0.00 62.7 17.1 77.74 2.9
2017 09 15 3:00 267.7 0.0 0.00 61.1 16.2 81.6 3.0
2017 09 15 4:00 267.8 0.0 0.00 60.6 15.9 82 3.2
2017 09 15 5:00 268.5 0.0 0.00 59.1 15.1 84.9 3.2
2017 09 15 6:00 268.5 0.0 0.00 58.7 14.9 85.7 3.2
2017 09 15 7:00 268.2 0.0 0.00 59.5 15.3 85.5 3.1
2017 09 15 8:00 267.3 0.0 0.00 64.8 18.2 78.88 5.5
2017 09 15 9:00 266.2 0.0 0.00 72.0 22.2 67.76 6.5
2017 09 15 10:00 264.9 0.0 0.00 78.0 25.5 59.2 8.0
2017 09 15 11:00 263.7 0.0 0.00 82.0 27.8 53.92 8.4
2017 09 15 12:00 262.9 0.0 0.00 84.8 29.3 48.12 10.7
2017 09 15 13:00 261.7 0.0 0.00 87.0 30.6 42.3 11.5
2017 09 15 14:00 260.7 0.0 0.00 88.3 31.3 38.37 10.3
2017 09 15 15:00 260.4 0.0 0.00 88.3 31.3 37.59 9.5
2017 09 15 16:00 260.6 0.0 0.00 87.0 30.6 39.12 8.5
2017 09 15 17:00 261.4 0.0 0.00 84.6 29.2 42.22 7.6
2017 09 15 18:00 262.1 0.0 0.00 81.7 27.6 47.9 5.0
2017 09 15 19:00 263.7 0.0 0.00 76.4 24.6 57.97 3.2
2017 09 15 20:00 264.9 0.0 0.00 72.6 22.5 66.35 3.5
2017 09 15 21:00 265.5 0.0 0.00 70.3 21.3 70.59 3.3
2017 09 15 22:00 265.8 0.0 0.00 69.1 20.6 72.79 3.5
2017 09 15 23:00 266.8 0.0 0.00 67.0 19.4 77.1 2.8
2017 09 15 24:00 266.7 0.0 0.00 66.7 19.3 77.51 3.8
2017 09 16 1:00 266.8 0.0 0.00 66.9 19.4 78.56 4.7
2017 09 16 2:00 267.0 0.0 0.00 67.9 19.9 79.67 5.4
2017 09 16 3:00 266.9 0.0 0.00 67.8 19.9 81.9 5.1
2017 09 16 4:00 267.8 0.0 0.00 66.4 19.1 86.1 4.1
2017 09 16 5:00 269.0 0.0 0.00 64.6 18.1 90.4 4.4
2017 09 16 6:00 269.5 0.0 0.00 64.2 17.9 92.3 5.5
2017 09 16 7:00 269.1 0.0 0.00 65.2 18.5 91.2 5.7
2017 09 16 8:00 267.8 0.0 0.00 69.1 20.6 83.8 7.3
2017 09 16 9:00 266.9 0.0 0.00 73.8 23.2 74.01 9.1
2017 09 16 10:00 265.6 0.0 0.00 77.9 25.5 65.21 9.8
2017 09 16 11:00 264.4 0.0 0.00 81.4 27.4 57.88 10.9
2017 09 16 12:00 263.3 0.0 0.00 84.0 28.9 52.02 10.8
2017 09 16 13:00 262.5 0.0 0.00 85.7 29.9 48.51 9.2
2017 09 16 14:00 261.5 0.0 0.00 86.8 30.5 45.95 8.5
2017 09 16 15:00 261.2 0.0 0.00 87.0 30.5 44.34 9.4
2017 09 16 16:00 261.1 0.0 0.00 86.5 30.3 42.3 9.0
2017 09 16 17:00 261.5 0.0 0.00 85.2 29.6 42.93 7.6
2017 09 16 18:00 263.3 0.0 0.00 80.5 26.9 51.73 4.0
2017 09 16 19:00 270.5 0.0 0.00 72.6 22.5 71.41 11.4
2017 09 16 20:00 Wet 289.3 0.0 0.00 70.3 21.3 80.5 2.7
2017 09 16 21:00 Wet 357.7 0.1 3.05 68.3 20.1 92.4 3.2
2017 09 16 22:00 Wet 294.5 0.0 0.00 67.3 19.6 96.3 2.4
2017 09 16 23:00 Wet 286.2 0.0 0.25 66.8 19.3 96.3 2.8
2017 09 16 24:00 Wet 299.6 0.0 0.00 65.4 18.6 97.3 2.5
2017 09 17 1:00 282.8 0.0 0.00 66.4 19.1 92.8 4.6
2017 09 17 2:00 274.0 0.0 0.00 66.8 19.4 92.2 4.9
2017 09 17 3:00 271.0 0.0 0.00 66.4 19.1 93.8 3.9
2017 09 17 4:00 269.9 0.0 0.00 66.5 19.2 93.5 4.6
2017 09 17 5:00 Wet 290.0 0.0 0.00 67.1 19.5 94.1 5.4
2017 09 17 6:00 Wet 335.9 0.0 0.76 66.3 19.1 95.6 4.3
2017 09 17 7:00 Wet 382.8 0.0 0.76 65.0 18.3 97.7 3.2
2017 09 17 8:00 Wet 308.1 0.0 0.00 65.2 18.5 98.5 4.9
2017 09 17 9:00 271.6 0.0 0.00 66.2 19.0 96.7 4.9
2017 09 17 10:00 269.0 0.0 0.00 66.8 19.4 94 5.8
2017 09 17 11:00 268.2 0.0 0.00 67.9 19.9 89.9 6.4
2017 09 17 12:00 267.6 0.0 0.00 68.9 20.5 86 4.9
2017 09 17 13:00 267.7 0.0 0.00 68.9 20.5 84.9 4.8
2017 09 17 14:00 267.6 0.0 0.00 68.2 20.1 86.4 7.1
2017 09 17 15:00 264.9 0.0 0.00 70.4 21.3 81.7 5.1
2017 09 17 16:00 264.9 0.0 0.00 71.9 22.2 76.78 4.0
2017 09 17 17:00 266.1 0.0 0.00 71.0 21.7 79.16 5.0
2017 09 17 18:00 266.4 0.0 0.00 69.7 20.9 81.3 5.2
2017 09 17 19:00 269.0 0.0 0.00 66.6 19.2 87.9 3.9
2017 09 17 20:00 Wet 284.1 0.0 0.00 63.8 17.6 94.6 2.4
2017 09 17 21:00 Wet 291.2 0.0 0.00 63.8 17.7 93.6 4.0
2017 09 17 22:00 Wet 303.4 0.0 0.00 61.7 16.5 96.2 1.7
2017 09 17 23:00 Wet 372.7 0.0 0.00 60.0 15.6 99.4 1.8
2017 09 17 24:00 Wet 418.0 0.0 0.00 59.8 15.5 98.4 2.9
2017 09 18 1:00 Wet 413.6 0.0 0.00 58.9 14.9 95.6 2.7
2017 09 18 2:00 Wet 421.1 0.0 0.00 58.3 14.6 96 2.0
2017 09 18 3:00 Wet 441.2 0.0 0.00 57.8 14.3 97.2 2.0
2017 09 18 4:00 Wet 432.0 0.0 0.00 56.4 13.6 98.5 2.6
2017 09 18 5:00 Wet 415.4 0.0 0.00 55.5 13.0 99.9 2.2
2017 09 18 6:00 Wet 390.1 0.0 0.00 55.0 12.8 99.8 1.5
2017 09 18 7:00 Wet 363.0 0.0 0.00 56.3 13.5 98.6 2.5
2017 09 18 8:00 Wet 300.1 0.0 0.00 60.2 15.7 91.9 3.6
2017 09 18 9:00 268.6 0.0 0.00 63.7 17.6 85.9 4.3
2017 09 18 10:00 267.3 0.0 0.00 68.5 20.3 77.88 5.6
2017 09 18 11:00 266.2 0.0 0.00 72.6 22.5 73.24 5.7
2017 09 18 12:00 266.1 0.0 0.00 74.6 23.7 71.14 6.7
2017 09 18 13:00 266.1 0.0 0.00 75.6 24.2 70.99 7.1
2017 09 18 14:00 266.2 0.0 0.00 75.9 24.4 71.4 5.2
2017 09 18 15:00 270.5 0.0 0.00 75.1 24.0 75.66 4.0
2017 09 18 16:00 Wet 302.9 0.0 0.25 74.6 23.7 79.45 1.5
2017 09 18 17:00 Wet 335.1 0.0 0.00 72.4 22.5 91.3 2.2
2017 09 18 18:00 283.1 0.0 0.25 71.3 21.8 94.8 2.7
2017 09 18 19:00 Wet 288.7 0.0 0.00 69.3 20.7 96.5 3.0
2017 09 18 20:00 Wet 335.7 0.0 0.00 67.1 19.5 99.5 1.6
2017 09 18 21:00 Wet 360.7 0.0 0.00 66.4 19.1 99.9 2.2
2017 09 18 22:00 Wet 365.6 0.0 0.00 64.6 18.1 99.9 0.6
2017 09 18 23:00 Wet 342.9 0.0 0.00 62.4 16.9 99.9 1.4
2017 09 18 24:00 Wet 345.8 0.0 0.00 62.2 16.8 99.9 0.9
2017 09 19 1:00 Wet 341.7 0.0 0.00 61.2 16.2 99.9 2.3
2017 09 19 2:00 Wet 342.9 0.0 0.00 62.2 16.8 99.9 2.5
2017 09 19 3:00 Wet 344.1 0.0 0.00 62.7 17.1 99.9 1.7
2017 09 19 4:00 Wet 342.6 0.0 0.00 61.9 16.6 99.9 1.1
2017 09 19 5:00 Wet 339.8 0.0 0.00 61.1 16.2 99.9 1.9
2017 09 19 6:00 Wet 344.3 0.0 0.25 60.6 15.9 99.9 3.0
2017 09 19 7:00 Wet 335.9 0.0 0.00 60.6 15.9 99.9 3.1
2017 09 19 8:00 Wet 304.9 0.0 0.00 62.0 16.7 99.9 4.0
2017 09 19 9:00 277.7 0.0 0.00 64.3 17.9 99.9 5.2
2017 09 19 10:00 269.7 0.0 0.00 66.7 19.3 99.9 4.5
2017 09 19 11:00 268.6 0.0 0.00 70.0 21.1 95.3 6.5
2017 09 19 12:00 266.9 0.0 0.00 74.6 23.6 83.2 6.2
2017 09 19 13:00 265.4 0.0 0.00 78.6 25.9 73.52 6.4
2017 09 19 14:00 264.1 0.0 0.00 81.8 27.7 63.81 7.4
2017 09 19 15:00 263.5 0.0 0.00 83.1 28.4 57.86 8.1
2017 09 19 16:00 263.2 0.0 0.00 83.6 28.7 58.2 8.7
2017 09 19 17:00 263.5 0.0 0.00 82.8 28.2 59.38 8.8
2017 09 19 18:00 264.5 0.0 0.00 80.6 27.0 64.45 6.8
2017 09 19 19:00 265.9 0.0 0.00 77.3 25.1 70.89 5.5
2017 09 19 20:00 266.5 0.0 0.00 74.6 23.7 75.19 5.3
2017 09 19 21:00 266.8 0.0 0.00 73.2 22.9 77.39 6.0
2017 09 19 22:00 266.9 0.0 0.00 73.1 22.8 77.29 6.7
2017 09 19 23:00 267.2 0.0 0.00 72.4 22.5 78.99 7.5
2017 09 19 24:00 267.5 0.0 0.00 71.3 21.8 82.4 6.6
2017 09 20 1:00 267.6 0.0 0.00 71.4 21.9 82.8 7.8
2017 09 20 2:00 267.9 0.0 0.00 71.0 21.7 83.8 7.9
2017 09 20 3:00 268.2 0.0 0.00 70.1 21.2 86.3 7.5
2017 09 20 4:00 268.8 0.0 0.00 69.1 20.6 89.1 6.1
2017 09 20 5:00 269.5 0.0 0.00 68.3 20.2 91.8 5.2
2017 09 20 6:00 270.2 0.0 0.00 67.8 19.9 93.9 5.6
2017 09 20 7:00 269.8 0.0 0.00 69.0 20.6 92.6 7.1
2017 09 20 8:00 268.5 0.0 0.00 73.2 22.9 85.2 8.9
2017 09 20 9:00 267.7 0.0 0.00 78.0 25.6 76.75 11.5
2017 09 20 10:00 266.3 0.0 0.00 82.7 28.2 66.4 13.0
2017 09 20 11:00 265.0 0.0 0.00 85.0 29.5 61.36 11.7
2017 09 20 12:00 264.1 0.0 0.00 87.0 30.6 57.98 11.0
2017 09 20 13:00 263.3 0.0 0.00 88.9 31.6 55.38 10.8
2017 09 20 14:00 263.1 0.0 0.00 90.4 32.5 53.27 11.3
2017 09 20 15:00 262.5 0.0 0.00 91.5 33.0 51.53 12.0
2017 09 20 16:00 262.6 0.0 0.00 91.0 32.8 52.11 11.3
2017 09 20 17:00 263.1 0.0 0.00 89.9 32.1 53.65 10.7
2017 09 20 18:00 263.7 0.0 0.00 87.1 30.6 59.27 7.0
2017 09 20 19:00 265.4 0.0 0.00 81.9 27.7 71.07 4.4
2017 09 20 20:00 266.3 0.0 0.00 79.2 26.2 76.33 3.6
2017 09 20 21:00 266.7 0.0 0.00 78.7 25.9 77.49 4.4
2017 09 20 22:00 266.7 0.0 0.00 78.7 25.9 76.42 4.5
2017 09 20 23:00 266.7 0.0 0.00 78.5 25.8 75.8 6.6
2017 09 20 24:00 266.7 0.0 0.00 77.5 25.3 76.86 6.2
2017 09 21 1:00 266.8 0.0 0.00 75.9 24.4 79.76 6.3
2017 09 21 2:00 267.4 0.0 0.00 74.2 23.5 83.6 4.9
2017 09 21 3:00 267.5 0.0 0.00 74.0 23.4 84.7 6.7
2017 09 21 4:00 268.0 0.0 0.00 73.5 23.0 86.5 5.1
2017 09 21 5:00 268.2 0.0 0.00 73.0 22.8 88.3 4.4
2017 09 21 6:00 268.5 0.0 0.00 72.8 22.6 89.3 5.5
2017 09 21 7:00 268.2 0.0 0.00 71.6 22.0 84.7 8.5
2017 09 21 8:00 274.5 0.0 0.00 70.2 21.2 87.8 9.3
2017 09 21 9:00 281.9 0.0 0.00 68.7 20.4 92.5 7.1
2017 09 21 10:00 268.0 0.0 0.00 71.1 21.7 85.4 7.4
2017 09 21 11:00 265.3 0.0 0.00 79.7 26.5 63.3 10.7
2017 09 21 12:00 264.0 0.0 0.00 83.8 28.8 58.87 10.3
2017 09 21 13:00 263.3 0.0 0.00 85.4 29.6 59.37 9.1
2017 09 21 14:00 263.1 0.0 0.00 87.4 30.8 58.48 9.1
2017 09 21 15:00 263.1 0.0 0.00 88.9 31.6 58.07 10.8
2017 09 21 16:00 263.0 0.0 0.00 89.8 32.1 53.67 11.6
2017 09 21 17:00 262.7 0.0 0.00 89.5 32.0 47.86 11.7
2017 09 21 18:00 263.4 0.0 0.00 86.7 30.4 54 7.5
2017 09 21 19:00 264.5 0.0 0.00 82.4 28.0 62.32 5.9
2017 09 21 20:00 265.3 0.0 0.00 81.0 27.2 70.37 7.6
2017 09 21 21:00 266.1 0.0 0.00 79.3 26.3 76.55 6.9
2017 09 21 22:00 266.7 0.0 0.00 77.6 25.4 79.82 6.2
2017 09 21 23:00 267.9 0.0 0.00 75.3 24.0 85 4.1
2017 09 21 24:00 269.5 0.0 0.00 73.2 22.9 89.1 3.3
2017 09 22 1:00 270.2 0.0 0.00 71.7 22.1 91.6 3.8
2017 09 22 2:00 269.2 0.0 0.00 72.0 22.2 88.1 5.2
2017 09 22 3:00 269.2 0.0 0.00 70.9 21.6 89.6 4.9
2017 09 22 4:00 269.8 0.0 0.00 69.9 21.0 90.9 4.2
2017 09 22 5:00 270.5 0.0 0.00 69.1 20.6 92.2 3.9
2017 09 22 6:00 270.3 0.0 0.00 69.1 20.6 92.4 4.3
2017 09 22 7:00 269.7 0.0 0.00 70.1 21.2 91 5.0
2017 09 22 8:00 268.4 0.0 0.00 74.0 23.3 83.6 7.2
2017 09 22 9:00 267.3 0.0 0.00 79.3 26.3 72.79 8.8
2017 09 22 10:00 265.9 0.0 0.00 83.4 28.6 63.89 11.0
2017 09 22 11:00 264.7 0.0 0.00 85.7 29.8 58.32 10.7
2017 09 22 12:00 264.0 0.0 0.00 87.0 30.5 54.16 10.7
2017 09 22 13:00 262.9 0.0 0.00 89.6 32.0 48.32 11.4
2017 09 22 14:00 262.3 0.0 0.00 90.1 32.3 45.05 11.8
2017 09 22 15:00 261.5 0.0 0.00 91.1 32.8 41.95 11.0
2017 09 22 16:00 261.1 0.0 0.00 90.6 32.6 40.09 11.2
2017 09 22 17:00 261.2 0.0 0.00 89.2 31.8 41.56 9.5
2017 09 22 18:00 262.4 0.0 0.00 86.0 30.0 46.68 5.9
2017 09 22 19:00 263.9 0.0 0.00 80.2 26.8 57.12 3.0
2017 09 22 20:00 265.7 0.0 0.00 75.4 24.1 70.3 0.8
2017 09 22 21:00 267.2 0.0 0.00 72.8 22.6 77.36 1.3
2017 09 22 22:00 268.3 0.0 0.00 71.5 21.9 81.4 1.2
2017 09 22 23:00 268.5 0.0 0.00 69.9 21.1 82.6 1.2
2017 09 22 24:00 268.9 0.0 0.00 69.6 20.9 84 1.4
2017 09 23 1:00 269.8 0.0 0.00 69.0 20.5 87.8 0.3
2017 09 23 2:00 276.3 0.0 0.00 67.8 19.9 88.1 2.0
2017 09 23 3:00 269.5 0.0 0.00 68.4 20.2 84.5 2.8
2017 09 23 4:00 270.3 0.0 0.00 67.4 19.7 87.2 2.1
2017 09 23 5:00 272.1 0.0 0.00 66.1 18.9 90.6 2.6
2017 09 23 6:00 275.2 0.0 0.00 66.0 18.9 90.7 2.3
2017 09 23 7:00 270.9 0.0 0.00 67.0 19.4 88.8 2.4
2017 09 23 8:00 268.2 0.0 0.00 71.7 22.1 81.6 4.2
2017 09 23 9:00 266.8 0.0 0.00 78.3 25.7 68.39 5.4
2017 09 23 10:00 265.1 0.0 0.00 83.7 28.7 58.46 4.5
2017 09 23 11:00 263.4 0.0 0.00 87.5 30.9 51.35 4.9
2017 09 23 12:00 262.0 0.0 0.00 90.0 32.2 43.64 5.9
2017 09 23 13:00 260.6 0.0 0.00 91.3 33.0 38.7 6.7
2017 09 23 14:00 260.0 0.0 0.00 91.7 33.2 36.21 6.4
2017 09 23 15:00 260.0 0.0 0.00 91.2 32.9 35.81 6.2
2017 09 23 16:00 260.3 0.0 0.00 89.9 32.1 38.22 6.9
2017 09 23 17:00 260.7 0.0 0.00 88.9 31.6 39.97 6.6
2017 09 23 18:00 261.9 0.0 0.00 85.5 29.7 47 4.8
2017 09 23 19:00 263.3 0.0 0.00 80.9 27.1 54.61 4.1
2017 09 23 20:00 264.0 0.0 0.00 78.3 25.7 56.58 3.8
2017 09 23 21:00 264.0 0.0 0.00 76.8 24.9 59.28 4.3
2017 09 23 22:00 264.6 0.0 0.00 74.4 23.5 65.47 3.2
2017 09 23 23:00 265.4 0.0 0.00 73.1 22.9 67.85 3.7
2017 09 23 24:00 265.8 0.0 0.00 71.4 21.9 71.71 2.0
2017 09 24 1:00 266.5 0.0 0.00 69.8 21.0 75.16 2.1
2017 09 24 2:00 266.9 0.0 0.00 68.8 20.4 77.12 1.9
2017 09 24 3:00 267.1 0.0 0.00 68.0 20.0 79.15 2.1
2017 09 24 4:00 267.6 0.0 0.00 67.6 19.8 80.9 2.3
2017 09 24 5:00 268.2 0.0 0.00 66.8 19.3 83.2 2.7
2017 09 24 6:00 268.4 0.0 0.00 66.3 19.1 84.6 2.9
2017 09 24 7:00 268.6 0.0 0.00 66.4 19.1 85.9 2.0
2017 09 24 8:00 267.2 0.0 0.00 70.5 21.4 79.47 4.7
2017 09 24 9:00 266.1 0.0 0.00 76.8 24.9 67.63 6.3
2017 09 24 10:00 264.7 0.0 0.00 81.5 27.5 59.07 6.9
2017 09 24 11:00 263.4 0.0 0.00 85.6 29.8 51.1 8.9
2017 09 24 12:00 262.6 0.0 0.00 87.3 30.7 46.91 8.8
2017 09 24 13:00 261.7 0.0 0.00 88.3 31.3 43.07 8.4
2017 09 24 14:00 260.9 0.0 0.00 89.5 31.9 39.22 8.6
2017 09 24 15:00 260.7 0.0 0.00 89.2 31.8 38.42 8.1
2017 09 24 16:00 260.4 0.0 0.00 89.1 31.7 38.37 7.4
2017 09 24 17:00 260.7 0.0 0.00 87.9 31.0 40.94 6.1
2017 09 24 18:00 261.9 0.0 0.00 84.8 29.3 45.53 4.2
2017 09 24 19:00 263.3 0.0 0.00 79.6 26.4 53.53 3.6
2017 09 24 20:00 264.4 0.0 0.00 75.8 24.4 62.67 2.2
2017 09 24 21:00 265.4 0.0 0.00 73.0 22.8 70.04 1.9
2017 09 24 22:00 266.0 0.0 0.00 71.6 22.0 72.71 2.0
2017 09 24 23:00 267.0 0.0 0.00 70.1 21.2 78.37 1.1
2017 09 24 24:00 267.2 0.0 0.00 69.5 20.8 78.6 2.3
2017 09 25 1:00 267.7 0.0 0.00 69.0 20.6 79.66 1.4
2017 09 25 2:00 269.2 0.0 0.00 65.9 18.8 89 1.6
2017 09 25 3:00 271.0 0.0 0.00 64.7 18.2 90.7 2.1
2017 09 25 4:00 270.2 0.0 0.00 64.5 18.1 91.2 2.5
2017 09 25 5:00 278.8 0.0 0.00 63.4 17.4 93.7 2.1
2017 09 25 6:00 Wet 308.5 0.0 0.00 62.6 17.0 96.3 2.3
2017 09 25 7:00 Wet 324.3 0.0 0.00 62.8 17.1 96.9 2.6
2017 09 25 8:00 274.3 0.0 0.00 69.5 20.9 87.2 4.0
2017 09 25 9:00 266.5 0.0 0.00 76.6 24.8 69.72 6.1
2017 09 25 10:00 265.0 0.0 0.00 79.5 26.4 61.63 6.0
2017 09 25 11:00 263.5 0.0 0.00 84.2 29.0 49.87 7.4
2017 09 25 12:00 262.2 0.0 0.00 86.6 30.4 46.35 7.6
2017 09 25 13:00 261.5 0.0 0.00 87.8 31.0 44.6 7.9
2017 09 25 14:00 261.7 0.0 0.00 87.3 30.7 44.68 8.0
2017 09 25 15:00 262.2 0.0 0.00 86.4 30.2 45.08 7.2
2017 09 25 16:00 262.6 0.0 0.00 85.1 29.5 47.44 10.3
2017 09 25 17:00 263.4 0.0 0.00 81.0 27.2 56.81 5.8
2017 09 25 18:00 263.5 0.0 0.00 80.5 26.9 59.49 1.6
2017 09 25 19:00 265.4 0.0 0.00 75.1 23.9 71.54 2.3
2017 09 25 20:00 267.5 0.0 0.00 71.0 21.7 82.5 0.5
2017 09 25 21:00 267.0 0.0 0.00 69.6 20.9 85.6 2.1
2017 09 25 22:00 268.2 0.0 0.00 70.1 21.2 81.9 2.4
2017 09 25 23:00 268.2 0.0 0.00 69.9 21.0 83.1 1.8
2017 09 25 24:00 268.4 0.0 0.00 69.1 20.6 84.9 2.1
2017 09 26 1:00 268.8 0.0 0.00 68.6 20.3 86.6 2.1
2017 09 26 2:00 268.8 0.0 0.00 68.0 20.0 87.6 2.5
2017 09 26 3:00 268.3 0.0 0.00 69.5 20.9 82.5 5.3
2017 09 26 4:00 269.0 0.0 0.00 67.8 19.9 88.9 3.6
2017 09 26 5:00 269.5 0.0 0.00 66.5 19.1 92.5 1.8
2017 09 26 6:00 267.9 0.0 0.00 65.0 18.3 95.7 2.4
2017 09 26 7:00 270.7 0.0 0.00 65.4 18.6 96.3 2.8
2017 09 26 8:00 269.5 0.0 0.00 67.2 19.6 92.7 5.4
2017 09 26 9:00 268.2 0.0 0.00 69.9 21.0 85.7 7.1
2017 09 26 10:00 267.1 0.0 0.00 72.1 22.3 79.31 8.0
2017 09 26 11:00 266.3 0.0 0.00 72.8 22.7 75.34 6.0
2017 09 26 12:00 265.2 0.0 0.00 74.8 23.8 72.17 5.2
2017 09 26 13:00 265.7 0.0 0.00 74.5 23.6 73.74 8.6
2017 09 26 14:00 265.5 0.0 0.00 74.7 23.7 71.37 9.1
2017 09 26 15:00 264.3 0.0 0.00 76.4 24.7 65.08 8.6
2017 09 26 16:00 264.9 0.0 0.00 74.8 23.8 70.64 10.9
2017 09 26 17:00 265.8 0.0 0.00 72.2 22.3 76.5 10.3
2017 09 26 18:00 266.7 0.0 0.00 69.5 20.8 80.3 7.4
2017 09 26 19:00 267.2 0.0 0.00 67.9 20.0 81.3 6.1
2017 09 26 20:00 267.4 0.0 0.00 66.4 19.1 82.2 6.3
2017 09 26 21:00 267.6 0.0 0.00 64.5 18.0 83.2 9.6
2017 09 26 22:00 267.7 0.0 0.00 62.7 17.1 82.7 8.3
2017 09 26 23:00 267.6 0.0 0.00 61.9 16.6 81.6 7.1
2017 09 26 24:00 267.7 0.0 0.00 61.1 16.2 83 4.9
2017 09 27 1:00 267.7 0.0 0.00 60.5 15.9 84.2 5.5
2017 09 27 2:00 267.7 0.0 0.00 60.2 15.6 84.1 4.6
2017 09 27 3:00 267.7 0.0 0.00 59.9 15.5 83.6 5.5
2017 09 27 4:00 268.0 0.0 0.00 59.2 15.1 84.8 6.0
2017 09 27 5:00 268.5 0.0 0.00 58.3 14.6 88.3 6.7
2017 09 27 6:00 268.1 0.0 0.00 58.2 14.6 84.9 6.0
2017 09 27 7:00 267.9 0.0 0.00 57.6 14.2 82.8 5.2
2017 09 27 8:00 267.2 0.0 0.00 58.7 14.8 74.82 7.4
2017 09 27 9:00 266.2 0.0 0.00 60.3 15.7 66.89 7.7
2017 09 27 10:00 265.5 0.0 0.00 61.8 16.5 60.81 7.6
2017 09 27 11:00 265.0 0.0 0.00 62.8 17.1 56.55 7.5
2017 09 27 12:00 264.9 0.0 0.00 63.1 17.3 54.73 8.2
2017 09 27 13:00 264.3 0.0 0.00 64.8 18.2 52.4 7.4
2017 09 27 14:00 264.2 0.0 0.00 65.6 18.7 50.99 6.6
2017 09 27 15:00 264.1 0.0 0.00 66.7 19.3 47.38 7.6
2017 09 27 16:00 263.6 0.0 0.00 66.4 19.1 44.06 7.2
2017 09 27 17:00 264.1 0.0 0.00 65.3 18.5 48.03 6.9
2017 09 27 18:00 264.8 0.0 0.00 62.5 17.0 57.7 4.5
2017 09 27 19:00 266.0 0.0 0.00 58.7 14.8 68.05 3.2
2017 09 27 20:00 267.2 0.0 0.00 55.6 13.1 77.23 4.3
2017 09 27 21:00 268.5 0.0 0.00 54.0 12.2 80.9 3.4
2017 09 27 22:00 268.4 0.0 0.00 52.9 11.6 84.8 3.4
2017 09 27 23:00 274.9 0.0 0.00 51.8 11.0 88.3 3.0
2017 09 27 24:00 Wet 314.3 0.0 0.00 49.5 9.7 93.5 1.8
2017 09 28 1:00 Wet 371.6 0.0 0.00 48.0 8.9 97.7 2.4
2017 09 28 2:00 Wet 404.9 0.0 0.00 47.8 8.8 98.1 1.5
2017 09 28 3:00 Wet 407.6 0.0 0.00 46.5 8.0 99.2 2.0
2017 09 28 4:00 Wet 422.8 0.0 0.00 46.1 7.8 99.2 2.0
2017 09 28 5:00 Wet 427.5 0.0 0.00 45.4 7.4 99.8 2.0
2017 09 28 6:00 Wet 406.9 0.0 0.00 44.3 6.8 99.9 2.3
2017 09 28 7:00 Wet 380.7 0.0 0.00 45.0 7.2 99.9 1.1
2017 09 28 8:00 Wet 313.7 0.0 0.00 52.6 11.5 91 1.1
2017 09 28 9:00 269.8 0.0 0.00 59.5 15.3 63.64 3.7
2017 09 28 10:00 264.8 0.0 0.00 63.9 17.7 50.25 3.3
2017 09 28 11:00 263.5 0.0 0.00 66.9 19.4 47.6 4.2
2017 09 28 12:00 262.7 0.0 0.00 69.0 20.6 47.59 5.1
2017 09 28 13:00 261.6 0.0 0.00 71.3 21.8 45.71 5.6
2017 09 28 14:00 260.7 0.0 0.00 72.6 22.6 43.29 5.5
2017 09 28 15:00 260.4 0.0 0.00 73.6 23.1 41.68 5.3
2017 09 28 16:00 260.0 0.0 0.00 74.3 23.5 41.47 4.6
2017 09 28 17:00 260.7 0.0 0.00 73.5 23.1 41.93 5.0
2017 09 28 18:00 262.0 0.0 0.00 71.8 22.1 45.39 1.5
2017 09 28 19:00 262.7 0.0 0.00 63.5 17.5 70.94 0.7
2017 09 28 20:00 264.2 0.0 0.00 57.5 14.2 79.57 1.1
2017 09 28 21:00 278.1 0.0 0.00 54.8 12.7 90.6 1.4
2017 09 28 22:00 Wet 294.2 0.0 0.00 53.7 12.1 88.8 0.6
2017 09 28 23:00 Wet 327.4 0.0 0.00 51.7 11.0 93.8 0.8
2017 09 28 24:00 Wet 363.7 0.0 0.00 51.3 10.7 93.5 1.5
2017 09 29 1:00 Wet 382.6 0.0 0.00 50.0 10.0 95.8 1.3
2017 09 29 2:00 Wet 393.4 0.0 0.00 48.2 9.0 96.2 1.5
2017 09 29 3:00 Wet 391.8 0.0 0.00 49.4 9.7 92.7 1.7
2017 09 29 4:00 Wet 394.8 0.0 0.00 48.4 9.1 97.7 0.0
2017 09 29 5:00 Wet 399.8 0.0 0.00 47.5 8.6 96.4 2.0
2017 09 29 6:00 Wet 408.8 0.0 0.00 48.6 9.2 98.3 1.2
2017 09 29 7:00 Wet 380.7 0.0 0.00 50.3 10.2 93.8 2.7
2017 09 29 8:00 Wet 294.3 0.0 0.00 57.5 14.2 81.2 3.0
2017 09 29 9:00 266.5 0.0 0.00 65.4 18.6 59.53 5.1
2017 09 29 10:00 264.4 0.0 0.00 69.6 20.9 51.67 4.5
2017 09 29 11:00 262.9 0.0 0.00 73.4 23.0 45.29 4.8
2017 09 29 12:00 261.4 0.0 0.00 75.9 24.4 39.83 5.7
2017 09 29 13:00 260.6 0.0 0.00 77.4 25.2 37.92 6.2
2017 09 29 14:00 259.8 0.0 0.00 78.6 25.9 36.85 6.3
2017 09 29 15:00 259.5 0.0 0.00 78.4 25.8 36.28 7.4
2017 09 29 16:00 259.4 0.0 0.00 77.3 25.2 37.13 6.8
2017 09 29 17:00 260.1 0.0 0.00 75.3 24.1 39.54 6.4
2017 09 29 18:00 262.0 0.0 0.00 71.1 21.7 45.57 4.5
2017 09 29 19:00 263.8 0.0 0.00 65.0 18.4 55.4 3.4
2017 09 29 20:00 264.4 0.0 0.00 62.4 16.9 59.92 4.3
2017 09 29 21:00 264.5 0.0 0.00 59.3 15.2 60.86 4.4
2017 09 29 22:00 264.5 0.0 0.00 58.1 14.5 58.03 5.4
2017 09 29 23:00 264.5 0.0 0.00 57.7 14.3 54.7 6.4
2017 09 29 24:00 264.5 0.0 0.00 55.4 13.0 57.98 5.7
2017 09 30 1:00 265.1 0.0 0.00 52.0 11.1 65.81 4.2
2017 09 30 2:00 265.5 0.0 0.00 50.1 10.1 70.76 3.7
2017 09 30 3:00 266.1 0.0 0.00 48.5 9.2 75.77 3.7
2017 09 30 4:00 266.7 0.0 0.00 47.8 8.8 78.66 3.7
2017 09 30 5:00 266.9 0.0 0.00 47.9 8.8 80.2 2.8
2017 09 30 6:00 267.9 0.0 0.00 46.9 8.3 83.9 3.0
2017 09 30 7:00 268.4 0.0 0.00 45.7 7.6 88.9 3.8
2017 09 30 8:00 266.7 0.0 0.00 52.1 11.1 76.62 5.4
2017 09 30 9:00 265.8 0.0 0.00 58.3 14.6 65.15 9.9
2017 09 30 10:00 264.5 0.0 0.00 62.4 16.9 55.55 10.0
2017 09 30 11:00 263.4 0.0 0.00 65.4 18.5 46.75 8.5
2017 09 30 12:00 261.9 0.0 0.00 67.9 20.0 39.92 8.3
2017 09 30 13:00 260.8 0.0 0.00 69.4 20.8 34.71 8.0
2017 09 30 14:00 260.2 0.0 0.00 71.0 21.7 32.26 7.6
2017 09 30 15:00 259.7 0.0 0.00 71.9 22.2 30.66 7.5
2017 09 30 16:00 260.0 0.0 0.00 71.4 21.9 30.82 7.7
2017 09 30 17:00 260.2 0.0 0.00 70.7 21.5 32.31 7.7
2017 09 30 18:00 261.4 0.0 0.00 67.0 19.5 37.64 5.2
2017 09 30 19:00 263.1 0.0 0.00 62.2 16.8 45.42 2.9
2017 09 30 20:00 264.2 0.0 0.00 57.8 14.4 56.32 1.3
2017 09 30 21:00 264.8 0.0 0.00 54.8 12.7 62.84 2.9
2017 09 30 22:00 265.3 0.0 0.00 52.8 11.6 67.37 3.0
2017 09 30 23:00 266.0 0.0 0.00 52.7 11.5 66.81 3.0
2017 09 30 24:00 266.0 0.0 0.00 52.0 11.1 68.5 3.2
2017 10 01 1:00 266.0 0.0 0.00 51.7 11.0 69.07 3.5
2017 10 01 2:00 265.8 0.0 0.00 53.6 12.0 67.41 4.6
2017 10 01 3:00 265.2 0.0 0.00 56.8 13.8 60.2 5.6
2017 10 01 4:00 Wet 296.9 0.0 0.00 55.9 13.3 66.83 5.3
2017 10 01 5:00 270.8 0.0 0.00 54.6 12.6 72.56 4.4
2017 10 01 6:00 266.6 0.0 0.00 53.8 12.1 73.76 4.2
2017 10 01 7:00 266.6 0.0 0.00 52.3 11.3 77.33 3.9
2017 10 01 8:00 266.3 0.0 0.00 55.0 12.8 72.33 6.5
2017 10 01 9:00 265.2 0.0 0.00 61.5 16.4 57.56 10.6
2017 10 01 10:00 263.9 0.0 0.00 66.1 19.0 47.95 12.3
2017 10 01 11:00 262.7 0.0 0.00 69.7 21.0 41.84 10.6
2017 10 01 12:00 261.5 0.0 0.00 72.7 22.6 36.51 9.6
2017 10 01 13:00 260.7 0.0 0.00 74.2 23.5 34.77 9.5
2017 10 01 14:00 260.8 0.0 0.00 74.4 23.5 32.85 9.1
2017 10 01 15:00 260.7 0.0 0.00 74.7 23.7 30.14 8.3
2017 10 01 16:00 260.9 0.0 0.00 74.6 23.7 29.72 8.8
2017 10 01 17:00 260.7 0.0 0.00 74.1 23.4 29.1 8.5
2017 10 01 18:00 261.6 0.0 0.00 70.2 21.2 32.74 6.2
2017 10 01 19:00 262.2 0.0 0.00 66.4 19.1 40.11 6.3
2017 10 01 20:00 262.9 0.0 0.00 65.9 18.8 48.28 7.4
2017 10 01 21:00 263.6 0.0 0.00 64.8 18.3 54.94 6.4
2017 10 01 22:00 263.7 0.0 0.00 64.0 17.8 59.75 7.4
2017 10 01 23:00 264.3 0.0 0.00 64.3 17.9 63.63 8.6
2017 10 01 24:00 264.7 0.0 0.00 64.8 18.2 69.64 9.7
2017 10 02 1:00 265.4 0.0 0.00 65.7 18.7 76.33 9.1
2017 10 02 2:00 266.0 0.0 0.00 64.8 18.2 80.3 8.1
2017 10 02 3:00 266.6 0.0 0.00 63.6 17.6 84 7.4
2017 10 02 4:00 267.0 0.0 0.00 63.7 17.6 85.9 8.1
2017 10 02 5:00 267.3 0.0 0.00 64.1 17.8 86.5 7.9
2017 10 02 6:00 267.7 0.0 0.00 64.0 17.8 86.9 8.8
2017 10 02 7:00 267.6 0.0 0.00 64.2 17.9 85.9 9.6
2017 10 02 8:00 266.9 0.0 0.00 67.0 19.4 78.4 11.4
2017 10 02 9:00 266.0 0.0 0.00 71.2 21.8 69.16 13.2
2017 10 02 10:00 265.0 0.0 0.00 75.7 24.3 61.96 13.2
2017 10 02 11:00 263.8 0.0 0.00 80.0 26.7 56.29 11.8
2017 10 02 12:00 263.3 0.0 0.00 82.2 27.9 52.96 11.7
2017 10 02 13:00 262.9 0.0 0.00 83.6 28.6 49.55 11.7
2017 10 02 14:00 262.3 0.0 0.00 84.4 29.1 46.83 12.9
2017 10 02 15:00 261.9 0.0 0.00 85.0 29.4 44.46 12.7
2017 10 02 16:00 261.7 0.0 0.00 84.7 29.3 43.17 14.6
2017 10 02 17:00 261.9 0.0 0.00 83.5 28.6 44.84 14.1
2017 10 02 18:00 262.4 0.0 0.00 80.6 27.0 49.84 8.0
2017 10 02 19:00 263.3 0.0 0.00 76.6 24.8 57.36 5.4
2017 10 02 20:00 263.4 0.0 0.00 75.2 24.0 58.26 7.4
2017 10 02 21:00 263.4 0.0 0.00 74.8 23.8 56.36 9.6
2017 10 02 22:00 263.5 0.0 0.00 73.6 23.1 58.14 11.2
2017 10 02 23:00 264.0 0.0 0.00 72.6 22.5 63.58 11.7
2017 10 02 24:00 264.5 0.0 0.00 70.3 21.3 70.21 8.0
2017 10 03 1:00 264.9 0.0 0.00 69.3 20.7 74.02 9.0
2017 10 03 2:00 265.3 0.0 0.00 69.2 20.6 75.26 10.7
2017 10 03 3:00 265.6 0.0 0.00 68.5 20.3 77.99 10.5
2017 10 03 4:00 266.1 0.0 0.00 67.8 19.9 81.7 8.8
2017 10 03 5:00 266.3 0.0 0.00 68.1 20.0 83.4 8.7
2017 10 03 6:00 266.6 0.0 0.00 68.5 20.3 84.4 8.9
2017 10 03 7:00 266.2 0.0 0.00 70.4 21.4 82.1 10.7
2017 10 03 8:00 266.2 0.0 0.00 71.5 21.9 81.1 11.0
2017 10 03 9:00 266.2 0.0 0.00 72.6 22.6 80.2 10.9
2017 10 03 10:00 265.8 0.0 0.00 73.9 23.3 77.97 10.1
2017 10 03 11:00 265.1 0.0 0.00 76.5 24.7 71.8 13.4
2017 10 03 12:00 265.1 0.0 0.00 76.7 24.8 71.36 11.8
2017 10 03 13:00 264.9 0.0 0.00 77.7 25.4 69.47 12.1
2017 10 03 14:00 263.6 0.0 0.00 80.9 27.1 63.42 13.8
2017 10 03 15:00 263.6 0.0 0.00 81.3 27.4 62.33 12.2
2017 10 03 16:00 263.5 0.0 0.00 81.0 27.2 63.68 10.6
2017 10 03 17:00 263.7 0.0 0.00 80.4 26.9 64.84 10.5
2017 10 03 18:00 264.9 0.0 0.00 77.8 25.4 70.14 7.6
2017 10 03 19:00 265.7 0.0 0.00 75.0 23.9 77.26 8.1
2017 10 03 20:00 266.5 0.0 0.00 73.0 22.8 83.1 8.8
2017 10 03 21:00 267.3 0.0 0.00 71.5 21.9 88.1 8.3
2017 10 03 22:00 268.1 0.0 0.00 70.4 21.3 91.7 6.8
2017 10 03 23:00 268.3 0.0 0.00 70.6 21.5 91.8 6.9
2017 10 03 24:00 268.2 0.0 0.00 71.3 21.8 89.6 7.7
2017 10 04 1:00 268.2 0.0 0.00 71.4 21.9 89.9 7.8
2017 10 04 2:00 268.3 0.0 0.00 71.3 21.8 90.9 6.5
2017 10 04 3:00 269.1 0.0 0.00 70.9 21.6 93.1 5.8
2017 10 04 4:00 269.4 0.0 0.00 70.4 21.3 95.4 4.5
2017 10 04 5:00 269.6 0.0 0.00 70.1 21.2 96.2 3.1
2017 10 04 6:00 Wet 358.7 0.0 0.25 66.8 19.3 97 7.5
2017 10 04 7:00 Wet 290.8 0.0 0.00 61.0 16.1 97.5 8.7
2017 10 04 8:00 270.7 0.0 0.00 59.1 15.1 96.7 7.5
2017 10 04 9:00 268.6 0.0 0.00 59.5 15.3 95.6 7.1
2017 10 04 10:00 267.9 0.0 0.00 60.5 15.8 92.1 8.2
2017 10 04 11:00 266.7 0.0 0.00 62.9 17.2 80.7 8.9
2017 10 04 12:00 266.1 0.0 0.00 63.6 17.6 75.39 8.5
2017 10 04 13:00 265.6 0.0 0.00 64.3 18.0 72.38 7.2
2017 10 04 14:00 265.6 0.0 0.00 64.8 18.2 71.1 6.3
2017 10 04 15:00 265.6 0.0 0.00 64.8 18.2 70.63 6.5
2017 10 04 16:00 265.6 0.0 0.00 64.8 18.2 70.25 5.2
2017 10 04 17:00 266.8 0.0 0.00 64.7 18.2 69.93 3.2
2017 10 04 18:00 Wet 352.1 0.0 0.25 62.7 17.1 80.2 1.8
2017 10 04 19:00 Wet 350.2 0.0 0.25 61.0 16.1 89.5 2.8
2017 10 04 20:00 Wet 286.9 0.0 0.00 60.6 15.9 90.9 2.9
2017 10 04 21:00 281.3 0.0 0.00 60.7 16.0 91.6 3.2
2017 10 04 22:00 269.4 0.0 0.00 60.9 16.1 91.7 3.3
2017 10 04 23:00 268.4 0.0 0.00 61.1 16.2 91.6 1.9
2017 10 04 24:00 269.5 0.0 0.00 60.5 15.8 93.8 2.0
2017 10 05 1:00 269.4 0.0 0.00 60.0 15.5 94.5 2.8
2017 10 05 2:00 268.5 0.0 0.00 60.9 16.1 93.2 2.5
2017 10 05 3:00 268.4 0.0 0.00 61.3 16.3 91.4 1.5
2017 10 05 4:00 268.4 0.0 0.00 61.3 16.3 90.9 1.8
2017 10 05 5:00 268.4 0.0 0.00 61.2 16.2 91 2.4
2017 10 05 6:00 269.7 0.0 0.00 61.0 16.1 92 2.5
2017 10 05 7:00 278.3 0.0 0.00 60.7 15.9 91.4 3.5
2017 10 05 8:00 272.4 0.0 0.00 61.4 16.4 91.9 4.6
2017 10 05 9:00 267.9 0.0 0.00 63.6 17.6 91.4 5.4
2017 10 05 10:00 268.4 0.0 0.00 64.7 18.1 93.3 5.2
2017 10 05 11:00 268.2 0.0 0.00 65.1 18.4 95.7 4.9
2017 10 05 12:00 267.8 0.0 0.00 68.0 20.0 91.6 6.1
2017 10 05 13:00 268.1 0.0 0.00 69.1 20.6 89.6 6.3
2017 10 05 14:00 271.2 0.0 0.00 68.8 20.4 93.7 3.8
2017 10 05 15:00 Wet 287.7 0.0 0.00 69.7 20.9 91.6 5.1
2017 10 05 16:00 279.4 0.0 0.00 69.6 20.9 91.3 6.4
2017 10 05 17:00 268.9 0.0 0.00 69.5 20.8 91.5 6.8
2017 10 05 18:00 272.9 0.0 0.00 69.1 20.6 93.7 4.4
2017 10 05 19:00 269.7 0.0 0.00 68.6 20.4 95.1 5.2
2017 10 05 20:00 272.8 0.0 0.00 67.9 19.9 96.9 5.1
2017 10 05 21:00 Wet 442.5 0.1 2.29 67.8 19.9 98.1 5.9
2017 10 05 22:00 Wet 464.9 0.2 4.83 67.5 19.7 99.7 6.9
2017 10 05 23:00 Wet 531.2 1.2 29.97 67.7 19.9 99.9 6.7
2017 10 05 24:00 Wet 482.3 0.3 8.38 67.1 19.5 99.9 5.8
2017 10 06 1:00 Wet 514.5 0.5 12.95 67.0 19.4 99.9 3.3
2017 10 06 2:00 Wet 478.8 0.3 6.60 67.5 19.7 99.9 3.1
2017 10 06 3:00 Wet 449.5 0.1 3.30 67.2 19.6 99.9 3.1
2017 10 06 4:00 Wet 459.5 0.1 2.79 66.0 18.9 99.9 5.1
2017 10 06 5:00 Wet 491.9 0.2 6.10 65.8 18.8 99.9 6.8
2017 10 06 6:00 Wet 366.7 0.0 0.51 66.7 19.3 99.9 8.6
2017 10 06 7:00 Wet 446.2 0.1 1.27 66.9 19.4 99.8 8.9
2017 10 06 8:00 Wet 446.4 0.0 1.02 67.0 19.4 99.9 6.7
2017 10 06 9:00 Wet 467.8 0.1 1.78 66.9 19.4 99.9 7.5
2017 10 06 10:00 Wet 406.5 0.0 0.51 67.1 19.5 99.9 5.7
2017 10 06 11:00 Wet 386.0 0.0 0.51 68.0 20.0 99.2 6.8
2017 10 06 12:00 Wet 381.5 0.0 0.76 69.0 20.5 97.9 8.0
2017 10 06 13:00 270.8 0.0 0.00 70.4 21.3 93.4 9.5
2017 10 06 14:00 269.4 0.0 0.00 70.1 21.1 93 8.7
2017 10 06 15:00 268.5 0.0 0.00 71.5 22.0 87.2 10.5
2017 10 06 16:00 268.1 0.0 0.00 71.5 22.0 83.9 10.8
2017 10 06 17:00 268.2 0.0 0.00 71.1 21.7 83.7 10.2
2017 10 06 18:00 268.8 0.0 0.00 70.5 21.4 84.4 9.3
2017 10 06 19:00 268.2 0.0 0.00 69.9 21.1 85.1 9.0
2017 10 06 20:00 268.2 0.0 0.00 69.3 20.7 84.9 9.0
2017 10 06 21:00 268.3 0.0 0.00 69.2 20.7 83.9 9.1
2017 10 06 22:00 268.3 0.0 0.00 69.6 20.9 81.1 9.7
2017 10 06 23:00 267.7 0.0 0.00 69.9 21.0 77.3 11.8
2017 10 06 24:00 267.6 0.0 0.00 70.1 21.2 74.13 12.5
2017 10 07 1:00 267.1 0.0 0.00 70.4 21.3 72.47 10.6
2017 10 07 2:00 267.5 0.0 0.00 69.9 21.1 74.07 8.5
2017 10 07 3:00 269.3 0.0 0.00 69.6 20.9 74.79 9.9
2017 10 07 4:00 Wet 284.0 0.0 0.00 69.0 20.6 76.99 10.8
2017 10 07 5:00 Wet 289.3 0.0 0.00 68.1 20.1 80.9 11.7
2017 10 07 6:00 267.8 0.0 0.00 67.6 19.8 81.9 10.4
2017 10 07 7:00 Wet 338.7 0.0 0.00 67.6 19.8 83 12.6
2017 10 07 8:00 Wet 432.4 0.0 0.76 66.4 19.1 89.8 13.4
2017 10 07 9:00 Wet 384.8 0.0 1.02 65.8 18.8 93.8 12.9
2017 10 07 10:00 Wet 301.9 0.0 0.00 66.1 18.9 91.9 13.3
2017 10 07 11:00 268.1 0.0 0.00 64.6 18.1 82.2 14.5
2017 10 07 12:00 266.8 0.0 0.00 64.3 18.0 79.8 14.9
2017 10 07 13:00 266.1 0.0 0.00 65.2 18.5 72.53 16.1
2017 10 07 14:00 266.2 0.0 0.00 64.8 18.2 72.38 16.6
2017 10 07 15:00 265.6 0.0 0.00 65.1 18.4 70.34 18.4
2017 10 07 16:00 264.9 0.0 0.00 66.3 19.0 67.68 16.5
2017 10 07 17:00 264.3 0.0 0.00 66.6 19.2 63.88 13.6
2017 10 07 18:00 265.6 0.0 0.00 64.7 18.2 67.67 8.0
2017 10 07 19:00 266.7 0.0 0.00 61.3 16.3 75.63 5.6
2017 10 07 20:00 267.4 0.0 0.00 58.5 14.7 81.3 5.2
2017 10 07 21:00 267.8 0.0 0.00 57.9 14.4 81.6 4.4
2017 10 07 22:00 268.6 0.0 0.00 56.1 13.4 85.1 3.5
2017 10 07 23:00 269.8 0.0 0.00 55.6 13.1 87.9 3.9
2017 10 07 24:00 Wet 286.2 0.0 0.00 53.4 11.9 92.1 3.3
2017 10 08 1:00 Wet 320.4 0.0 0.00 53.1 11.7 93.9 4.0
2017 10 08 2:00 Wet 355.9 0.0 0.00 53.3 11.8 94.2 3.4
2017 10 08 3:00 Wet 438.2 0.0 0.00 52.4 11.4 96.4 2.8
2017 10 08 4:00 Wet 479.3 0.0 0.00 51.5 10.8 98.5 2.8
2017 10 08 5:00 Wet 504.1 0.0 0.00 51.1 10.6 99.7 3.8
2017 10 08 6:00 Wet 495.6 0.0 0.00 51.5 10.8 99.3 3.5
2017 10 08 7:00 Wet 413.0 0.0 0.00 52.0 11.1 98.8 3.4
2017 10 08 8:00 Wet 334.7 0.0 0.00 57.0 13.9 93.1 4.6
2017 10 08 9:00 280.2 0.0 0.00 63.6 17.5 80.4 5.7
2017 10 08 10:00 266.5 0.0 0.00 69.2 20.7 66.05 7.0
2017 10 08 11:00 264.8 0.0 0.00 74.0 23.3 52.56 8.6
2017 10 08 12:00 263.1 0.0 0.00 76.2 24.6 42.42 10.4
2017 10 08 13:00 261.9 0.0 0.00 77.6 25.3 39.82 8.2
2017 10 08 14:00 260.9 0.0 0.00 78.6 25.9 36.98 7.0
2017 10 08 15:00 260.4 0.0 0.00 78.9 26.1 36.98 6.1
2017 10 08 16:00 260.1 0.0 0.00 78.7 25.9 36.68 5.1
2017 10 08 17:00 260.6 0.0 0.00 77.1 25.1 40 4.7
2017 10 08 18:00 262.5 0.0 0.00 73.0 22.8 47.35 2.6
2017 10 08 19:00 265.3 0.0 0.00 65.0 18.3 69.92 0.3
2017 10 08 20:00 272.3 0.0 0.00 60.9 16.1 83.7 0.3
2017 10 08 21:00 Wet 302.4 0.0 0.00 58.0 14.4 91 1.2
2017 10 08 22:00 Wet 330.9 0.0 0.00 57.2 14.0 91.2 0.3
2017 10 08 23:00 Wet 384.4 0.0 0.00 55.4 13.0 95.7 0.7
2017 10 08 24:00 Wet 432.1 0.0 0.00 54.6 12.6 96.7 0.8
2017 10 09 1:00 Wet 443.7 0.0 0.00 54.7 12.6 94.7 1.6
2017 10 09 2:00 Wet 421.4 0.0 0.00 54.4 12.4 91.8 1.8
2017 10 09 3:00 Wet 452.4 0.0 0.00 53.4 11.9 97.1 0.8
2017 10 09 4:00 Wet 469.0 0.0 0.00 53.1 11.7 97.3 1.0
2017 10 09 5:00 Wet 460.0 0.0 0.00 52.3 11.3 96.7 1.3
2017 10 09 6:00 Wet 383.6 0.0 0.00 54.1 12.3 90.5 3.7
2017 10 09 7:00 Wet 335.9 0.0 0.00 55.4 13.0 87 3.0
2017 10 09 8:00 280.9 0.0 0.00 61.2 16.2 77.94 2.7
2017 10 09 9:00 266.6 0.0 0.00 67.0 19.5 65.78 4.1
2017 10 09 10:00 265.2 0.0 0.00 70.5 21.4 61.03 5.5
2017 10 09 11:00 264.1 0.0 0.00 72.2 22.3 59.77 5.9
2017 10 09 12:00 262.8 0.0 0.00 75.5 24.2 53.18 5.5
2017 10 09 13:00 261.5 0.0 0.00 77.6 25.3 48.47 5.9
2017 10 09 14:00 260.9 0.0 0.00 78.6 25.9 47.46 6.6
2017 10 09 15:00 260.5 0.0 0.00 78.8 26.0 47.01 6.0
2017 10 09 16:00 260.6 0.0 0.00 78.6 25.9 47.5 6.4
2017 10 09 17:00 262.5 0.0 0.00 74.9 23.9 52.7 7.9
2017 10 09 18:00 263.7 0.0 0.00 70.0 21.1 59.47 7.1
2017 10 09 19:00 264.2 0.0 0.00 67.0 19.4 62.95 5.7
2017 10 09 20:00 264.5 0.0 0.00 65.4 18.6 63.7 6.1
2017 10 09 21:00 264.4 0.0 0.00 63.6 17.6 60.89 7.4
2017 10 09 22:00 264.3 0.0 0.00 62.3 16.8 56.05 8.6
2017 10 09 23:00 264.3 0.0 0.00 61.2 16.2 56.46 8.7
2017 10 09 24:00 264.4 0.0 0.00 60.0 15.5 57.69 8.1
2017 10 10 1:00 273.0 0.0 0.00 57.2 14.0 65.94 8.2
2017 10 10 2:00 265.3 0.0 0.00 55.3 12.9 71.16 7.8
2017 10 10 3:00 265.2 0.0 0.00 54.3 12.4 70.35 8.4
2017 10 10 4:00 265.2 0.0 0.00 53.6 12.0 68.85 8.6
2017 10 10 5:00 265.2 0.0 0.00 53.5 11.9 68.43 7.2
2017 10 10 6:00 265.2 0.0 0.00 54.2 12.3 66.75 8.1
2017 10 10 7:00 265.2 0.0 0.00 54.5 12.5 67.53 7.2
2017 10 10 8:00 265.2 0.0 0.00 53.9 12.2 70.77 8.3
2017 10 10 9:00 266.0 0.0 0.00 50.7 10.4 85.7 10.8
2017 10 10 10:00 282.2 0.0 0.00 49.9 10.0 91.5 7.7
2017 10 10 11:00 272.4 0.0 0.00 49.7 9.9 93.1 9.7
2017 10 10 12:00 266.9 0.0 0.00 50.4 10.2 90.2 9.3
2017 10 10 13:00 266.7 0.0 0.00 51.0 10.6 88.7 11.4
2017 10 10 14:00 267.6 0.0 0.00 49.5 9.7 92.6 12.0
2017 10 10 15:00 Wet 448.9 0.6 14.22 48.0 8.9 98.9 9.7
2017 10 10 16:00 Wet 337.6 0.0 0.51 49.7 9.8 99 8.6
2017 10 10 17:00 Wet 384.4 0.1 2.03 50.1 10.0 98.4 11.4
2017 10 10 18:00 Wet 438.5 0.2 5.33 48.7 9.3 98.3 13.6
2017 10 10 19:00 Wet 449.8 0.2 5.59 48.7 9.3 98.4 8.8
2017 10 10 20:00 Wet 435.4 0.2 3.81 49.0 9.4 98.8 8.2
2017 10 10 21:00 Wet 296.7 0.0 0.00 49.1 9.5 97 10.7
2017 10 10 22:00 Wet 322.4 0.0 0.00 48.8 9.3 97 9.6
2017 10 10 23:00 Wet 381.9 0.0 0.25 48.6 9.2 97.7 11.0
2017 10 10 24:00 Wet 348.6 0.0 0.00 48.3 9.1 98.7 10.1
2017 10 11 1:00 Wet 343.2 0.0 0.00 48.1 8.9 98.5 10.5
2017 10 11 2:00 Wet 296.2 0.0 0.00 47.7 8.7 97.2 11.0
2017 10 11 3:00 271.9 0.0 0.00 47.5 8.6 96.9 9.9
2017 10 11 4:00 269.4 0.0 0.00 47.5 8.6 96.5 8.7
2017 10 11 5:00 269.4 0.0 0.00 47.4 8.6 96.3 8.1
2017 10 11 6:00 269.4 0.0 0.00 47.2 8.5 96.5 7.8
2017 10 11 7:00 269.3 0.0 0.00 47.3 8.5 96.1 7.5
2017 10 11 8:00 269.0 0.0 0.00 47.7 8.7 96 7.8
2017 10 11 9:00 268.7 0.0 0.00 48.0 8.9 94.7 9.2
2017 10 11 10:00 268.7 0.0 0.00 47.5 8.6 95.8 11.2
2017 10 11 11:00 268.3 0.0 0.00 48.2 9.0 93.5 9.8
2017 10 11 12:00 267.8 0.0 0.00 49.5 9.7 89.4 8.6
2017 10 11 13:00 266.8 0.0 0.00 51.3 10.7 85.3 6.6
2017 10 11 14:00 266.1 0.0 0.00 53.4 11.9 80.6 4.3
2017 10 11 15:00 265.9 0.0 0.00 54.5 12.5 79.54 3.5
2017 10 11 16:00 266.5 0.0 0.00 54.6 12.6 80.9 4.1
2017 10 11 17:00 266.7 0.0 0.00 54.6 12.6 81.1 2.4
2017 10 11 18:00 267.2 0.0 0.00 54.2 12.3 84 2.0
2017 10 11 19:00 267.8 0.0 0.00 53.7 12.1 86.8 2.3
2017 10 11 20:00 267.9 0.0 0.00 53.7 12.0 88.5 1.8
2017 10 11 21:00 267.9 0.0 0.00 53.4 11.9 90.6 2.9
2017 10 11 22:00 268.1 0.0 0.00 53.5 12.0 91 2.4
2017 10 11 23:00 268.6 0.0 0.00 53.4 11.9 92.4 1.6
2017 10 11 24:00 268.6 0.0 0.00 53.2 11.8 92.1 1.5
2017 10 12 1:00 268.8 0.0 0.00 52.8 11.6 92.9 2.6
2017 10 12 2:00 269.2 0.0 0.00 52.4 11.3 94.7 3.0
2017 10 12 3:00 269.3 0.0 0.00 52.3 11.3 95.4 1.2
2017 10 12 4:00 270.8 0.0 0.00 52.3 11.3 96.3 2.6
2017 10 12 5:00 271.8 0.0 0.00 52.1 11.2 96.8 1.9
2017 10 12 6:00 283.2 0.0 0.00 52.0 11.1 96.8 3.2
2017 10 12 7:00 Wet 291.7 0.0 0.00 51.6 10.9 96.6 4.3
2017 10 12 8:00 269.9 0.0 0.00 51.5 10.8 94.6 6.4
2017 10 12 9:00 269.2 0.0 0.00 51.6 10.9 94.2 6.8
2017 10 12 10:00 Wet 302.1 0.0 0.00 51.6 10.9 95.2 7.7
2017 10 12 11:00 270.5 0.0 0.00 51.4 10.8 93.8 7.9
2017 10 12 12:00 268.1 0.0 0.00 52.5 11.4 91 6.1
2017 10 12 13:00 267.9 0.0 0.00 53.3 11.8 89.2 6.8
2017 10 12 14:00 267.7 0.0 0.00 54.6 12.5 86.1 7.1
2017 10 12 15:00 266.6 0.0 0.00 56.7 13.7 81.2 8.3
2017 10 12 16:00 266.0 0.0 0.00 57.5 14.2 79.23 8.1
2017 10 12 17:00 265.9 0.0 0.00 58.2 14.6 77.89 7.9
2017 10 12 18:00 267.6 0.0 0.00 55.6 13.1 84.7 5.2
2017 10 12 19:00 270.1 0.0 0.00 53.6 12.0 90.7 6.0
2017 10 12 20:00 269.3 0.0 0.00 53.5 11.9 91.7 7.7
2017 10 12 21:00 270.8 0.0 0.00 52.3 11.3 94.1 6.5
2017 10 12 22:00 271.1 0.0 0.00 52.0 11.1 94.9 4.9
2017 10 12 23:00 274.9 0.0 0.00 51.9 11.1 95 4.3
2017 10 12 24:00 Wet 305.3 0.0 0.00 50.4 10.2 97.5 3.6
2017 10 13 1:00 Wet 351.4 0.0 0.00 49.7 9.8 98.7 3.4
2017 10 13 2:00 Wet 411.5 0.0 0.00 49.0 9.4 99.6 3.3
2017 10 13 3:00 Wet 434.7 0.0 0.00 49.9 9.9 99.9 3.5
2017 10 13 4:00 Wet 379.7 0.0 0.00 51.8 11.0 98.3 4.3
2017 10 13 5:00 Wet 369.8 0.0 0.00 51.9 11.0 97.8 3.4
2017 10 13 6:00 Wet 344.0 0.0 0.00 53.6 12.0 97 4.3
2017 10 13 7:00 Wet 290.9 0.0 0.00 55.1 12.8 94.9 4.5
2017 10 13 8:00 274.5 0.0 0.00 57.5 14.2 90.1 5.8
2017 10 13 9:00 268.1 0.0 0.00 62.5 16.9 79.74 8.3
2017 10 13 10:00 266.8 0.0 0.00 66.9 19.4 70.58 9.5
2017 10 13 11:00 265.5 0.0 0.00 71.8 22.1 61.96 9.4
2017 10 13 12:00 264.6 0.0 0.00 73.9 23.3 59.5 9.7
2017 10 13 13:00 263.8 0.0 0.00 75.9 24.4 57.57 9.3
2017 10 13 14:00 263.3 0.0 0.00 78.9 26.0 54.94 9.8
2017 10 13 15:00 263.3 0.0 0.00 79.8 26.5 54.84 10.1
2017 10 13 16:00 263.3 0.0 0.00 79.6 26.4 56.52 10.3
2017 10 13 17:00 263.7 0.0 0.00 78.9 26.1 59.67 8.3
2017 10 13 18:00 265.1 0.0 0.00 75.7 24.3 66.74 4.9
2017 10 13 19:00 265.7 0.0 0.00 73.5 23.1 72.18 4.8
2017 10 13 20:00 266.2 0.0 0.00 71.5 21.9 76.39 4.9
2017 10 13 21:00 267.1 0.0 0.00 69.0 20.6 81.7 3.4
2017 10 13 22:00 268.2 0.0 0.00 67.1 19.5 86.5 2.5
2017 10 13 23:00 268.7 0.0 0.00 63.7 17.6 90.8 3.5
2017 10 13 24:00 270.6 0.0 0.00 62.2 16.8 93.6 2.8
2017 10 14 1:00 268.2 0.0 0.00 67.8 19.9 84 6.1
2017 10 14 2:00 268.3 0.0 0.00 67.2 19.6 84.9 2.6
2017 10 14 3:00 268.8 0.0 0.00 65.4 18.5 88.2 2.1
2017 10 14 4:00 268.7 0.0 0.00 65.4 18.6 88.6 4.4
2017 10 14 5:00 269.1 0.0 0.00 64.4 18.0 90 4.1
2017 10 14 6:00 269.9 0.0 0.00 64.9 18.3 89.7 5.8
2017 10 14 7:00 Wet 366.1 0.0 0.76 65.1 18.4 92.6 6.5
2017 10 14 8:00 Wet 385.3 0.0 0.51 64.9 18.3 95.8 5.9
2017 10 14 9:00 271.7 0.0 0.00 68.0 20.0 91.1 7.8
2017 10 14 10:00 267.9 0.0 0.00 71.5 22.0 83.9 8.3
2017 10 14 11:00 267.1 0.0 0.00 75.3 24.0 76.43 8.3
2017 10 14 12:00 265.3 0.0 0.00 81.0 27.2 64.87 10.6
2017 10 14 13:00 280.9 0.0 0.00 80.2 26.8 68.14 6.3
2017 10 14 14:00 264.7 0.0 0.00 82.9 28.3 61.51 11.2
2017 10 14 15:00 264.2 0.0 0.00 84.1 28.9 57.91 15.2
2017 10 14 16:00 264.6 0.0 0.00 82.5 28.1 60.16 14.2
2017 10 14 17:00 265.3 0.0 0.00 73.0 22.8 72.96 10.1
2017 10 14 18:00 265.9 0.0 0.00 74.4 23.5 72.84 7.0
2017 10 14 19:00 Wet 304.3 0.2 6.10 72.9 22.7 71.34 9.6
2017 10 14 20:00 Wet 444.5 0.1 3.30 66.8 19.3 98.3 6.6
2017 10 14 21:00 Wet 390.4 0.0 0.76 68.4 20.2 95.3 9.5
2017 10 14 22:00 Wet 451.3 0.2 3.81 67.0 19.4 96.8 8.8
2017 10 14 23:00 Wet 394.6 0.0 0.51 66.3 19.0 97 11.2
2017 10 14 24:00 Wet 402.3 0.2 4.32 62.2 16.8 94.4 15.1
2017 10 15 1:00 Wet 332.6 0.0 0.51 60.1 15.6 92.5 16.0
2017 10 15 2:00 270.4 0.0 0.00 55.9 13.3 92.4 17.2
2017 10 15 3:00 268.3 0.0 0.00 54.1 12.3 88.1 16.9
2017 10 15 4:00 267.9 0.0 0.00 51.8 11.0 84.9 18.3
2017 10 15 5:00 267.7 0.0 0.00 50.4 10.2 79.98 18.0
2017 10 15 6:00 267.3 0.0 0.00 49.3 9.6 75.79 17.0
2017 10 15 7:00 267.3 0.0 0.00 48.6 9.2 75.69 15.9
2017 10 15 8:00 267.1 0.0 0.00 48.7 9.3 74.99 14.3
2017 10 15 9:00 266.7 0.0 0.00 48.7 9.3 72.01 16.3
2017 10 15 10:00 266.3 0.0 0.00 50.5 10.3 69.15 15.6
2017 10 15 11:00 265.8 0.0 0.00 51.9 11.1 66.8 15.4
2017 10 15 12:00 265.2 0.0 0.00 52.9 11.6 64.16 13.6
2017 10 15 13:00 264.7 0.0 0.00 54.0 12.2 61.67 13.0
2017 10 15 14:00 264.2 0.0 0.00 55.7 13.2 58.65 13.3
2017 10 15 15:00 263.8 0.0 0.00 56.6 13.7 55.58 13.5
2017 10 15 16:00 263.7 0.0 0.00 56.7 13.7 51.92 12.1
2017 10 15 17:00 263.8 0.0 0.00 56.1 13.4 52.83 9.1
2017 10 15 18:00 265.3 0.0 0.00 52.4 11.3 63.55 3.2
2017 10 15 19:00 266.9 0.0 0.00 48.0 8.9 74.05 3.4
2017 10 15 20:00 268.1 0.0 0.00 46.1 7.9 81.8 3.1
2017 10 15 21:00 271.0 0.0 0.00 44.6 7.0 84.9 3.2
2017 10 15 22:00 270.9 0.0 0.00 43.8 6.6 83.5 3.5
2017 10 15 23:00 Wet 289.5 0.0 0.00 43.0 6.1 87.9 2.3
2017 10 15 24:00 Wet 316.7 0.0 0.00 42.0 5.5 88.6 2.3
2017 10 16 1:00 Wet 362.9 0.0 0.00 42.1 5.6 87.7 0.7
2017 10 16 2:00 Wet 395.4 0.0 0.00 41.3 5.2 86.2 1.9
2017 10 16 3:00 Wet 437.7 0.0 0.00 38.5 3.6 93.1 1.9
2017 10 16 4:00 Wet 464.0 0.0 0.00 38.2 3.5 93.2 2.1
2017 10 16 5:00 Wet 444.0 0.0 0.00 39.5 4.2 88.8 4.7
2017 10 16 6:00 Wet 365.4 0.0 0.00 40.1 4.5 84.8 5.9
2017 10 16 7:00 Wet 297.8 0.0 0.00 40.9 4.9 81.6 6.2
2017 10 16 8:00 268.3 0.0 0.00 44.2 6.8 77.94 5.1
2017 10 16 9:00 267.1 0.0 0.00 49.7 9.8 69.56 6.1
2017 10 16 10:00 265.7 0.0 0.00 55.2 12.9 60.45 5.4
2017 10 16 11:00 264.1 0.0 0.00 60.5 15.9 46.24 6.2
2017 10 16 12:00 262.6 0.0 0.00 63.1 17.3 36.27 7.8
2017 10 16 13:00 261.5 0.0 0.00 64.3 17.9 33.59 7.2
2017 10 16 14:00 260.8 0.0 0.00 65.0 18.3 32.33 7.0
2017 10 16 15:00 260.1 0.0 0.00 65.9 18.8 30.96 5.9
2017 10 16 16:00 260.1 0.0 0.00 65.9 18.8 31.35 5.7
2017 10 16 17:00 260.6 0.0 0.00 64.5 18.0 34.5 5.0
2017 10 16 18:00 262.8 0.0 0.00 59.7 15.4 41.71 3.8
2017 10 16 19:00 263.9 0.0 0.00 54.0 12.2 52.83 2.5
2017 10 16 20:00 264.6 0.0 0.00 51.1 10.6 59.42 3.1
2017 10 16 21:00 264.8 0.0 0.00 50.1 10.1 60.72 3.9
2017 10 16 22:00 265.3 0.0 0.00 49.0 9.4 63.34 3.4
2017 10 16 23:00 265.5 0.0 0.00 47.9 8.8 69.1 4.5
2017 10 16 24:00 266.0 0.0 0.00 48.2 9.0 71.71 5.5
2017 10 17 1:00 266.1 0.0 0.00 48.1 9.0 73.69 5.4
2017 10 17 2:00 266.1 0.0 0.00 47.9 8.8 74.88 5.4
2017 10 17 3:00 266.7 0.0 0.00 47.0 8.3 77.98 5.7
2017 10 17 4:00 266.8 0.0 0.00 46.8 8.2 78.62 4.9
2017 10 17 5:00 266.8 0.0 0.00 45.9 7.7 80.3 5.0
2017 10 17 6:00 267.9 0.0 0.00 44.1 6.7 84.3 3.6
2017 10 17 7:00 267.5 0.0 0.00 44.8 7.1 83.9 4.4
2017 10 17 8:00 266.7 0.0 0.00 48.9 9.4 76.58 4.8
2017 10 17 9:00 265.7 0.0 0.00 54.6 12.6 61.08 9.0
2017 10 17 10:00 264.3 0.0 0.00 60.7 15.9 48.9 11.2
2017 10 17 11:00 263.4 0.0 0.00 64.5 18.1 42.78 13.2
2017 10 17 12:00 262.3 0.0 0.00 66.7 19.3 40.51 12.8
2017 10 17 13:00 261.7 0.0 0.00 68.3 20.2 37.2 11.7
2017 10 17 14:00 261.0 0.0 0.00 69.2 20.6 36.4 11.4
2017 10 17 15:00 260.8 0.0 0.00 69.7 20.9 35.96 10.6
2017 10 17 16:00 260.8 0.0 0.00 69.7 20.9 36.52 10.1
2017 10 17 17:00 261.2 0.0 0.00 67.5 19.7 40.4 7.8
2017 10 17 18:00 263.1 0.0 0.00 61.6 16.5 50.23 4.6
2017 10 17 19:00 264.2 0.0 0.00 56.9 13.8 59.77 4.1
2017 10 17 20:00 264.7 0.0 0.00 55.7 13.2 64.95 4.7
2017 10 17 21:00 265.2 0.0 0.00 53.7 12.1 69.42 4.1
2017 10 17 22:00 265.8 0.0 0.00 52.1 11.2 72.94 4.0
2017 10 17 23:00 266.3 0.0 0.00 50.5 10.3 76.73 4.1
2017 10 17 24:00 266.2 0.0 0.00 50.5 10.3 76.2 5.2
2017 10 18 1:00 266.5 0.0 0.00 49.6 9.8 77.01 4.8
2017 10 18 2:00 266.5 0.0 0.00 50.0 10.0 75.18 6.1
2017 10 18 3:00 266.3 0.0 0.00 49.6 9.8 75.39 6.6
2017 10 18 4:00 266.7 0.0 0.00 47.7 8.7 79.07 5.4
2017 10 18 5:00 266.8 0.0 0.00 46.5 8.0 81.6 5.6
2017 10 18 6:00 267.2 0.0 0.00 45.3 7.4 83.6 5.8
2017 10 18 7:00 266.9 0.0 0.00 45.8 7.6 82.5 5.9
2017 10 18 8:00 266.7 0.0 0.00 49.1 9.5 76.33 8.0
2017 10 18 9:00 265.9 0.0 0.00 54.0 12.2 67.47 10.1
2017 10 18 10:00 264.8 0.0 0.00 60.3 15.7 57.08 10.9
2017 10 18 11:00 263.7 0.0 0.00 64.6 18.1 49.49 11.1
2017 10 18 12:00 262.8 0.0 0.00 67.6 19.8 44.83 10.7
2017 10 18 13:00 262.0 0.0 0.00 69.7 21.0 42.07 12.0
2017 10 18 14:00 261.5 0.0 0.00 71.2 21.8 40.81 12.1
2017 10 18 15:00 261.4 0.0 0.00 71.6 22.0 40.75 12.0
2017 10 18 16:00 261.4 0.0 0.00 71.3 21.9 41.15 12.0
2017 10 18 17:00 262.0 0.0 0.00 69.8 21.0 44.05 10.2
2017 10 18 18:00 263.4 0.0 0.00 65.1 18.4 51.78 6.1
2017 10 18 19:00 264.2 0.0 0.00 60.6 15.9 60.64 5.0
2017 10 18 20:00 264.6 0.0 0.00 59.1 15.1 63.71 5.0
2017 10 18 21:00 265.1 0.0 0.00 58.0 14.5 66.7 4.3
2017 10 18 22:00 265.2 0.0 0.00 57.6 14.2 67.58 4.3
2017 10 18 23:00 266.3 0.0 0.00 54.0 12.2 75.71 2.8
2017 10 18 24:00 267.4 0.0 0.00 51.7 11.0 81.6 2.8
2017 10 19 1:00 267.8 0.0 0.00 51.5 10.9 82.8 3.5
2017 10 19 2:00 268.5 0.0 0.00 50.6 10.3 85.1 3.2
2017 10 19 3:00 270.5 0.0 0.00 49.2 9.6 88.3 2.3
2017 10 19 4:00 276.8 0.0 0.00 48.2 9.0 90.9 3.2
2017 10 19 5:00 281.6 0.0 0.00 48.1 8.9 91.8 2.6
2017 10 19 6:00 Wet 302.8 0.0 0.00 47.2 8.4 93.7 3.8
2017 10 19 7:00 Wet 305.8 0.0 0.00 48.0 8.9 92.5 3.1
2017 10 19 8:00 274.9 0.0 0.00 52.0 11.1 88.4 3.3
2017 10 19 9:00 267.0 0.0 0.00 58.7 14.9 75.11 4.5
2017 10 19 10:00 265.4 0.0 0.00 63.1 17.3 65.68 3.8
2017 10 19 11:00 263.8 0.0 0.00 67.4 19.6 57.75 3.7
2017 10 19 12:00 263.1 0.0 0.00 70.4 21.4 53.11 5.6
2017 10 19 13:00 262.3 0.0 0.00 73.1 22.8 49.11 7.5
2017 10 19 14:00 261.6 0.0 0.00 75.1 24.0 45.01 7.1
2017 10 19 15:00 261.3 0.0 0.00 76.1 24.5 42.42 8.0
2017 10 19 16:00 261.3 0.0 0.00 75.7 24.3 41.19 7.6
2017 10 19 17:00 261.9 0.0 0.00 73.7 23.1 45.4 5.6
2017 10 19 18:00 263.7 0.0 0.00 68.5 20.3 53.96 3.2
2017 10 19 19:00 265.4 0.0 0.00 62.5 16.9 66.34 2.5
2017 10 19 20:00 265.7 0.0 0.00 61.6 16.4 67.23 4.3
2017 10 19 21:00 265.7 0.0 0.00 60.6 15.9 69.48 4.9
2017 10 19 22:00 265.8 0.0 0.00 59.5 15.3 71.22 4.1
2017 10 19 23:00 266.2 0.0 0.00 58.7 14.8 72.03 4.0
2017 10 19 24:00 266.5 0.0 0.00 57.8 14.4 74.01 4.7
2017 10 20 1:00 266.5 0.0 0.00 57.2 14.0 75.72 4.9
2017 10 20 2:00 266.7 0.0 0.00 56.3 13.5 77.51 4.8
2017 10 20 3:00 267.2 0.0 0.00 54.7 12.6 80.4 4.8
2017 10 20 4:00 267.3 0.0 0.00 53.7 12.0 82.3 4.9
2017 10 20 5:00 267.9 0.0 0.00 52.9 11.6 83.6 5.0
2017 10 20 6:00 268.2 0.0 0.00 51.6 10.9 86.3 5.0
2017 10 20 7:00 269.1 0.0 0.00 50.3 10.2 89.3 4.0
2017 10 20 8:00 268.3 0.0 0.00 53.2 11.8 85.9 5.3
2017 10 20 9:00 266.9 0.0 0.00 58.9 14.9 76.06 7.7
2017 10 20 10:00 265.6 0.0 0.00 64.1 17.9 65.85 8.9
2017 10 20 11:00 264.8 0.0 0.00 66.8 19.4 60.9 9.4
2017 10 20 12:00 263.8 0.0 0.00 69.4 20.8 56.18 10.0
2017 10 20 13:00 263.5 0.0 0.00 71.1 21.7 52.55 11.0
2017 10 20 14:00 263.2 0.0 0.00 71.6 22.0 49.17 11.5
2017 10 20 15:00 263.4 0.0 0.00 70.7 21.5 49.3 11.6
2017 10 20 16:00 263.5 0.0 0.00 69.6 20.9 49.95 11.9
2017 10 20 17:00 263.6 0.0 0.00 68.2 20.1 51.15 9.6
2017 10 20 18:00 264.2 0.0 0.00 65.9 18.8 55.82 8.4
2017 10 20 19:00 264.3 0.0 0.00 65.1 18.4 57.43 7.7
2017 10 20 20:00 264.3 0.0 0.00 65.6 18.7 56.65 10.2
2017 10 20 21:00 264.3 0.0 0.00 65.2 18.5 57.86 10.9
2017 10 20 22:00 264.7 0.0 0.00 64.4 18.0 62.21 11.0
2017 10 20 23:00 265.0 0.0 0.00 62.8 17.1 68.27 9.4
2017 10 20 24:00 265.7 0.0 0.00 61.2 16.2 72.65 8.7
2017 10 21 1:00 265.7 0.0 0.00 61.4 16.3 74.97 8.9
2017 10 21 2:00 265.7 0.0 0.00 61.5 16.4 75.3 9.3
2017 10 21 3:00 266.2 0.0 0.00 60.8 16.0 77.56 9.5
2017 10 21 4:00 266.4 0.0 0.00 59.3 15.2 80.9 9.5
2017 10 21 5:00 266.8 0.0 0.00 59.0 15.0 82.3 9.0
2017 10 21 6:00 267.2 0.0 0.00 59.2 15.1 81.5 9.0
2017 10 21 7:00 266.9 0.0 0.00 59.4 15.2 80.2 10.6
2017 10 21 8:00 266.4 0.0 0.00 61.8 16.5 76.2 12.4
2017 10 21 9:00 265.9 0.0 0.00 65.5 18.6 70.86 15.1
2017 10 21 10:00 265.3 0.0 0.00 69.8 21.0 66.24 14.8
2017 10 21 11:00 264.6 0.0 0.00 74.4 23.6 62.16 16.9
2017 10 21 12:00 264.0 0.0 0.00 76.6 24.8 59.26 17.3
2017 10 21 13:00 263.5 0.0 0.00 77.5 25.3 56.72 17.7
2017 10 21 14:00 263.4 0.0 0.00 78.2 25.7 53.7 19.2
2017 10 21 15:00 263.8 0.0 0.00 77.2 25.1 56.44 15.2
2017 10 21 16:00 264.0 0.0 0.00 76.5 24.7 59.08 12.5
2017 10 21 17:00 264.3 0.0 0.00 75.3 24.1 61.85 12.4
2017 10 21 18:00 264.9 0.0 0.00 73.1 22.9 67.13 10.3
2017 10 21 19:00 265.5 0.0 0.00 71.8 22.1 70.32 11.1
2017 10 21 20:00 265.5 0.0 0.00 71.2 21.8 72.72 11.5
2017 10 21 21:00 265.5 0.0 0.00 71.3 21.8 73.45 13.8
2017 10 21 22:00 266.5 0.0 0.00 70.7 21.5 75.74 12.2
2017 10 21 23:00 266.2 0.0 0.00 69.8 21.0 79.25 9.6
2017 10 21 24:00 Wet 348.0 0.6 15.24 62.9 17.2 88.1 15.1
2017 10 22 1:00 Wet 444.0 0.3 7.87 59.7 15.4 99.3 8.4
2017 10 22 2:00 Wet 442.3 0.2 5.84 57.2 14.0 98.9 11.3
2017 10 22 3:00 Wet 409.3 0.2 4.32 53.1 11.7 97.6 13.8
2017 10 22 4:00 Wet 400.7 0.1 1.78 52.1 11.2 97.2 12.3
2017 10 22 5:00 Wet 322.7 0.0 0.25 50.9 10.5 95.6 12.3
2017 10 22 6:00 Wet 287.8 0.0 0.25 50.5 10.3 93.8 8.3
2017 10 22 7:00 Wet 398.7 0.0 0.51 50.0 10.0 95.6 7.8
2017 10 22 8:00 Wet 324.1 0.0 0.00 50.0 10.0 95 10.5
2017 10 22 9:00 Wet 384.6 0.0 0.25 49.9 9.9 95.6 10.6
2017 10 22 10:00 Wet 289.3 0.0 0.00 50.3 10.2 93.5 8.7
2017 10 22 11:00 271.1 0.0 0.00 51.2 10.7 89.5 8.3
2017 10 22 12:00 267.9 0.0 0.00 51.9 11.0 88.1 8.0
2017 10 22 13:00 Wet 301.3 0.0 0.00 52.5 11.4 87.7 7.3
2017 10 22 14:00 274.0 0.0 0.00 53.8 12.1 82.7 8.7
2017 10 22 15:00 267.2 0.0 0.00 54.2 12.4 78.81 6.4
2017 10 22 16:00 266.7 0.0 0.00 54.8 12.7 76.12 3.8
2017 10 22 17:00 267.4 0.0 0.00 54.0 12.2 81.8 3.4
2017 10 22 18:00 268.6 0.0 0.00 52.6 11.4 88 2.7
2017 10 22 19:00 277.6 0.0 0.00 51.1 10.6 92.3 1.4
2017 10 22 20:00 280.5 0.0 0.00 50.8 10.4 92.3 1.2
2017 10 22 21:00 Wet 305.1 0.0 0.00 50.0 10.0 96.1 1.4
2017 10 22 22:00 Wet 327.9 0.0 0.00 49.9 9.9 93.7 1.3
2017 10 22 23:00 Wet 376.1 0.0 0.00 48.5 9.2 97.1 1.5
2017 10 22 24:00 Wet 432.7 0.0 0.00 47.6 8.6 97.1 1.6
2017 10 23 1:00 Wet 469.1 0.0 0.00 47.3 8.5 98.2 1.7
2017 10 23 2:00 Wet 474.8 0.0 0.00 45.8 7.7 98.5 2.6
2017 10 23 3:00 Wet 478.6 0.0 0.00 45.2 7.4 99.1 1.9
2017 10 23 4:00 Wet 455.0 0.0 0.00 45.3 7.4 97.4 3.6
2017 10 23 5:00 Wet 405.7 0.0 0.00 45.8 7.7 93.7 4.6
2017 10 23 6:00 Wet 374.7 0.0 0.00 45.9 7.7 92.3 4.4
2017 10 23 7:00 Wet 358.6 0.0 0.00 45.7 7.6 94.3 5.1
2017 10 23 8:00 Wet 338.3 0.0 0.00 46.0 7.8 92.4 5.8
2017 10 23 9:00 278.5 0.0 0.00 48.9 9.4 84 6.6
2017 10 23 10:00 267.1 0.0 0.00 54.2 12.4 73.4 9.4
2017 10 23 11:00 266.0 0.0 0.00 58.2 14.6 60.45 9.8
2017 10 23 12:00 265.5 0.0 0.00 58.1 14.5 61.26 9.0
2017 10 23 13:00 265.7 0.0 0.00 57.7 14.3 60.34 9.8
2017 10 23 14:00 265.3 0.0 0.00 59.2 15.1 59.05 10.2
2017 10 23 15:00 270.5 0.0 0.00 58.7 14.8 63.2 11.4
2017 10 23 16:00 264.7 0.0 0.00 59.9 15.5 57.25 14.1
2017 10 23 17:00 264.8 0.0 0.00 58.8 14.9 55.51 12.6
2017 10 23 18:00 265.1 0.0 0.00 56.7 13.7 54.93 13.9
2017 10 23 19:00 265.2 0.0 0.00 55.2 12.9 55.18 15.8
2017 10 23 20:00 265.2 0.0 0.00 53.3 11.8 52.43 17.6
2017 10 23 21:00 265.2 0.0 0.00 52.5 11.4 55.65 19.8
2017 10 23 22:00 265.1 0.0 0.00 50.7 10.4 53.35 18.0
2017 10 23 23:00 265.2 0.0 0.00 49.8 9.9 55.18 12.8
2017 10 23 24:00 265.3 0.0 0.00 50.0 10.0 54.82 12.2
2017 10 24 1:00 265.2 0.0 0.00 49.8 9.9 55.1 12.8
2017 10 24 2:00 265.3 0.0 0.00 49.1 9.5 56.93 13.5
2017 10 24 3:00 265.3 0.0 0.00 47.9 8.8 60.79 15.6
2017 10 24 4:00 265.5 0.0 0.00 46.2 7.9 65.5 13.1
2017 10 24 5:00 266.1 0.0 0.00 45.7 7.6 68.78 11.1
2017 10 24 6:00 Wet 299.5 0.0 0.00 45.9 7.7 72.12 13.6
2017 10 24 7:00 267.0 0.0 0.00 42.6 5.9 67.58 21.9
2017 10 24 8:00 266.1 0.0 0.00 41.8 5.4 65.89 20.6
2017 10 24 9:00 265.5 0.0 0.00 41.9 5.5 65.39 20.4
2017 10 24 10:00 265.4 0.0 0.00 41.9 5.5 66.13 19.4
2017 10 24 11:00 265.4 0.0 0.00 42.3 5.7 65.53 19.8
2017 10 24 12:00 265.3 0.0 0.00 43.3 6.3 63.65 19.2
2017 10 24 13:00 264.6 0.0 0.00 46.0 7.8 60.12 18.8
2017 10 24 14:00 263.9 0.0 0.00 49.1 9.5 52.87 18.8
2017 10 24 15:00 263.7 0.0 0.00 50.3 10.2 45.22 20.0
2017 10 24 16:00 262.8 0.0 0.00 51.8 11.0 38.94 19.5
2017 10 24 17:00 263.3 0.0 0.00 51.1 10.6 38.59 18.4
2017 10 24 18:00 263.9 0.0 0.00 48.4 9.1 43.55 13.9
2017 10 24 19:00 264.1 0.0 0.00 46.3 7.9 48.81 11.5
2017 10 24 20:00 264.7 0.0 0.00 44.2 6.8 53.61 8.9
2017 10 24 21:00 264.9 0.0 0.00 42.0 5.6 58.52 7.0
2017 10 24 22:00 265.5 0.0 0.00 40.7 4.9 61.86 7.7
2017 10 24 23:00 265.5 0.0 0.00 39.5 4.2 65.24 6.2
2017 10 24 24:00 265.7 0.0 0.00 38.4 3.6 69.12 6.4
2017 10 25 1:00 266.3 0.0 0.00 38.1 3.4 71.74 7.6
2017 10 25 2:00 266.3 0.0 0.00 37.5 3.1 74.42 7.2
2017 10 25 3:00 267.0 0.0 0.00 35.7 2.0 79.11 6.2
2017 10 25 4:00 267.0 0.0 0.00 35.3 1.8 80.4 7.4
2017 10 25 5:00 267.0 0.0 0.00 34.9 1.6 81.8 8.2
2017 10 25 6:00 267.0 0.0 0.00 35.9 2.2 80.1 8.1
2017 10 25 7:00 267.0 0.0 0.00 36.8 2.7 78.02 9.1
2017 10 25 8:00 266.5 0.0 0.00 38.8 3.8 74.75 10.4
2017 10 25 9:00 265.8 0.0 0.00 44.8 7.1 62.46 10.8
2017 10 25 10:00 264.9 0.0 0.00 49.9 9.9 53.64 11.9
2017 10 25 11:00 264.0 0.0 0.00 54.2 12.3 48.67 12.9
2017 10 25 12:00 263.7 0.0 0.00 56.8 13.8 47.29 13.1
2017 10 25 13:00 262.9 0.0 0.00 60.0 15.6 44.53 14.4
2017 10 25 14:00 262.3 0.0 0.00 62.6 17.0 39.99 14.6
2017 10 25 15:00 261.9 0.0 0.00 63.6 17.6 37.89 13.3
2017 10 25 16:00 261.7 0.0 0.00 63.6 17.5 38.06 11.4
2017 10 25 17:00 262.4 0.0 0.00 61.9 16.6 41.74 6.7
2017 10 25 18:00 264.0 0.0 0.00 56.4 13.6 51.65 2.1
2017 10 25 19:00 265.6 0.0 0.00 50.6 10.3 65.19 2.3
2017 10 25 20:00 266.6 0.0 0.00 46.7 8.2 75.04 2.7
2017 10 25 21:00 267.0 0.0 0.00 45.5 7.5 76.81 2.8
2017 10 25 22:00 267.3 0.0 0.00 45.1 7.3 76.51 1.6
2017 10 25 23:00 271.1 0.0 0.00 43.1 6.2 84.4 1.4
2017 10 25 24:00 268.2 0.0 0.00 43.4 6.3 80.9 3.0
2017 10 26 1:00 267.6 0.0 0.00 43.7 6.5 79.44 3.9
2017 10 26 2:00 267.5 0.0 0.00 44.4 6.9 75.7 3.6
2017 10 26 3:00 267.5 0.0 0.00 43.6 6.5 75.69 4.1
2017 10 26 4:00 266.9 0.0 0.00 44.6 7.0 73.25 5.9
2017 10 26 5:00 266.8 0.0 0.00 45.3 7.4 72.26 7.7
2017 10 26 6:00 266.4 0.0 0.00 47.5 8.6 66.89 9.8
2017 10 26 7:00 266.2 0.0 0.00 47.0 8.4 69.04 9.0
2017 10 26 8:00 266.1 0.0 0.00 49.1 9.5 67.01 9.5
2017 10 26 9:00 265.5 0.0 0.00 54.2 12.4 59.21 12.6
2017 10 26 10:00 264.6 0.0 0.00 59.5 15.3 51.79 13.7
2017 10 26 11:00 263.7 0.0 0.00 63.9 17.7 45.96 14.0
2017 10 26 12:00 262.9 0.0 0.00 68.2 20.1 41.11 13.8
2017 10 26 13:00 261.9 0.0 0.00 70.3 21.3 39.11 14.1
2017 10 26 14:00 261.5 0.0 0.00 70.9 21.6 39.83 14.3
2017 10 26 15:00 261.5 0.0 0.00 69.2 20.7 43.26 13.4
2017 10 26 16:00 262.2 0.0 0.00 66.8 19.3 46.88 14.8
2017 10 26 17:00 263.6 0.0 0.00 61.4 16.3 52.72 14.6
2017 10 26 18:00 264.0 0.0 0.00 56.8 13.8 59.91 7.5
2017 10 26 19:00 264.2 0.0 0.00 55.3 12.9 57.73 17.1
2017 10 26 20:00 264.2 0.0 0.00 52.6 11.5 56.94 18.2
2017 10 26 21:00 264.5 0.0 0.00 49.4 9.7 60.45 19.1
2017 10 26 22:00 264.6 0.0 0.00 46.9 8.3 61.31 19.1
2017 10 26 23:00 264.7 0.0 0.00 44.8 7.1 61.37 17.7
2017 10 26 24:00 264.7 0.0 0.00 42.6 5.9 62.08 17.5
2017 10 27 1:00 264.7 0.0 0.00 41.3 5.1 63.01 17.2
2017 10 27 2:00 264.8 0.0 0.00 39.9 4.4 62.99 16.6
2017 10 27 3:00 264.8 0.0 0.00 38.9 3.8 61.64 18.4
2017 10 27 4:00 264.8 0.0 0.00 38.1 3.4 59.88 17.2
2017 10 27 5:00 264.9 0.0 0.00 37.5 3.0 59.93 15.3
2017 10 27 6:00 264.8 0.0 0.00 36.5 2.5 59.43 19.2
2017 10 27 7:00 264.9 0.0 0.00 35.7 2.0 58.89 16.9
2017 10 27 8:00 264.7 0.0 0.00 35.9 2.2 58.45 15.0
2017 10 27 9:00 264.7 0.0 0.00 36.3 2.4 59.49 15.0
2017 10 27 10:00 264.2 0.0 0.00 36.8 2.7 57.6 17.2
2017 10 27 11:00 264.2 0.0 0.00 37.3 2.9 56.71 17.1
2017 10 27 12:00 264.1 0.0 0.00 38.1 3.4 55.52 16.7
2017 10 27 13:00 264.1 0.0 0.00 39.0 3.9 55.49 16.3
2017 10 27 14:00 264.1 0.0 0.00 38.5 3.6 58.61 17.0
2017 10 27 15:00 264.3 0.0 0.00 37.9 3.3 61.18 15.6
2017 10 27 16:00 264.8 0.0 0.00 37.6 3.1 62.53 13.9
2017 10 27 17:00 264.9 0.0 0.00 36.8 2.7 66.35 14.2
2017 10 27 18:00 265.3 0.0 0.00 35.9 2.2 69.89 13.7
2017 10 27 19:00 265.6 0.0 0.00 35.7 2.1 71.03 10.7
2017 10 27 20:00 266.0 0.0 0.00 35.4 1.9 70.69 15.1
2017 10 27 21:00 266.0 0.0 0.00 34.8 1.6 72.57 13.7
2017 10 27 22:00 265.6 0.0 0.00 34.9 1.6 70.21 11.3
2017 10 27 23:00 265.6 0.0 0.00 34.7 1.5 69.83 11.3
2017 10 27 24:00 265.6 0.0 0.00 34.4 1.3 71.37 11.3
2017 10 28 1:00 265.6 0.0 0.00 34.0 1.1 69.55 11.2
2017 10 28 2:00 265.6 0.0 0.00 33.8 1.0 70.27 11.4
2017 10 28 3:00 265.7 0.0 0.00 33.8 1.0 72.3 10.0
2017 10 28 4:00 265.7 0.0 0.00 33.5 0.8 72.73 12.1
2017 10 28 5:00 265.7 0.0 0.00 33.3 0.7 73.26 11.9
2017 10 28 6:00 265.7 0.0 0.00 33.1 0.6 74.36 11.2
2017 10 28 7:00 266.0 0.0 0.00 32.9 0.5 76.13 11.3
2017 10 28 8:00 266.2 0.0 0.00 33.3 0.7 76.56 10.1
2017 10 28 9:00 265.9 0.0 0.00 33.5 0.8 75.3 10.2
2017 10 28 10:00 265.7 0.0 0.00 33.9 1.0 73.03 10.8
2017 10 28 11:00 265.6 0.0 0.00 34.5 1.4 69.88 10.9
2017 10 28 12:00 265.2 0.0 0.00 35.8 2.1 62.88 11.0
2017 10 28 13:00 264.9 0.0 0.00 37.1 2.8 59.2 10.3
2017 10 28 14:00 264.8 0.0 0.00 37.6 3.1 59.73 10.2
2017 10 28 15:00 264.6 0.0 0.00 38.3 3.5 58.21 8.8
2017 10 28 16:00 264.0 0.0 0.00 39.8 4.3 55.58 8.3
2017 10 28 17:00 264.0 0.0 0.00 39.3 4.1 57.28 6.6
2017 10 28 18:00 266.2 0.0 0.00 36.0 2.2 69.98 1.9
2017 10 28 19:00 268.2 0.0 0.00 31.5 -0.3 77.79 1.4
2017 10 28 20:00 279.5 0.0 0.00 29.5 -1.4 89.3 1.4
2017 10 28 21:00 271.4 0.0 0.00 27.3 -2.6 90.1 2.0
2017 10 28 22:00 273.5 0.0 0.00 25.3 -3.7 94.2 1.3
2017 10 28 23:00 275.7 0.0 0.00 24.7 -4.1 96.3 1.5
2017 10 28 24:00 277.8 0.0 0.00 24.1 -4.4 96.1 1.9
2017 10 29 1:00 279.3 0.0 0.00 22.3 -5.4 96.3 2.1
2017 10 29 2:00 280.7 0.0 0.00 21.9 -5.6 96.6 2.4
2017 10 29 3:00 281.9 0.0 0.00 22.3 -5.4 96.3 2.6
2017 10 29 4:00 283.1 0.0 0.00 22.7 -5.2 95.3 2.9
2017 10 29 5:00 283.8 0.0 0.00 23.2 -4.9 92.3 3.3
2017 10 29 6:00 Wet 284.4 0.0 0.00 24.4 -4.3 92.2 3.4
2017 10 29 7:00 Wet 284.2 0.0 0.00 26.6 -3.0 89.9 3.4
2017 10 29 8:00 283.6 0.0 0.00 29.5 -1.4 85.3 4.3
2017 10 29 9:00 281.8 0.0 0.00 32.3 0.1 80.8 6.6
2017 10 29 10:00 281.3 0.0 0.00 36.0 2.2 70.16 9.5
2017 10 29 11:00 264.9 0.0 0.00 42.6 5.9 49.85 10.9
2017 10 29 12:00 263.5 0.0 0.00 47.8 8.8 36.42 12.2
2017 10 29 13:00 262.2 0.0 0.00 51.5 10.9 26.99 12.8
2017 10 29 14:00 261.2 0.0 0.00 54.0 12.2 23.49 14.0
2017 10 29 15:00 262.0 0.0 0.00 52.7 11.5 26.58 11.8
2017 10 29 16:00 262.5 0.0 0.00 52.4 11.3 30.42 8.6
2017 10 29 17:00 262.6 0.0 0.00 51.5 10.8 35.82 4.8
2017 10 29 18:00 263.2 0.0 0.00 49.3 9.6 40.55 4.8
2017 10 29 19:00 263.6 0.0 0.00 48.4 9.1 43.67 5.2
2017 10 29 20:00 263.9 0.0 0.00 48.0 8.9 44.18 5.6
2017 10 29 21:00 264.2 0.0 0.00 47.8 8.8 44.63 5.1
2017 10 29 22:00 264.0 0.0 0.00 47.3 8.5 47.15 3.5
2017 10 29 23:00 264.0 0.0 0.00 46.7 8.2 52.1 3.0
2017 10 29 24:00 264.2 0.0 0.00 46.0 7.8 56.13 3.9
2017 10 30 1:00 264.5 0.0 0.00 46.1 7.9 57.68 6.6
2017 10 30 2:00 265.0 0.0 0.00 46.6 8.1 69.25 9.7
2017 10 30 3:00 265.7 0.0 0.00 46.6 8.1 81.7 11.2
2017 10 30 4:00 266.1 0.0 0.00 46.7 8.2 82.1 14.3
2017 10 30 5:00 266.1 0.0 0.00 46.2 7.9 77.32 12.9
2017 10 30 6:00 266.0 0.0 0.00 45.6 7.5 74.38 11.6
2017 10 30 7:00 265.4 0.0 0.00 44.8 7.1 63.37 11.0
2017 10 30 8:00 265.3 0.0 0.00 44.5 7.0 60.12 10.4
2017 10 30 9:00 264.7 0.0 0.00 45.0 7.2 55.77 12.8
2017 10 30 10:00 264.5 0.0 0.00 45.8 7.7 51.8 15.4
2017 10 30 11:00 264.0 0.0 0.00 46.9 8.3 46.07 18.3
2017 10 30 12:00 263.8 0.0 0.00 47.0 8.3 42.75 18.6
2017 10 30 13:00 263.5 0.0 0.00 47.0 8.4 42.22 17.9
2017 10 30 14:00 263.4 0.0 0.00 46.5 8.1 42.62 17.6
2017 10 30 15:00 262.9 0.0 0.00 46.7 8.2 40.93 18.2
2017 10 30 16:00 263.2 0.0 0.00 44.8 7.1 43.55 18.4
2017 10 30 17:00 264.0 0.0 0.00 42.0 5.5 50.68 13.7
2017 10 30 18:00 264.1 0.0 0.00 39.7 4.3 52.12 15.1
2017 10 30 19:00 264.1 0.0 0.00 39.5 4.2 51.7 15.9
2017 10 30 20:00 264.1 0.0 0.00 38.9 3.8 51.19 15.2
2017 10 30 21:00 264.1 0.0 0.00 38.6 3.6 48.17 17.6
2017 10 30 22:00 264.2 0.0 0.00 38.1 3.4 47.94 17.5
2017 10 30 23:00 264.2 0.0 0.00 37.3 2.9 49.08 12.6
2017 10 30 24:00 264.2 0.0 0.00 36.4 2.5 50.31 14.8
2017 10 31 1:00 264.2 0.0 0.00 35.2 1.8 53.27 12.0
2017 10 31 2:00 264.2 0.0 0.00 34.0 1.1 52.89 11.4
2017 10 31 3:00 264.4 0.0 0.00 31.7 -0.2 56.36 9.8
2017 10 31 4:00 265.0 0.0 0.00 29.3 -1.5 63.94 6.1
2017 10 31 5:00 265.7 0.0 0.00 27.6 -2.5 69.79 4.5
2017 10 31 6:00 266.0 0.0 0.00 26.6 -3.0 72.2 4.8
2017 10 31 7:00 265.9 0.0 0.00 25.7 -3.5 74.64 5.7
2017 10 31 8:00 265.8 0.0 0.00 27.9 -2.3 69.89 5.1
2017 10 31 9:00 265.1 0.0 0.00 32.2 0.1 58.08 9.3
2017 10 31 10:00 264.3 0.0 0.00 34.4 1.3 50.82 7.3
2017 10 31 11:00 264.0 0.0 0.00 35.2 1.8 46.66 5.5
2017 10 31 12:00 263.5 0.0 0.00 36.2 2.3 45.65 5.3
2017 10 31 13:00 263.6 0.0 0.00 37.0 2.8 45.68 7.1
2017 10 31 14:00 264.1 0.0 0.00 36.9 2.7 47.03 7.6
2017 10 31 15:00 264.2 0.0 0.00 36.5 2.5 46.04 5.1
2017 10 31 16:00 264.2 0.0 0.00 36.6 2.6 46.36 3.7
2017 10 31 17:00 264.2 0.0 0.00 36.5 2.5 48.26 4.6
2017 10 31 18:00 264.2 0.0 0.00 35.3 1.8 54.64 3.9
2017 10 31 19:00 264.2 0.0 0.00 35.2 1.8 56.09 4.1
2017 10 31 20:00 264.9 0.0 0.00 35.0 1.7 57.91 1.3
2017 10 31 21:00 265.0 0.0 0.00 34.6 1.4 65.6 2.6
2017 10 31 22:00 265.0 0.0 0.00 34.3 1.3 66.43 2.9
2017 10 31 23:00 265.3 0.0 0.00 34.2 1.2 66.93 3.0
2017 10 31 24:00 265.0 0.0 0.00 34.4 1.3 64.44 4.8
2017 11 01 1:00 265.0 0.0 0.00 34.4 1.3 63.57 4.0
2017 11 01 2:00 265.0 0.0 0.00 34.5 1.4 64.94 3.7
2017 11 01 3:00 265.6 0.0 0.00 33.3 0.7 70.54 4.3
2017 11 01 4:00 265.9 0.0 0.00 31.7 -0.2 75.09 3.6
2017 11 01 5:00 266.2 0.0 0.00 32.3 0.2 76.98 4.1
2017 11 01 6:00 266.4 0.0 0.00 33.4 0.8 79 5.4
2017 11 01 7:00 266.3 0.0 0.00 35.2 1.8 83.2 7.8
2017 11 01 8:00 266.8 0.0 0.00 36.4 2.5 87.3 9.2
2017 11 01 9:00 266.9 0.0 0.00 38.0 3.3 86.7 10.6
2017 11 01 10:00 266.7 0.0 0.00 39.0 3.9 85.8 10.9
2017 11 01 11:00 266.2 0.0 0.00 40.7 4.8 83.6 10.3
2017 11 01 12:00 266.3 0.0 0.00 42.9 6.0 80.8 11.6
2017 11 01 13:00 266.1 0.0 0.00 44.8 7.1 79.25 9.9
2017 11 01 14:00 266.2 0.0 0.00 45.5 7.5 78.67 9.7
2017 11 01 15:00 270.3 0.0 0.00 44.3 6.8 87.1 11.2
2017 11 01 16:00 Wet 341.4 0.0 0.00 43.2 6.2 96.8 8.9
2017 11 01 17:00 Wet 330.2 0.0 0.00 43.1 6.2 98.5 8.7
2017 11 01 18:00 Wet 318.3 0.0 0.00 43.7 6.5 99 6.5
2017 11 01 19:00 Wet 328.7 0.0 0.00 44.3 6.8 99.6 7.0
2017 11 01 20:00 Wet 317.1 0.0 0.00 45.0 7.2 99.9 7.1
2017 11 01 21:00 Wet 303.5 0.0 0.00 45.7 7.6 99.9 6.4
2017 11 01 22:00 Wet 292.5 0.0 0.00 46.3 7.9 100 5.2
2017 11 01 23:00 Wet 284.4 0.0 0.00 47.1 8.4 100 4.5
2017 11 01 24:00 Wet 288.3 0.0 0.00 47.4 8.6 99.9 0.7
2017 11 02 1:00 Wet 288.6 0.0 0.00 47.4 8.5 99.9 2.7
2017 11 02 2:00 281.0 0.0 0.00 47.4 8.6 99.9 3.6
2017 11 02 3:00 279.4 0.0 0.00 47.6 8.7 99.9 3.8
2017 11 02 4:00 Wet 303.6 0.0 0.00 47.6 8.7 99.9 3.6
2017 11 02 5:00 Wet 315.1 0.0 0.00 47.7 8.7 99.9 2.9
2017 11 02 6:00 Wet 314.5 0.0 0.00 47.7 8.7 99.9 3.8
2017 11 02 7:00 Wet 308.3 0.0 0.00 47.9 8.8 100 4.0
2017 11 02 8:00 Wet 305.9 0.0 0.00 48.0 8.9 100 5.4
2017 11 02 9:00 Wet 294.2 0.0 0.00 48.4 9.1 100 5.2
2017 11 02 10:00 283.4 0.0 0.00 48.6 9.2 100 5.4
2017 11 02 11:00 276.3 0.0 0.00 49.4 9.7 100 5.6
2017 11 02 12:00 271.0 0.0 0.00 49.7 9.8 100 6.6
2017 11 02 13:00 270.2 0.0 0.00 49.7 9.8 99.9 7.4
2017 11 02 14:00 270.8 0.0 0.00 48.7 9.3 99.9 8.7
2017 11 02 15:00 270.2 0.0 0.00 47.9 8.9 98 8.0
2017 11 02 16:00 269.0 0.0 0.00 48.7 9.3 92.9 6.0
2017 11 02 17:00 268.7 0.0 0.00 49.3 9.6 88.7 5.6
2017 11 02 18:00 268.7 0.0 0.00 49.5 9.7 85.7 4.8
2017 11 02 19:00 268.2 0.0 0.00 49.9 9.9 82.4 5.5
2017 11 02 20:00 268.0 0.0 0.00 49.3 9.6 82.1 5.0
2017 11 02 21:00 268.4 0.0 0.00 48.3 9.0 82.6 6.8
2017 11 02 22:00 268.0 0.0 0.00 46.6 8.1 76.64 9.5
2017 11 02 23:00 268.1 0.0 0.00 43.8 6.6 79.6 9.2
2017 11 02 24:00 268.1 0.0 0.00 40.8 4.9 84.3 8.5
2017 11 03 1:00 268.7 0.0 0.00 38.8 3.8 86.8 7.3
2017 11 03 2:00 269.4 0.0 0.00 37.3 2.9 89 6.1
2017 11 03 3:00 269.8 0.0 0.00 35.9 2.2 89.3 5.2
2017 11 03 4:00 269.7 0.0 0.00 35.0 1.7 88.6 5.1
2017 11 03 5:00 269.7 0.0 0.00 34.2 1.2 89.3 5.4
2017 11 03 6:00 269.7 0.0 0.00 33.6 0.9 89.7 6.1
2017 11 03 7:00 270.1 0.0 0.00 32.7 0.4 91.2 5.9
2017 11 03 8:00 269.0 0.0 0.00 33.7 0.9 89.5 7.1
2017 11 03 9:00 268.2 0.0 0.00 37.3 3.0 82.6 9.1
2017 11 03 10:00 267.5 0.0 0.00 41.1 5.1 74.03 11.5
2017 11 03 11:00 266.4 0.0 0.00 44.2 6.8 68.18 12.1
2017 11 03 12:00 265.6 0.0 0.00 46.8 8.2 64.58 11.2
2017 11 03 13:00 264.8 0.0 0.00 49.3 9.6 59.67 10.5
2017 11 03 14:00 264.2 0.0 0.00 51.3 10.7 55.63 10.3
2017 11 03 15:00 263.8 0.0 0.00 52.7 11.5 53.09 9.4
2017 11 03 16:00 263.8 0.0 0.00 52.5 11.4 55.14 9.9
2017 11 03 17:00 264.9 0.0 0.00 50.3 10.2 60.63 8.4
2017 11 03 18:00 265.9 0.0 0.00 47.5 8.6 66.8 6.2
2017 11 03 19:00 266.0 0.0 0.00 48.4 9.1 63.96 9.0
2017 11 03 20:00 266.0 0.0 0.00 48.6 9.2 65.12 9.8
2017 11 03 21:00 266.0 0.0 0.00 49.2 9.6 66.64 10.0
2017 11 03 22:00 266.0 0.0 0.00 49.4 9.7 69.39 10.4
2017 11 03 23:00 Wet 290.8 0.0 0.51 49.2 9.6 76.51 7.4
2017 11 03 24:00 281.5 0.0 0.00 47.9 8.8 87.8 6.2
2017 11 04 1:00 268.0 0.0 0.00 47.5 8.6 90 5.6
2017 11 04 2:00 268.0 0.0 0.00 47.4 8.6 90.4 5.4
2017 11 04 3:00 268.0 0.0 0.00 47.5 8.6 91.1 7.3
2017 11 04 4:00 268.1 0.0 0.00 48.0 8.9 91 4.7
2017 11 04 5:00 268.6 0.0 0.00 48.1 8.9 91.8 3.9
2017 11 04 6:00 271.8 0.0 0.00 47.9 8.8 93.3 3.3
2017 11 04 7:00 Wet 316.7 0.0 0.00 47.6 8.6 96.9 1.7
2017 11 04 8:00 Wet 300.5 0.0 0.00 47.9 8.8 98.7 2.5
2017 11 04 9:00 274.3 0.0 0.00 51.0 10.6 94.5 6.4
2017 11 04 10:00 268.2 0.0 0.00 52.1 11.2 88.3 7.9
2017 11 04 11:00 267.9 0.0 0.00 52.6 11.4 84.6 8.1
2017 11 04 12:00 267.3 0.0 0.00 52.9 11.6 82.1 8.0
2017 11 04 13:00 267.2 0.0 0.00 52.5 11.4 81 7.8
2017 11 04 14:00 267.0 0.0 0.00 52.8 11.6 79.73 5.9
2017 11 04 15:00 266.5 0.0 0.00 53.4 11.9 77.85 6.2
2017 11 04 16:00 266.4 0.0 0.00 53.2 11.8 77.7 5.9
2017 11 04 17:00 267.1 0.0 0.00 52.2 11.2 80.3 4.6
2017 11 04 18:00 267.5 0.0 0.00 51.2 10.7 83.5 4.1
2017 11 04 19:00 268.4 0.0 0.00 49.3 9.6 87.8 3.6
2017 11 04 20:00 Wet 285.7 0.0 0.00 47.1 8.4 92.5 2.4
2017 11 04 21:00 281.4 0.0 0.00 47.1 8.4 95.6 2.6
2017 11 04 22:00 269.4 0.0 0.00 48.2 9.0 94.2 3.0
2017 11 04 23:00 269.4 0.0 0.00 48.6 9.2 93.6 1.6
2017 11 04 24:00 269.4 0.0 0.00 48.4 9.1 94.3 2.0
2017 11 05 1:00 272.9 0.0 0.00 47.8 8.8 94.7 2.9
2017 11 05 2:00 274.1 0.0 0.00 47.0 8.3 96.8 2.0
2017 11 05 3:00 270.3 0.0 0.00 47.6 8.7 97.2 2.3
2017 11 05 4:00 269.4 0.0 0.00 48.3 9.1 96.1 1.7
2017 11 05 5:00 269.5 0.0 0.00 49.0 9.4 95.6 3.2
2017 11 05 6:00 269.4 0.0 0.00 49.4 9.7 94.6 2.1
2017 11 05 7:00 269.4 0.0 0.00 49.4 9.7 94.7 4.3
2017 11 05 8:00 277.0 0.0 0.00 49.2 9.6 94.7 4.4
2017 11 05 9:00 277.7 0.0 0.00 49.4 9.7 93.8 5.1
2017 11 05 10:00 Wet 290.1 0.0 0.00 49.5 9.7 94.4 6.0
2017 11 05 11:00 Wet 294.5 0.0 0.00 49.6 9.8 93.8 6.6
2017 11 05 12:00 269.6 0.0 0.00 49.4 9.7 92.6 7.9
2017 11 05 13:00 Wet 307.9 0.0 0.25 49.0 9.4 93.6 7.1
2017 11 05 14:00 Wet 290.9 0.0 0.00 49.3 9.6 92.1 6.8
2017 11 05 15:00 274.3 0.0 0.00 50.2 10.1 91.3 6.6
2017 11 05 16:00 268.2 0.0 0.00 51.1 10.6 82 9.7
2017 11 05 17:00 268.0 0.0 0.00 49.3 9.6 82 12.0
2017 11 05 18:00 268.5 0.0 0.00 46.2 7.9 85.4 10.4
2017 11 05 19:00 268.4 0.0 0.00 44.2 6.8 83.3 10.0
2017 11 05 20:00 268.5 0.0 0.00 40.7 4.9 84.5 7.6
2017 11 05 21:00 268.8 0.0 0.00 39.1 4.0 85.3 8.7
2017 11 05 22:00 268.3 0.0 0.00 36.5 2.5 81.6 10.4
2017 11 05 23:00 268.9 0.0 0.00 33.5 0.8 86 8.9
2017 11 05 24:00 268.8 0.0 0.00 31.9 -0.1 87.1 8.3
2017 11 06 1:00 268.4 0.0 0.00 30.9 -0.6 84.3 7.2
2017 11 06 2:00 268.6 0.0 0.00 29.5 -1.4 85.3 7.1
2017 11 06 3:00 269.2 0.0 0.00 28.4 -2.0 87.4 6.5
2017 11 06 4:00 269.2 0.0 0.00 27.8 -2.3 88 6.3
2017 11 06 5:00 269.2 0.0 0.00 27.3 -2.6 88.8 6.0
2017 11 06 6:00 269.2 0.0 0.00 27.2 -2.7 88.8 4.3
2017 11 06 7:00 269.0 0.0 0.00 27.7 -2.4 89.3 5.8
2017 11 06 8:00 268.5 0.0 0.00 28.5 -2.0 88.6 5.8
2017 11 06 9:00 268.5 0.0 0.00 29.6 -1.3 85.8 7.7
2017 11 06 10:00 268.3 0.0 0.00 30.8 -0.7 84.5 7.7
2017 11 06 11:00 267.7 0.0 0.00 32.3 0.2 81.8 9.1
2017 11 06 12:00 267.4 0.0 0.00 34.6 1.4 78.91 9.3
2017 11 06 13:00 266.2 0.0 0.00 38.3 3.5 72.44 8.5
2017 11 06 14:00 265.4 0.0 0.00 40.6 4.8 66.55 9.6
2017 11 06 15:00 265.7 0.0 0.00 41.3 5.2 62.68 9.2
2017 11 06 16:00 265.8 0.0 0.00 41.1 5.1 59.98 9.8
2017 11 06 17:00 266.2 0.0 0.00 39.5 4.2 61.97 8.1
2017 11 06 18:00 266.8 0.0 0.00 37.8 3.2 69.65 4.5
2017 11 06 19:00 267.3 0.0 0.00 35.8 2.1 73.32 4.4
2017 11 06 20:00 267.6 0.0 0.00 35.5 2.0 75.17 5.7
2017 11 06 21:00 267.5 0.0 0.00 35.9 2.2 76.04 6.7
2017 11 06 22:00 267.6 0.0 0.00 35.1 1.7 76.69 6.6
2017 11 06 23:00 267.7 0.0 0.00 34.4 1.3 79.21 4.4
2017 11 06 24:00 267.7 0.0 0.00 34.6 1.5 77.94 5.5
2017 11 07 1:00 267.7 0.0 0.00 34.9 1.6 76.26 7.7
2017 11 07 2:00 267.3 0.0 0.00 35.6 2.0 75.47 7.5
2017 11 07 3:00 267.2 0.0 0.00 36.3 2.4 75.15 8.0
2017 11 07 4:00 266.9 0.0 0.00 36.3 2.4 73.78 7.5
2017 11 07 5:00 266.9 0.0 0.00 35.8 2.1 73.29 7.7
2017 11 07 6:00 266.9 0.0 0.00 35.3 1.8 71.8 9.0
2017 11 07 7:00 267.0 0.0 0.00 33.0 0.5 74.62 7.8
2017 11 07 8:00 267.0 0.0 0.00 32.2 0.1 75.44 7.3
2017 11 07 9:00 267.0 0.0 0.00 33.8 1.0 71.01 8.3
2017 11 07 10:00 266.6 0.0 0.00 36.2 2.3 66.27 10.0
2017 11 07 11:00 266.2 0.0 0.00 38.4 3.6 64.27 10.3
2017 11 07 12:00 266.0 0.0 0.00 40.9 4.9 63.39 10.3
2017 11 07 13:00 265.9 0.0 0.00 42.5 5.8 61.58 9.4
2017 11 07 14:00 265.5 0.0 0.00 42.7 6.0 59.56 9.1
2017 11 07 15:00 264.7 0.0 0.00 44.0 6.7 54.66 9.4
2017 11 07 16:00 265.1 0.0 0.00 43.1 6.1 50.26 9.3
2017 11 07 17:00 265.4 0.0 0.00 41.6 5.3 51.45 6.5
2017 11 07 18:00 266.0 0.0 0.00 40.1 4.5 59.71 4.0
2017 11 07 19:00 266.2 0.0 0.00 38.0 3.4 63.95 4.6
2017 11 07 20:00 266.3 0.0 0.00 36.8 2.7 63.87 5.0
2017 11 07 21:00 266.3 0.0 0.00 37.0 2.8 61.2 5.3
2017 11 07 22:00 266.3 0.0 0.00 36.3 2.4 61.25 4.8
2017 11 07 23:00 266.6 0.0 0.00 33.8 1.0 65.41 4.1
2017 11 07 24:00 267.0 0.0 0.00 31.7 -0.2 69.94 4.6
2017 11 08 1:00 267.1 0.0 0.00 30.4 -0.9 72.15 3.5
2017 11 08 2:00 267.2 0.0 0.00 29.2 -1.5 75.28 4.2
2017 11 08 3:00 268.3 0.0 0.00 28.2 -2.1 77.71 2.4
2017 11 08 4:00 269.1 0.0 0.00 26.7 -2.9 82 3.0
2017 11 08 5:00 269.3 0.0 0.00 25.4 -3.7 85.1 3.4
2017 11 08 6:00 270.0 0.0 0.00 25.0 -3.9 85.5 4.1
2017 11 08 7:00 270.6 0.0 0.00 24.5 -4.1 87.6 2.3
2017 11 08 8:00 271.8 0.0 0.00 26.5 -3.1 87.6 1.5
2017 11 08 9:00 268.5 0.0 0.00 32.6 0.3 75.57 3.6
2017 11 08 10:00 266.7 0.0 0.00 38.2 3.5 63.34 4.9
2017 11 08 11:00 264.5 0.0 0.00 42.2 5.7 50.89 4.3
2017 11 08 12:00 263.5 0.0 0.00 44.8 7.1 45.52 3.4
2017 11 08 13:00 262.1 0.0 0.00 46.0 7.8 41.89 3.3
2017 11 08 14:00 261.5 0.0 0.00 47.6 8.7 39.04 2.7
2017 11 08 15:00 260.9 0.0 0.00 48.3 9.1 37.87 2.3
2017 11 08 16:00 260.7 0.0 0.00 48.8 9.4 36.84 1.7
2017 11 08 17:00 262.5 0.0 0.00 46.3 7.9 41.77 2.2
2017 11 08 18:00 264.7 0.0 0.00 40.6 4.8 52.35 1.5
2017 11 08 19:00 266.9 0.0 0.00 36.0 2.2 71.64 0.8
2017 11 08 20:00 277.7 0.0 0.00 32.5 0.3 83.4 0.2
2017 11 08 21:00 271.0 0.0 0.00 31.7 -0.2 72.44 1.4
2017 11 08 22:00 268.6 0.0 0.00 30.7 -0.7 79.83 1.3
2017 11 08 23:00 269.1 0.0 0.00 29.6 -1.4 77.14 2.8
2017 11 08 24:00 267.6 0.0 0.00 31.3 -0.4 72.59 3.9
2017 11 09 1:00 267.2 0.0 0.00 31.7 -0.2 71.01 3.5
2017 11 09 2:00 267.2 0.0 0.00 32.0 0.0 72.44 4.4
2017 11 09 3:00 267.3 0.0 0.00 31.9 -0.1 74.4 4.8
2017 11 09 4:00 267.2 0.0 0.00 33.7 0.9 72.69 6.9
2017 11 09 5:00 267.1 0.0 0.00 33.9 1.1 72.84 6.6
2017 11 09 6:00 267.0 0.0 0.00 34.7 1.5 72.25 7.4
2017 11 09 7:00 267.0 0.0 0.00 36.2 2.3 68.71 9.4
2017 11 09 8:00 267.0 0.0 0.00 36.0 2.2 71 8.3
2017 11 09 9:00 266.5 0.0 0.00 39.0 3.9 65.65 9.5
2017 11 09 10:00 266.1 0.0 0.00 41.9 5.5 59.94 12.0
2017 11 09 11:00 265.0 0.0 0.00 42.5 5.8 56.5 12.2
2017 11 09 12:00 264.1 0.0 0.00 43.0 6.1 52.45 11.9
2017 11 09 13:00 263.9 0.0 0.00 42.2 5.7 48.98 14.3
2017 11 09 14:00 263.5 0.0 0.00 40.9 4.9 47.74 13.7
2017 11 09 15:00 262.9 0.0 0.00 40.9 5.0 43.5 12.6
2017 11 09 16:00 262.7 0.0 0.00 40.1 4.5 40.48 10.2
2017 11 09 17:00 263.9 0.0 0.00 36.6 2.6 45.37 10.8
2017 11 09 18:00 264.8 0.0 0.00 32.1 0.1 45.79 8.6
2017 11 09 19:00 265.0 0.0 0.00 30.3 -0.9 45.28 6.9
2017 11 09 20:00 265.1 0.0 0.00 28.4 -2.0 46.35 7.3
2017 11 09 21:00 265.1 0.0 0.00 26.4 -3.1 49.64 6.3
2017 11 09 22:00 265.1 0.0 0.00 24.9 -4.0 51.29 6.3
2017 11 09 23:00 265.2 0.0 0.00 24.1 -4.4 51.81 6.6
2017 11 09 24:00 265.2 0.0 0.00 23.1 -4.9 54.18 5.8
2017 11 10 1:00 265.2 0.0 0.00 22.8 -5.1 55.42 6.8
2017 11 10 2:00 265.2 0.0 0.00 21.9 -5.6 57.14 6.0
2017 11 10 3:00 265.8 0.0 0.00 20.2 -6.5 62.63 4.9
2017 11 10 4:00 266.0 0.0 0.00 19.2 -7.1 65.59 6.5
2017 11 10 5:00 266.0 0.0 0.00 18.7 -7.4 66.38 5.9
2017 11 10 6:00 266.0 0.0 0.00 17.7 -7.9 70.69 5.2
2017 11 10 7:00 266.2 0.0 0.00 17.6 -8.0 72.96 4.5
2017 11 10 8:00 266.1 0.0 0.00 19.1 -7.2 70.01 7.0
2017 11 10 9:00 265.9 0.0 0.00 22.1 -5.5 61.94 10.5
2017 11 10 10:00 265.4 0.0 0.00 25.0 -3.9 56.27 10.2
2017 11 10 11:00 264.6 0.0 0.00 27.7 -2.4 50.04 10.2
2017 11 10 12:00 264.0 0.0 0.00 29.9 -1.2 45.85 8.8
2017 11 10 13:00 263.2 0.0 0.00 32.3 0.2 42.31 8.5
2017 11 10 14:00 262.8 0.0 0.00 33.6 0.9 36.4 8.6
2017 11 10 15:00 262.6 0.0 0.00 34.5 1.4 30.29 8.4
2017 11 10 16:00 263.0 0.0 0.00 34.3 1.3 31.01 9.2
2017 11 10 17:00 264.1 0.0 0.00 33.6 0.9 37.92 8.6
2017 11 10 18:00 264.3 0.0 0.00 33.4 0.8 41.39 9.1
2017 11 10 19:00 264.3 0.0 0.00 33.4 0.8 43.91 8.4
2017 11 10 20:00 264.3 0.0 0.00 33.3 0.7 45.71 8.9
2017 11 10 21:00 264.3 0.0 0.00 33.3 0.7 47.04 9.7
2017 11 10 22:00 264.3 0.0 0.00 33.1 0.6 50.29 9.3
2017 11 10 23:00 264.4 0.0 0.00 33.1 0.6 51.67 9.1
2017 11 10 24:00 264.9 0.0 0.00 33.2 0.7 52.53 8.3
2017 11 11 1:00 265.0 0.0 0.00 33.2 0.7 53.91 7.7
2017 11 11 2:00 265.0 0.0 0.00 33.2 0.7 55.2 6.8
2017 11 11 3:00 265.0 0.0 0.00 33.6 0.9 55.31 7.2
2017 11 11 4:00 265.0 0.0 0.00 34.3 1.3 55.2 9.1
2017 11 11 5:00 265.0 0.0 0.00 34.3 1.3 55.34 9.0
2017 11 11 6:00 265.0 0.0 0.00 33.2 0.7 57.49 8.8
2017 11 11 7:00 265.0 0.0 0.00 32.9 0.5 58.74 8.0
2017 11 11 8:00 265.0 0.0 0.00 33.2 0.7 59.91 8.9
2017 11 11 9:00 265.0 0.0 0.00 34.5 1.4 59.19 9.4
2017 11 11 10:00 264.9 0.0 0.00 36.6 2.6 56.11 10.6
2017 11 11 11:00 264.2 0.0 0.00 40.8 4.9 50.52 10.0
2017 11 11 12:00 263.9 0.0 0.00 44.6 7.0 46.12 9.2
2017 11 11 13:00 263.9 0.0 0.00 46.7 8.2 44.36 9.3
2017 11 11 14:00 263.8 0.0 0.00 48.5 9.2 42.71 9.1
2017 11 11 15:00 263.2 0.0 0.00 49.0 9.4 41.99 7.3
2017 11 11 16:00 263.9 0.0 0.00 48.3 9.1 42.76 6.3
2017 11 11 17:00 264.0 0.0 0.00 47.8 8.8 43.67 6.0
2017 11 11 18:00 264.3 0.0 0.00 46.4 8.0 48.02 5.4
2017 11 11 19:00 264.7 0.0 0.00 43.8 6.5 60.1 6.8
2017 11 11 20:00 264.8 0.0 0.00 44.3 6.8 54.65 4.8
2017 11 11 21:00 264.7 0.0 0.00 44.6 7.0 52.17 5.1
2017 11 11 22:00 264.7 0.0 0.00 44.3 6.9 50.96 7.2
2017 11 11 23:00 264.7 0.0 0.00 43.1 6.2 57.86 5.8
2017 11 11 24:00 272.2 0.0 0.00 41.9 5.5 64.83 5.2
2017 11 12 1:00 Wet 326.9 0.0 0.25 40.2 4.6 79.7 2.8
2017 11 12 2:00 Wet 290.4 0.0 0.00 39.6 4.2 84.6 3.0
2017 11 12 3:00 282.0 0.0 0.00 39.6 4.2 87.7 2.4
2017 11 12 4:00 Wet 297.8 0.0 0.00 39.4 4.1 92.5 1.8
2017 11 12 5:00 Wet 350.7 0.0 0.25 38.7 3.7 97.4 3.0
2017 11 12 6:00 Wet 327.9 0.0 0.25 38.7 3.7 99.1 2.2
2017 11 12 7:00 Wet 369.7 0.0 0.25 38.9 3.8 99.2 2.5
2017 11 12 8:00 Wet 313.1 0.0 0.00 38.9 3.9 99.4 6.2
2017 11 12 9:00 282.0 0.0 0.00 39.8 4.3 97.5 6.0
2017 11 12 10:00 269.4 0.0 0.00 41.4 5.2 94.7 6.2
2017 11 12 11:00 268.2 0.0 0.00 42.1 5.6 93.7 7.1
2017 11 12 12:00 268.1 0.0 0.00 42.7 6.0 91.6 8.8
2017 11 12 13:00 267.5 0.0 0.00 43.8 6.6 87.2 7.8
2017 11 12 14:00 267.4 0.0 0.00 43.8 6.5 84.7 9.0
2017 11 12 15:00 267.4 0.0 0.00 43.4 6.3 83.5 8.7
2017 11 12 16:00 267.4 0.0 0.00 43.0 6.1 84.6 8.0
2017 11 12 17:00 267.8 0.0 0.00 42.7 5.9 85.1 6.3
2017 11 12 18:00 268.1 0.0 0.00 42.2 5.7 85.5 6.2
2017 11 12 19:00 268.2 0.0 0.00 41.7 5.4 85.6 5.1
2017 11 12 20:00 268.2 0.0 0.00 41.0 5.0 86.4 4.4
2017 11 12 21:00 268.2 0.0 0.00 40.4 4.7 88 4.4
2017 11 12 22:00 268.2 0.0 0.00 39.7 4.3 86.3 4.1
2017 11 12 23:00 268.2 0.0 0.00 39.6 4.2 84.8 2.7
2017 11 12 24:00 268.2 0.0 0.00 39.5 4.2 85.1 2.5
2017 11 13 1:00 268.1 0.0 0.00 39.3 4.1 83.6 2.1
2017 11 13 2:00 268.2 0.0 0.00 38.8 3.8 85.3 2.5
2017 11 13 3:00 268.2 0.0 0.00 38.6 3.7 85.1 3.2
2017 11 13 4:00 268.2 0.0 0.00 38.5 3.6 86.3 3.6
2017 11 13 5:00 268.2 0.0 0.00 38.6 3.7 86.6 3.9
2017 11 13 6:00 268.2 0.0 0.00 38.7 3.7 86.3 4.1
2017 11 13 7:00 268.2 0.0 0.00 38.9 3.9 86 5.2
2017 11 13 8:00 268.2 0.0 0.00 39.2 4.0 85.5 6.3
2017 11 13 9:00 267.9 0.0 0.00 39.7 4.3 84.5 7.3
2017 11 13 10:00 267.5 0.0 0.00 40.8 4.9 82.4 8.0
2017 11 13 11:00 266.5 0.0 0.00 43.4 6.3 75.87 8.4
2017 11 13 12:00 265.5 0.0 0.00 46.0 7.8 69.68 7.6
2017 11 13 13:00 264.8 0.0 0.00 48.1 9.0 64.5 7.3
2017 11 13 14:00 264.2 0.0 0.00 49.8 9.9 59.17 8.3
2017 11 13 15:00 264.5 0.0 0.00 49.8 9.9 57.93 8.2
2017 11 13 16:00 265.2 0.0 0.00 49.1 9.5 59.42 7.8
2017 11 13 17:00 265.6 0.0 0.00 48.2 9.0 61.07 5.3
2017 11 13 18:00 266.0 0.0 0.00 46.4 8.0 66.61 4.8
2017 11 13 19:00 266.2 0.0 0.00 45.6 7.6 69.12 6.3
2017 11 13 20:00 266.8 0.0 0.00 43.4 6.4 73.81 6.1
2017 11 13 21:00 266.8 0.0 0.00 42.5 5.9 74.73 5.7
2017 11 13 22:00 266.8 0.0 0.00 41.7 5.4 75.35 6.8
2017 11 13 23:00 266.8 0.0 0.00 42.2 5.7 74.63 6.7
2017 11 13 24:00 266.8 0.0 0.00 42.5 5.9 74.22 6.6
2017 11 14 1:00 266.8 0.0 0.00 42.7 6.0 74.27 6.8
2017 11 14 2:00 266.8 0.0 0.00 43.2 6.2 73.42 8.5
2017 11 14 3:00 266.8 0.0 0.00 43.5 6.4 73.42 8.3
2017 11 14 4:00 270.6 0.0 0.00 43.6 6.4 75.06 8.1
2017 11 14 5:00 272.5 0.0 0.00 43.8 6.6 76.36 7.7
2017 11 14 6:00 267.2 0.0 0.00 44.0 6.7 76.04 7.4
2017 11 14 7:00 266.8 0.0 0.00 44.5 7.0 73.38 8.1
2017 11 14 8:00 274.4 0.0 0.00 44.9 7.1 73.04 8.8
2017 11 14 9:00 270.3 0.0 0.00 44.2 6.8 79.77 9.8
2017 11 14 10:00 268.3 0.0 0.00 44.6 7.0 81.3 10.9
2017 11 14 11:00 Wet 301.7 0.0 0.00 43.9 6.6 94 11.0
2017 11 14 12:00 Wet 319.3 0.0 0.00 44.6 7.0 96.6 9.8
2017 11 14 13:00 Wet 367.7 0.0 0.00 45.7 7.6 97.9 10.9
2017 11 14 14:00 Wet 343.8 0.0 0.00 46.3 7.9 98.4 9.9
2017 11 14 15:00 Wet 349.9 0.0 0.00 46.9 8.3 99 9.3
2017 11 14 16:00 Wet 348.0 0.0 0.00 47.4 8.6 98.2 7.8
2017 11 14 17:00 Wet 348.1 0.0 0.00 47.5 8.6 97.7 8.6
2017 11 14 18:00 Wet 311.8 0.0 0.00 47.5 8.6 97.6 10.4
2017 11 14 19:00 278.5 0.0 0.00 48.3 9.1 94.5 12.3
2017 11 14 20:00 271.4 0.0 0.00 48.2 9.0 94.9 12.1
2017 11 14 21:00 269.4 0.0 0.00 48.4 9.1 92.6 10.4
2017 11 14 22:00 269.0 0.0 0.00 48.8 9.3 90 10.7
2017 11 14 23:00 268.7 0.0 0.00 49.1 9.5 88.1 10.2
2017 11 14 24:00 268.7 0.0 0.00 49.1 9.5 89.6 9.0
2017 11 15 1:00 Wet 297.7 0.0 0.00 49.2 9.6 93 8.3
2017 11 15 2:00 271.3 0.0 0.00 49.3 9.6 93.8 5.8
2017 11 15 3:00 Wet 394.9 0.1 2.54 48.9 9.4 97.2 5.4
2017 11 15 4:00 Wet 456.7 0.1 2.54 48.5 9.2 100 5.4
2017 11 15 5:00 Wet 405.4 0.0 0.25 48.9 9.4 100 5.3
2017 11 15 6:00 Wet 392.8 0.0 0.51 49.6 9.8 100 6.8
2017 11 15 7:00 Wet 377.0 0.0 0.00 50.0 10.0 99.9 8.2
2017 11 15 8:00 Wet 319.9 0.0 0.25 51.2 10.7 98.3 9.2
2017 11 15 9:00 279.5 0.0 0.00 50.3 10.2 88.5 14.9
2017 11 15 10:00 268.4 0.0 0.00 51.0 10.5 80.2 15.8
2017 11 15 11:00 266.8 0.0 0.00 52.8 11.6 65.86 15.9
2017 11 15 12:00 265.5 0.0 0.00 54.2 12.3 55.54 17.6
2017 11 15 13:00 264.5 0.0 0.00 55.3 12.9 49.04 16.4
2017 11 15 14:00 263.8 0.0 0.00 56.2 13.4 44.64 16.0
2017 11 15 15:00 263.7 0.0 0.00 55.9 13.3 43.12 14.9
2017 11 15 16:00 263.7 0.0 0.00 55.0 12.8 44.07 12.7
2017 11 15 17:00 264.1 0.0 0.00 52.1 11.2 49.22 10.0
2017 11 15 18:00 265.3 0.0 0.00 47.5 8.6 59.87 7.9
2017 11 15 19:00 266.0 0.0 0.00 44.9 7.2 65.83 8.3
2017 11 15 20:00 266.1 0.0 0.00 43.2 6.2 63.73 11.8
2017 11 15 21:00 266.1 0.0 0.00 39.2 4.0 67.47 11.7
2017 11 15 22:00 266.2 0.0 0.00 36.2 2.4 71.02 10.8
2017 11 15 23:00 266.7 0.0 0.00 33.7 1.0 74.98 9.2
2017 11 15 24:00 267.3 0.0 0.00 31.1 -0.5 78.59 7.1
2017 11 16 1:00 267.1 0.0 0.00 30.2 -1.0 75.34 7.9
2017 11 16 2:00 267.4 0.0 0.00 28.9 -1.7 80.5 6.6
2017 11 16 3:00 268.9 0.0 0.00 26.9 -2.8 85.4 5.1
2017 11 16 4:00 269.6 0.0 0.00 25.7 -3.5 87.2 3.6
2017 11 16 5:00 271.3 0.0 0.00 25.6 -3.6 87.5 1.9
2017 11 16 6:00 273.2 0.0 0.00 24.5 -4.2 90.3 2.8
2017 11 16 7:00 274.8 0.0 0.00 23.4 -4.8 91.7 2.9
2017 11 16 8:00 275.6 0.0 0.00 24.5 -4.2 89.6 3.0
2017 11 16 9:00 273.2 0.0 0.00 27.7 -2.4 82 4.4
2017 11 16 10:00 267.9 0.0 0.00 30.3 -0.9 75.77 3.5
2017 11 16 11:00 265.3 0.0 0.00 34.4 1.3 68.29 2.7
2017 11 16 12:00 264.3 0.0 0.00 37.6 3.1 62.81 3.8
2017 11 16 13:00 264.0 0.0 0.00 41.0 5.0 56.88 4.8
2017 11 16 14:00 263.6 0.0 0.00 43.2 6.2 51.97 6.2
2017 11 16 15:00 263.1 0.0 0.00 44.5 6.9 50.92 6.1
2017 11 16 16:00 263.5 0.0 0.00 44.7 7.0 51.11 6.4
2017 11 16 17:00 264.8 0.0 0.00 41.8 5.4 57.97 6.0
2017 11 16 18:00 265.8 0.0 0.00 38.1 3.4 66.4 5.4
2017 11 16 19:00 266.3 0.0 0.00 36.0 2.2 71.2 5.0
2017 11 16 20:00 267.0 0.0 0.00 35.3 1.8 73.31 5.8
2017 11 16 21:00 267.0 0.0 0.00 34.9 1.6 75.48 6.8
2017 11 16 22:00 267.0 0.0 0.00 34.8 1.5 77.32 8.1
2017 11 16 23:00 267.0 0.0 0.00 35.7 2.0 75.58 9.4
2017 11 16 24:00 267.0 0.0 0.00 35.3 1.8 78.12 10.0
2017 11 17 1:00 267.0 0.0 0.00 35.7 2.1 79.61 9.7
2017 11 17 2:00 266.9 0.0 0.00 36.4 2.4 80.1 9.6
2017 11 17 3:00 266.9 0.0 0.00 37.2 2.9 80 9.3
2017 11 17 4:00 266.9 0.0 0.00 37.8 3.2 79.98 9.6
2017 11 17 5:00 267.2 0.0 0.00 38.9 3.8 78.41 11.6
2017 11 17 6:00 282.2 0.0 0.00 39.4 4.1 81.6 10.9
2017 11 17 7:00 267.5 0.0 0.00 39.9 4.4 80.5 10.6
2017 11 17 8:00 267.5 0.0 0.00 40.7 4.8 80.1 11.0
2017 11 17 9:00 267.5 0.0 0.00 42.5 5.9 79.22 10.5
2017 11 17 10:00 266.9 0.0 0.00 44.7 7.1 77.64 12.9
2017 11 17 11:00 266.8 0.0 0.00 46.5 8.1 76.59 13.2
2017 11 17 12:00 266.7 0.0 0.00 49.0 9.4 74.85 14.1
2017 11 17 13:00 267.5 0.0 0.00 51.5 10.8 74.27 13.1
2017 11 17 14:00 271.3 0.0 0.00 52.0 11.1 82.2 11.8
2017 11 17 15:00 268.4 0.0 0.00 53.3 11.8 80.3 11.9
2017 11 17 16:00 267.4 0.0 0.00 54.3 12.4 79.89 9.8
2017 11 17 17:00 267.2 0.0 0.00 55.7 13.2 78.9 9.0
2017 11 17 18:00 267.4 0.0 0.00 56.4 13.6 79.86 8.7
2017 11 17 19:00 267.8 0.0 0.00 56.8 13.8 81.9 7.1
2017 11 17 20:00 267.8 0.0 0.00 56.4 13.6 84.8 5.6
2017 11 17 21:00 267.9 0.0 0.00 56.4 13.6 86.7 4.8
2017 11 17 22:00 268.5 0.0 0.00 56.4 13.6 88.6 3.8
2017 11 17 23:00 268.6 0.0 0.00 56.6 13.7 90 3.4
2017 11 17 24:00 274.8 0.0 0.00 55.5 13.0 93.7 3.4
2017 11 18 1:00 Wet 309.3 0.0 0.00 53.4 11.9 98.3 4.7
2017 11 18 2:00 Wet 295.6 0.0 0.00 53.5 11.9 97.6 5.4
2017 11 18 3:00 Wet 287.0 0.0 0.00 51.9 11.1 94.6 6.6
2017 11 18 4:00 Wet 362.9 0.0 0.76 50.8 10.4 98.3 9.5
2017 11 18 5:00 Wet 354.1 0.1 1.27 48.1 8.9 98.2 12.1
2017 11 18 6:00 Wet 372.5 0.2 3.81 45.7 7.6 98.3 11.7
2017 11 18 7:00 Wet 459.8 0.7 16.76 43.3 6.3 98.2 14.2
2017 11 18 8:00 Wet 384.8 0.1 2.29 41.5 5.3 96.8 16.6
2017 11 18 9:00 Wet 340.9 0.0 0.51 40.4 4.7 94.6 18.0
2017 11 18 10:00 Wet 372.6 0.1 2.29 39.4 4.1 94.5 18.7
2017 11 18 11:00 Wet 358.3 0.0 1.02 39.2 4.0 94.8 18.9
2017 11 18 12:00 Wet 313.6 0.0 0.25 40.1 4.5 93.4 18.0
2017 11 18 13:00 269.0 0.0 0.00 40.5 4.7 90.4 18.4
2017 11 18 14:00 268.5 0.0 0.00 41.5 5.3 82.9 17.9
2017 11 18 15:00 267.7 0.0 0.00 42.7 6.0 70.67 18.3
2017 11 18 16:00 267.1 0.0 0.00 42.9 6.1 67.11 16.9
2017 11 18 17:00 266.8 0.0 0.00 42.3 5.7 66.1 14.2
2017 11 18 18:00 266.9 0.0 0.00 41.2 5.1 65.53 15.2
2017 11 18 19:00 266.9 0.0 0.00 40.4 4.7 67.08 17.6
2017 11 18 20:00 266.9 0.0 0.00 38.5 3.6 67.55 16.0
2017 11 18 21:00 266.9 0.0 0.00 37.0 2.8 65.52 18.8
2017 11 18 22:00 267.3 0.0 0.00 35.3 1.8 72.12 14.7
2017 11 18 23:00 267.0 0.0 0.00 34.3 1.3 68.69 15.0
2017 11 18 24:00 267.0 0.0 0.00 32.9 0.5 66.76 13.7
2017 11 19 1:00 267.0 0.0 0.00 31.5 -0.3 66.07 11.8
2017 11 19 2:00 267.1 0.0 0.00 30.6 -0.8 72.78 10.8
2017 11 19 3:00 267.1 0.0 0.00 29.8 -1.2 71.96 11.1
2017 11 19 4:00 267.1 0.0 0.00 28.8 -1.8 72.57 11.1
2017 11 19 5:00 267.4 0.0 0.00 27.7 -2.4 74.25 10.0
2017 11 19 6:00 267.5 0.0 0.00 26.7 -2.9 74.6 9.2
2017 11 19 7:00 267.7 0.0 0.00 25.8 -3.5 74.94 8.7
2017 11 19 8:00 267.7 0.0 0.00 25.5 -3.6 76.11 7.2
2017 11 19 9:00 267.1 0.0 0.00 27.6 -2.4 67.21 10.9
2017 11 19 10:00 266.7 0.0 0.00 30.1 -1.0 58.55 12.5
2017 11 19 11:00 265.7 0.0 0.00 32.9 0.5 53.94 10.4
2017 11 19 12:00 264.9 0.0 0.00 35.2 1.8 51.58 7.7
2017 11 19 13:00 264.2 0.0 0.00 38.1 3.4 49.35 7.1
2017 11 19 14:00 263.6 0.0 0.00 40.7 4.8 45.87 6.1
2017 11 19 15:00 263.3 0.0 0.00 42.4 5.8 45.04 7.7
2017 11 19 16:00 263.6 0.0 0.00 42.9 6.0 46.11 8.1
2017 11 19 17:00 264.5 0.0 0.00 40.7 4.8 52.61 6.9
2017 11 19 18:00 265.6 0.0 0.00 36.9 2.7 61.6 6.0
2017 11 19 19:00 266.3 0.0 0.00 34.5 1.4 67.63 4.7
2017 11 19 20:00 266.4 0.0 0.00 33.9 1.1 67.98 6.2
2017 11 19 21:00 266.4 0.0 0.00 34.3 1.3 67.64 6.9
2017 11 19 22:00 266.4 0.0 0.00 34.1 1.2 68.89 7.2
2017 11 19 23:00 266.7 0.0 0.00 33.3 0.7 71.2 6.5
2017 11 19 24:00 267.0 0.0 0.00 32.9 0.5 72.41 7.6
2017 11 20 1:00 267.1 0.0 0.00 33.1 0.6 73.8 7.6
2017 11 20 2:00 267.0 0.0 0.00 34.0 1.1 74.92 8.2
2017 11 20 3:00 267.0 0.0 0.00 36.6 2.6 71.27 9.2
2017 11 20 4:00 266.7 0.0 0.00 38.7 3.7 66.12 9.6
2017 11 20 5:00 266.3 0.0 0.00 39.4 4.1 63.59 10.3
2017 11 20 6:00 266.3 0.0 0.00 39.8 4.3 62.42 11.4
2017 11 20 7:00 266.2 0.0 0.00 40.2 4.5 60.91 11.4
2017 11 20 8:00 266.2 0.0 0.00 40.6 4.8 60.52 12.2
2017 11 20 9:00 265.6 0.0 0.00 44.1 6.7 54.62 14.1
2017 11 20 10:00 265.1 0.0 0.00 48.5 9.2 47.32 16.4
2017 11 20 11:00 264.2 0.0 0.00 52.1 11.2 42.36 17.5
2017 11 20 12:00 263.4 0.0 0.00 55.5 13.0 37.58 18.3
2017 11 20 13:00 262.5 0.0 0.00 57.1 14.0 35.16 19.2
2017 11 20 14:00 262.0 0.0 0.00 58.2 14.6 33.73 19.6
2017 11 20 15:00 261.7 0.0 0.00 58.7 14.9 31.83 20.1
2017 11 20 16:00 261.7 0.0 0.00 58.1 14.5 32.1 19.7
2017 11 20 17:00 262.8 0.0 0.00 55.1 12.9 37.28 13.3
2017 11 20 18:00 263.2 0.0 0.00 53.4 11.9 38.83 12.0
2017 11 20 19:00 263.6 0.0 0.00 52.4 11.4 40.8 11.2
2017 11 20 20:00 263.4 0.0 0.00 52.7 11.5 39.94 14.4
2017 11 20 21:00 263.2 0.0 0.00 53.3 11.8 39.05 15.4
2017 11 20 22:00 263.2 0.0 0.00 52.9 11.6 40.02 14.9
2017 11 20 23:00 263.8 0.0 0.00 51.0 10.6 43.95 13.9
2017 11 20 24:00 263.9 0.0 0.00 49.1 9.5 47.67 11.3
2017 11 21 1:00 264.0 0.0 0.00 47.3 8.5 51.61 9.9
2017 11 21 2:00 264.1 0.0 0.00 47.0 8.3 52.63 9.7
2017 11 21 3:00 264.0 0.0 0.00 47.9 8.8 51.26 11.6
2017 11 21 4:00 264.3 0.0 0.00 46.8 8.2 54.32 10.3
2017 11 21 5:00 264.7 0.0 0.00 45.5 7.5 57.54 8.8
2017 11 21 6:00 264.8 0.0 0.00 43.6 6.4 62.75 8.3
2017 11 21 7:00 265.2 0.0 0.00 42.4 5.8 65.93 8.2
2017 11 21 8:00 265.5 0.0 0.00 41.9 5.5 67.34 8.3
2017 11 21 9:00 264.9 0.0 0.00 44.2 6.8 54.23 11.1
2017 11 21 10:00 264.2 0.0 0.00 43.6 6.4 45.67 15.1
2017 11 21 11:00 264.0 0.0 0.00 42.4 5.8 44.26 17.8
2017 11 21 12:00 264.0 0.0 0.00 41.8 5.5 49.19 13.1
2017 11 21 13:00 263.8 0.0 0.00 44.0 6.6 43.86 15.0
2017 11 21 14:00 262.8 0.0 0.00 44.8 7.1 36.48 16.3
2017 11 21 15:00 262.7 0.0 0.00 41.7 5.4 38.75 16.9
2017 11 21 16:00 262.8 0.0 0.00 38.6 3.7 44.68 15.7
2017 11 21 17:00 263.9 0.0 0.00 34.0 1.1 50.77 13.6
2017 11 21 18:00 264.8 0.0 0.00 31.6 -0.2 56.86 9.8
2017 11 21 19:00 265.0 0.0 0.00 29.8 -1.2 61.94 8.1
2017 11 21 20:00 265.4 0.0 0.00 28.4 -2.0 65.46 7.2
2017 11 21 21:00 265.8 0.0 0.00 27.3 -2.6 68.9 6.8
2017 11 21 22:00 266.0 0.0 0.00 25.5 -3.6 71.75 5.9
2017 11 21 23:00 265.9 0.0 0.00 25.7 -3.5 65.27 10.4
2017 11 21 24:00 265.9 0.0 0.00 24.4 -4.2 64.72 7.9
2017 11 22 1:00 266.2 0.0 0.00 22.1 -5.5 72.55 5.5
2017 11 22 2:00 267.0 0.0 0.00 20.4 -6.4 78.21 4.9
2017 11 22 3:00 267.3 0.0 0.00 19.7 -6.9 78.88 5.5
2017 11 22 4:00 267.2 0.0 0.00 19.3 -7.0 78.87 5.3
2017 11 22 5:00 267.7 0.0 0.00 18.4 -7.6 79.77 4.0
2017 11 22 6:00 268.1 0.0 0.00 17.5 -8.0 80.8 4.2
2017 11 22 7:00 268.8 0.0 0.00 16.9 -8.4 82.8 4.0
2017 11 22 8:00 269.1 0.0 0.00 18.4 -7.5 81.3 3.5
2017 11 22 9:00 266.6 0.0 0.00 22.1 -5.5 72.45 5.2
2017 11 22 10:00 265.9 0.0 0.00 25.6 -3.5 61.77 2.7
2017 11 22 11:00 264.4 0.0 0.00 29.0 -1.7 56.01 3.5
2017 11 22 12:00 263.9 0.0 0.00 31.8 -0.1 51.16 5.2
2017 11 22 13:00 262.6 0.0 0.00 34.9 1.6 42.97 4.5
2017 11 22 14:00 261.8 0.0 0.00 37.0 2.8 37.88 4.9
2017 11 22 15:00 261.5 0.0 0.00 38.8 3.8 34.6 5.6
2017 11 22 16:00 262.2 0.0 0.00 38.5 3.6 36.17 5.9
2017 11 22 17:00 263.8 0.0 0.00 34.6 1.5 44.08 4.7
2017 11 22 18:00 264.3 0.0 0.00 32.2 0.1 50.29 3.0
2017 11 22 19:00 264.4 0.0 0.00 32.8 0.4 49.21 4.4
2017 11 22 20:00 265.0 0.0 0.00 31.4 -0.3 53.96 4.2
2017 11 22 21:00 265.0 0.0 0.00 31.5 -0.3 55.45 4.7
2017 11 22 22:00 265.1 0.0 0.00 30.7 -0.7 55.73 5.8
2017 11 22 23:00 265.1 0.0 0.00 30.3 -1.0 58.23 6.5
2017 11 22 24:00 265.1 0.0 0.00 30.4 -0.9 56.81 5.3
2017 11 23 1:00 265.1 0.0 0.00 29.2 -1.6 59.42 5.1
2017 11 23 2:00 265.1 0.0 0.00 30.6 -0.8 58.51 7.6
2017 11 23 3:00 265.0 0.0 0.00 33.1 0.6 55.21 8.1
2017 11 23 4:00 265.0 0.0 0.00 32.7 0.4 56.83 9.6
2017 11 23 5:00 265.0 0.0 0.00 31.2 -0.5 61.8 7.1
2017 11 23 6:00 265.6 0.0 0.00 30.5 -0.8 65.49 6.7
2017 11 23 7:00 265.8 0.0 0.00 30.3 -0.9 67 5.7
2017 11 23 8:00 265.5 0.0 0.00 33.4 0.8 61.22 8.7
2017 11 23 9:00 265.0 0.0 0.00 36.1 2.3 57.43 9.8
2017 11 23 10:00 264.9 0.0 0.00 39.3 4.0 53.49 10.6
2017 11 23 11:00 264.1 0.0 0.00 42.8 6.0 49.75 9.6
2017 11 23 12:00 263.2 0.0 0.00 46.2 7.9 46.75 7.8
2017 11 23 13:00 262.5 0.0 0.00 49.5 9.7 44.5 7.1
2017 11 23 14:00 261.8 0.0 0.00 52.6 11.4 42.95 6.1
2017 11 23 15:00 261.5 0.0 0.00 54.6 12.6 42.16 5.7
2017 11 23 16:00 261.7 0.0 0.00 54.6 12.6 44.81 5.0
2017 11 23 17:00 262.5 0.0 0.00 53.2 11.8 46.6 1.6
2017 11 23 18:00 265.2 0.0 0.00 46.1 7.8 60.6 1.2
2017 11 23 19:00 267.2 0.0 0.00 40.0 4.5 74.82 1.8
2017 11 23 20:00 267.0 0.0 0.00 37.4 3.0 76.47 2.5
2017 11 23 21:00 267.3 0.0 0.00 37.2 2.9 77.1 2.3
2017 11 23 22:00 268.4 0.0 0.00 35.9 2.2 81.8 2.2
2017 11 23 23:00 267.4 0.0 0.00 36.2 2.3 78.69 4.5
2017 11 23 24:00 267.0 0.0 0.00 38.1 3.4 75.07 4.3
2017 11 24 1:00 266.9 0.0 0.00 39.3 4.0 74.97 4.9
2017 11 24 2:00 266.9 0.0 0.00 40.2 4.6 74.35 5.6
2017 11 24 3:00 266.9 0.0 0.00 40.8 4.9 73.93 5.6
2017 11 24 4:00 266.7 0.0 0.00 42.7 6.0 70.43 7.1
2017 11 24 5:00 266.8 0.0 0.00 41.9 5.5 71.75 6.1
2017 11 24 6:00 266.8 0.0 0.00 41.7 5.4 71.18 7.0
2017 11 24 7:00 266.2 0.0 0.00 44.0 6.6 65.55 8.2
2017 11 24 8:00 266.0 0.0 0.00 46.1 7.8 60.38 9.6
2017 11 24 9:00 265.0 0.0 0.00 51.8 11.0 51.02 12.3
2017 11 24 10:00 264.2 0.0 0.00 57.3 14.0 42.95 15.7
2017 11 24 11:00 263.1 0.0 0.00 62.4 16.9 36.87 17.7
2017 11 24 12:00 262.0 0.0 0.00 66.5 19.1 32.88 17.8
2017 11 24 13:00 261.3 0.0 0.00 69.3 20.7 30.42 18.2
2017 11 24 14:00 260.8 0.0 0.00 70.8 21.6 29.27 19.7
2017 11 24 15:00 260.7 0.0 0.00 71.4 21.9 29.41 17.8
2017 11 24 16:00 261.0 0.0 0.00 70.0 21.1 30.87 16.7
2017 11 24 17:00 261.7 0.0 0.00 67.1 19.5 34.77 12.5
2017 11 24 18:00 262.7 0.0 0.00 61.5 16.4 42.98 7.2
2017 11 24 19:00 263.6 0.0 0.00 59.9 15.5 47.14 9.4
2017 11 24 20:00 264.0 0.0 0.00 56.3 13.5 58.06 7.4
2017 11 24 21:00 264.8 0.0 0.00 52.5 11.4 65.31 6.9
2017 11 24 22:00 264.5 0.0 0.00 54.1 12.3 60.83 12.6
2017 11 24 23:00 264.6 0.0 0.00 52.6 11.4 63.66 12.1
2017 11 24 24:00 264.9 0.0 0.00 51.1 10.6 64.15 14.6
2017 11 25 1:00 264.7 0.0 0.00 48.4 9.1 62.01 14.5
2017 11 25 2:00 265.3 0.0 0.00 46.6 8.1 66.83 15.9
2017 11 25 3:00 265.4 0.0 0.00 44.9 7.2 68.67 12.9
2017 11 25 4:00 265.5 0.0 0.00 42.4 5.8 72.17 10.1
2017 11 25 5:00 266.6 0.0 0.00 39.1 4.0 78.64 6.3
2017 11 25 6:00 267.9 0.0 0.00 36.6 2.6 83.7 6.0
2017 11 25 7:00 268.3 0.0 0.00 36.1 2.3 85.5 5.6
2017 11 25 8:00 267.3 0.0 0.00 38.2 3.5 83.1 7.5
2017 11 25 9:00 266.4 0.0 0.00 42.4 5.8 74.15 9.1
2017 11 25 10:00 265.6 0.0 0.00 47.3 8.5 58.99 9.8
2017 11 25 11:00 263.8 0.0 0.00 50.9 10.5 48.1 8.3
2017 11 25 12:00 262.2 0.0 0.00 54.4 12.4 39.6 7.5
2017 11 25 13:00 261.3 0.0 0.00 56.8 13.8 36.39 8.4
2017 11 25 14:00 260.8 0.0 0.00 58.0 14.4 36.04 7.6
2017 11 25 15:00 261.0 0.0 0.00 58.0 14.5 36.53 9.3
2017 11 25 16:00 261.1 0.0 0.00 57.0 13.9 38.24 8.3
2017 11 25 17:00 262.5 0.0 0.00 51.6 10.9 47.51 5.0
2017 11 25 18:00 264.3 0.0 0.00 47.0 8.3 53.76 2.3
2017 11 25 19:00 264.8 0.0 0.00 45.3 7.4 56.27 2.7
2017 11 25 20:00 266.4 0.0 0.00 40.4 4.6 71.82 1.7
2017 11 25 21:00 267.4 0.0 0.00 39.0 3.9 71.89 1.2
2017 11 25 22:00 267.5 0.0 0.00 37.5 3.0 75.51 1.6
2017 11 25 23:00 268.4 0.0 0.00 35.3 1.8 81.1 1.8
2017 11 25 24:00 268.3 0.0 0.00 34.3 1.3 83.6 1.7
2017 11 26 1:00 269.8 0.0 0.00 32.9 0.5 89.4 0.5
2017 11 26 2:00 275.0 0.0 0.00 32.7 0.4 89.6 0.6
2017 11 26 3:00 275.1 0.0 0.00 32.1 0.1 88.1 1.9
2017 11 26 4:00 Wet 290.6 0.0 0.00 30.9 -0.6 90.8 1.2
2017 11 26 5:00 272.8 0.0 0.00 29.7 -1.3 95.7 0.4
2017 11 26 6:00 275.0 0.0 0.00 28.6 -1.9 95.3 1.7
2017 11 26 7:00 276.4 0.0 0.00 27.5 -2.5 95.1 2.9
2017 11 26 8:00 281.3 0.0 0.00 31.8 -0.1 88.3 2.7
2017 11 26 9:00 Wet 295.3 0.0 0.00 38.1 3.4 79.86 5.3
2017 11 26 10:00 267.4 0.0 0.00 44.9 7.2 68.02 9.6
2017 11 26 11:00 264.6 0.0 0.00 51.4 10.8 53.33 9.1
2017 11 26 12:00 263.5 0.0 0.00 55.7 13.2 41.91 9.3
2017 11 26 13:00 263.3 0.0 0.00 57.0 13.9 39.75 9.9
2017 11 26 14:00 263.1 0.0 0.00 57.8 14.3 40.24 9.7
2017 11 26 15:00 262.5 0.0 0.00 59.2 15.1 38.97 10.6
2017 11 26 16:00 262.7 0.0 0.00 58.7 14.8 38.81 8.2
2017 11 26 17:00 263.7 0.0 0.00 54.6 12.6 44.18 4.7
2017 11 26 18:00 264.1 0.0 0.00 49.9 10.0 51.36 3.2
2017 11 26 19:00 264.7 0.0 0.00 47.9 8.8 54.11 3.9
2017 11 26 20:00 264.7 0.0 0.00 46.6 8.1 56.28 5.0
2017 11 26 21:00 264.7 0.0 0.00 45.8 7.7 58.53 6.1
2017 11 26 22:00 264.8 0.0 0.00 45.0 7.2 60.49 6.6
2017 11 26 23:00 265.4 0.0 0.00 44.2 6.8 60.97 5.1
2017 11 26 24:00 265.5 0.0 0.00 44.0 6.7 60.01 4.6
2017 11 27 1:00 265.3 0.0 0.00 44.6 7.0 58.06 5.7
2017 11 27 2:00 265.3 0.0 0.00 44.3 6.8 58.02 5.4
2017 11 27 3:00 265.5 0.0 0.00 43.0 6.1 59.76 5.1
2017 11 27 4:00 265.5 0.0 0.00 41.9 5.5 62.11 5.0
2017 11 27 5:00 265.5 0.0 0.00 40.7 4.8 64.32 4.6
2017 11 27 6:00 265.8 0.0 0.00 39.3 4.1 67.55 3.7
2017 11 27 7:00 266.2 0.0 0.00 39.5 4.2 68.42 5.2
2017 11 27 8:00 266.0 0.0 0.00 39.5 4.2 68.72 3.4
2017 11 27 9:00 265.3 0.0 0.00 44.9 7.2 62.42 7.0
2017 11 27 10:00 264.7 0.0 0.00 51.4 10.8 53.08 10.5
2017 11 27 11:00 263.9 0.0 0.00 57.2 14.0 47.65 11.1
2017 11 27 12:00 263.4 0.0 0.00 60.2 15.7 45.86 12.3
2017 11 27 13:00 263.0 0.0 0.00 63.5 17.5 45.22 12.7
2017 11 27 14:00 263.5 0.0 0.00 64.8 18.2 46.1 12.5
2017 11 27 15:00 263.6 0.0 0.00 65.4 18.6 46.54 11.2
2017 11 27 16:00 263.6 0.0 0.00 64.1 17.8 48.07 12.6
2017 11 27 17:00 263.6 0.0 0.00 61.6 16.4 51.3 12.1
2017 11 27 18:00 263.8 0.0 0.00 59.2 15.1 53.3 11.5
2017 11 27 19:00 264.2 0.0 0.00 57.9 14.4 54.38 11.9
2017 11 27 20:00 264.4 0.0 0.00 57.6 14.2 55.88 12.3
2017 11 27 21:00 264.5 0.0 0.00 56.3 13.5 58.83 10.3
2017 11 27 22:00 264.5 0.0 0.00 55.0 12.8 58.64 10.7
2017 11 27 23:00 264.5 0.0 0.00 54.5 12.5 52.72 10.6
2017 11 27 24:00 264.4 0.0 0.00 53.7 12.1 51.87 9.2
2017 11 28 1:00 263.9 0.0 0.00 55.8 13.2 44.27 12.1
2017 11 28 2:00 263.9 0.0 0.00 54.3 12.4 43.64 11.1
2017 11 28 3:00 263.9 0.0 0.00 53.1 11.7 45.22 9.5
2017 11 28 4:00 263.9 0.0 0.00 50.7 10.4 51.06 6.6
2017 11 28 5:00 264.0 0.0 0.00 50.5 10.3 52.09 7.4
2017 11 28 6:00 264.0 0.0 0.00 50.1 10.0 52.81 8.6
2017 11 28 7:00 264.2 0.0 0.00 49.9 9.9 53.5 7.1
2017 11 28 8:00 264.5 0.0 0.00 49.1 9.5 55.52 5.0
2017 11 28 9:00 263.9 0.0 0.00 53.4 11.9 49.58 7.2
2017 11 28 10:00 263.8 0.0 0.00 57.8 14.3 44.36 9.9
2017 11 28 11:00 263.6 0.0 0.00 60.1 15.6 46.6 12.7
2017 11 28 12:00 263.6 0.0 0.00 61.2 16.2 48.79 12.6
2017 11 28 13:00 263.7 0.0 0.00 60.2 15.7 53.54 11.9
2017 11 28 14:00 263.7 0.0 0.00 59.9 15.5 56.63 10.2
2017 11 28 15:00 264.0 0.0 0.00 59.5 15.3 58.53 10.4
2017 11 28 16:00 264.4 0.0 0.00 57.4 14.1 62.66 11.2
2017 11 28 17:00 264.5 0.0 0.00 54.7 12.6 63.06 6.0
2017 11 28 18:00 264.8 0.0 0.00 53.8 12.1 62.09 5.0
2017 11 28 19:00 264.0 0.0 0.00 53.4 11.9 46.81 8.0
2017 11 28 20:00 263.9 0.0 0.00 50.0 10.0 44.42 8.0
2017 11 28 21:00 263.9 0.0 0.00 47.6 8.7 43.66 7.8
2017 11 28 22:00 264.0 0.0 0.00 45.6 7.6 45.85 5.6
2017 11 28 23:00 264.3 0.0 0.00 42.4 5.8 50.42 4.0
2017 11 28 24:00 264.8 0.0 0.00 40.4 4.7 53.91 2.9
2017 11 29 1:00 266.4 0.0 0.00 36.7 2.6 72.68 1.3
2017 11 29 2:00 265.7 0.0 0.00 37.9 3.3 58.48 5.4
2017 11 29 3:00 265.0 0.0 0.00 37.9 3.3 55.86 3.7
2017 11 29 4:00 264.9 0.0 0.00 36.7 2.6 53.89 3.6
2017 11 29 5:00 264.9 0.0 0.00 35.8 2.1 54.17 3.7
2017 11 29 6:00 265.0 0.0 0.00 35.6 2.0 55.68 2.7
2017 11 29 7:00 264.9 0.0 0.00 36.4 2.5 52.55 5.3
2017 11 29 8:00 264.7 0.0 0.00 36.7 2.6 51.77 6.2
2017 11 29 9:00 264.2 0.0 0.00 37.5 3.1 48.92 6.5
2017 11 29 10:00 264.2 0.0 0.00 37.9 3.3 48.97 6.9
2017 11 29 11:00 264.2 0.0 0.00 39.1 4.0 44.9 7.7
2017 11 29 12:00 264.1 0.0 0.00 39.4 4.1 45.82 4.9
2017 11 29 13:00 264.1 0.0 0.00 40.1 4.5 48.06 6.3
2017 11 29 14:00 264.1 0.0 0.00 42.0 5.5 44.84 8.1
2017 11 29 15:00 264.0 0.0 0.00 43.4 6.3 41.02 8.9
2017 11 29 16:00 263.1 0.0 0.00 44.2 6.8 40.48 8.8
2017 11 29 17:00 263.7 0.0 0.00 42.3 5.7 44.86 4.3
2017 11 29 18:00 264.4 0.0 0.00 39.3 4.1 51.32 2.8
2017 11 29 19:00 264.9 0.0 0.00 37.6 3.1 55.47 3.1
2017 11 29 20:00 265.5 0.0 0.00 34.9 1.6 65.77 2.4
2017 11 29 21:00 265.8 0.0 0.00 34.2 1.2 72.37 2.4
2017 11 29 22:00 266.0 0.0 0.00 35.3 1.9 73.25 4.3
2017 11 29 23:00 265.4 0.0 0.00 39.1 4.0 63.19 6.0
2017 11 29 24:00 264.9 0.0 0.00 40.8 4.9 60.02 3.0
2017 11 30 1:00 264.8 0.0 0.00 42.0 5.5 58.71 3.7
2017 11 30 2:00 264.8 0.0 0.00 44.4 6.9 53.48 5.5
2017 11 30 3:00 264.6 0.0 0.00 44.5 6.9 49.43 6.5
2017 11 30 4:00 264.7 0.0 0.00 43.1 6.1 50.58 8.5
2017 11 30 5:00 264.7 0.0 0.00 42.4 5.8 51.5 10.9
2017 11 30 6:00 264.8 0.0 0.00 40.6 4.8 56.03 9.2
2017 11 30 7:00 265.3 0.0 0.00 37.4 3.0 64.94 6.6
2017 11 30 8:00 266.4 0.0 0.00 34.2 1.2 72.52 4.3
2017 11 30 9:00 265.3 0.0 0.00 39.7 4.3 65.01 7.7
2017 11 30 10:00 264.8 0.0 0.00 45.1 7.3 53.29 12.5
2017 11 30 11:00 263.8 0.0 0.00 48.2 9.0 46.43 12.2
2017 11 30 12:00 262.8 0.0 0.00 50.3 10.2 42.67 12.6
2017 11 30 13:00 262.2 0.0 0.00 51.9 11.0 37.61 12.9
2017 11 30 14:00 261.8 0.0 0.00 52.1 11.2 36.31 12.2
2017 11 30 15:00 261.5 0.0 0.00 52.8 11.6 35.82 9.8
2017 11 30 16:00 261.1 0.0 0.00 52.3 11.3 32.12 9.8
2017 11 30 17:00 262.8 0.0 0.00 46.5 8.0 42.86 6.3
2017 11 30 18:00 264.1 0.0 0.00 41.5 5.3 48.9 3.3
2017 11 30 19:00 265.4 0.0 0.00 38.3 3.5 62.1 1.1
2017 11 30 20:00 266.8 0.0 0.00 34.3 1.3 78.96 1.1
2017 11 30 21:00 266.3 0.0 0.00 33.1 0.6 68.93 2.0
2017 11 30 22:00 266.9 0.0 0.00 33.0 0.6 73.18 1.2
2017 11 30 23:00 267.2 0.0 0.00 29.8 -1.2 75.67 2.0
2017 11 30 24:00 267.5 0.0 0.00 28.5 -2.0 79.22 2.2
2017 12 01 1:00 268.8 0.0 0.00 27.4 -2.5 89.9 0.9
2017 12 01 2:00 271.3 0.0 0.00 26.8 -2.9 88 1.1
2017 12 01 3:00 272.2 0.0 0.00 26.1 -3.3 87.8 0.8
2017 12 01 4:00 273.4 0.0 0.00 26.2 -3.2 88.2 1.5
2017 12 01 5:00 275.0 0.0 0.00 25.5 -3.6 89.1 1.2
2017 12 01 6:00 275.9 0.0 0.00 25.5 -3.6 91 1.2
2017 12 01 7:00 277.0 0.0 0.00 24.9 -4.0 89.7 0.9
2017 12 01 8:00 277.9 0.0 0.00 25.6 -3.6 88.5 1.2
2017 12 01 9:00 Wet 295.9 0.0 0.00 33.4 0.8 76.61 1.3
2017 12 01 10:00 273.5 0.0 0.00 42.8 6.0 57.46 6.2
2017 12 01 11:00 264.2 0.0 0.00 48.6 9.2 44 9.8
2017 12 01 12:00 262.9 0.0 0.00 51.1 10.6 36.91 12.2
2017 12 01 13:00 262.1 0.0 0.00 52.7 11.5 33.6 10.6
2017 12 01 14:00 261.7 0.0 0.00 53.6 12.0 31.83 10.4
2017 12 01 15:00 261.1 0.0 0.00 54.2 12.3 31.11 9.6
2017 12 01 16:00 261.2 0.0 0.00 53.4 11.9 32.53 7.8
2017 12 01 17:00 262.5 0.0 0.00 49.4 9.7 37.74 5.0
2017 12 01 18:00 264.0 0.0 0.00 45.1 7.3 43.4 5.4
2017 12 01 19:00 264.1 0.0 0.00 42.3 5.7 47.29 4.7
2017 12 01 20:00 264.3 0.0 0.00 41.3 5.2 49.98 3.3
2017 12 01 21:00 264.8 0.0 0.00 39.6 4.2 55.07 2.7
2017 12 01 22:00 264.3 0.0 0.00 42.4 5.8 52.25 5.6
2017 12 01 23:00 264.1 0.0 0.00 44.2 6.8 48.71 6.9
2017 12 01 24:00 264.4 0.0 0.00 41.1 5.1 54.37 4.4
2017 12 02 1:00 264.5 0.0 0.00 41.3 5.2 55.9 4.2
2017 12 02 2:00 264.8 0.0 0.00 39.9 4.4 57.28 3.1
2017 12 02 3:00 265.2 0.0 0.00 37.9 3.3 62.93 2.4
2017 12 02 4:00 266.0 0.0 0.00 35.9 2.2 69.15 2.5
2017 12 02 5:00 266.9 0.0 0.00 34.0 1.1 74.2 3.1
2017 12 02 6:00 266.5 0.0 0.00 34.7 1.5 72.55 2.5
2017 12 02 7:00 266.4 0.0 0.00 33.4 0.8 72.62 2.8
2017 12 02 8:00 266.5 0.0 0.00 32.7 0.4 75.17 3.0
2017 12 02 9:00 265.9 0.0 0.00 38.6 3.7 71.27 3.4
2017 12 02 10:00 265.4 0.0 0.00 46.0 7.8 61.03 5.1
2017 12 02 11:00 264.1 0.0 0.00 50.2 10.1 57.92 5.2
2017 12 02 12:00 262.4 0.0 0.00 54.0 12.3 50.97 2.9
2017 12 02 13:00 261.4 0.0 0.00 56.6 13.6 46.72 3.2
2017 12 02 14:00 260.9 0.0 0.00 58.6 14.8 43.6 3.3
2017 12 02 15:00 261.1 0.0 0.00 59.2 15.1 42.81 4.4
2017 12 02 16:00 261.3 0.0 0.00 58.4 14.7 43.11 4.0
2017 12 02 17:00 262.5 0.0 0.00 55.8 13.2 44.97 2.7
2017 12 02 18:00 264.8 0.0 0.00 48.7 9.3 57.19 1.4
2017 12 02 19:00 266.3 0.0 0.00 42.3 5.7 71 1.1
2017 12 02 20:00 267.9 0.0 0.00 38.9 3.8 80.3 0.4
2017 12 02 21:00 275.6 0.0 0.00 35.8 2.1 87.2 1.3
2017 12 02 22:00 269.5 0.0 0.00 36.1 2.3 83.1 2.7
2017 12 02 23:00 271.5 0.0 0.00 35.2 1.8 85.9 1.3
2017 12 02 24:00 Wet 291.6 0.0 0.00 33.5 0.8 90.8 0.7
2017 12 03 1:00 272.7 0.0 0.00 31.9 -0.1 92.6 0.7
2017 12 03 2:00 273.9 0.0 0.00 31.2 -0.4 93.6 0.8
2017 12 03 3:00 275.1 0.0 0.00 31.8 -0.1 93.5 1.1
2017 12 03 4:00 276.2 0.0 0.00 30.7 -0.7 92.7 0.3
2017 12 03 5:00 277.5 0.0 0.00 30.5 -0.8 94.8 0.6
2017 12 03 6:00 280.4 0.0 0.00 32.5 0.3 94.7 1.8
2017 12 03 7:00 282.4 0.0 0.00 34.0 1.1 93.2 0.2
2017 12 03 8:00 Wet 288.5 0.0 0.00 33.7 0.9 92.8 2.5
2017 12 03 9:00 Wet 313.6 0.0 0.00 37.1 2.8 91.1 3.0
2017 12 03 10:00 268.5 0.0 0.00 44.4 6.9 78.23 5.7
2017 12 03 11:00 265.7 0.0 0.00 50.8 10.5 66.88 8.3
2017 12 03 12:00 264.8 0.0 0.00 55.6 13.1 59.63 8.2
2017 12 03 13:00 264.3 0.0 0.00 59.8 15.4 55.1 9.8
2017 12 03 14:00 263.8 0.0 0.00 62.8 17.1 51.26 10.4
2017 12 03 15:00 263.7 0.0 0.00 63.8 17.7 51.77 10.5
2017 12 03 16:00 263.7 0.0 0.00 64.1 17.8 54.38 9.9
2017 12 03 17:00 264.6 0.0 0.00 62.0 16.6 61.34 9.5
2017 12 03 18:00 265.0 0.0 0.00 59.1 15.1 66.31 8.8
2017 12 03 19:00 265.0 0.0 0.00 58.9 15.0 63.25 10.6
2017 12 03 20:00 265.1 0.0 0.00 58.1 14.5 61.93 12.8
2017 12 03 21:00 265.1 0.0 0.00 57.4 14.1 64.81 13.3
2017 12 03 22:00 265.1 0.0 0.00 57.6 14.2 66.29 13.9
2017 12 03 23:00 265.1 0.0 0.00 57.7 14.3 66.6 14.2
2017 12 03 24:00 265.1 0.0 0.00 57.5 14.2 67.62 13.0
2017 12 04 1:00 265.2 0.0 0.00 57.7 14.3 68.04 13.2
2017 12 04 2:00 265.6 0.0 0.00 58.2 14.6 68.51 14.0
2017 12 04 3:00 265.5 0.0 0.00 58.9 15.0 68.45 15.9
2017 12 04 4:00 265.7 0.0 0.00 58.8 14.9 69.48 16.2
2017 12 04 5:00 265.8 0.0 0.00 58.7 14.9 70.77 15.9
2017 12 04 6:00 265.7 0.0 0.00 59.2 15.1 71.16 17.4
2017 12 04 7:00 265.7 0.0 0.00 59.4 15.2 72.07 18.0
2017 12 04 8:00 265.7 0.0 0.00 59.6 15.3 72.62 16.7
2017 12 04 9:00 265.7 0.0 0.00 60.5 15.9 72.03 17.6
2017 12 04 10:00 265.7 0.0 0.00 61.7 16.5 71.45 19.6
2017 12 04 11:00 265.7 0.0 0.00 62.4 16.9 71.65 19.5
2017 12 04 12:00 265.7 0.0 0.00 62.9 17.2 72.03 16.9
2017 12 04 13:00 265.7 0.0 0.00 64.7 18.2 70.2 17.1
2017 12 04 14:00 265.6 0.0 0.00 66.0 18.9 68.95 17.4
2017 12 04 15:00 265.6 0.0 0.00 67.0 19.4 67.49 17.9
2017 12 04 16:00 265.6 0.0 0.00 67.5 19.7 66.88 16.4
2017 12 04 17:00 Wet 284.9 0.0 0.25 67.1 19.5 68.76 15.3
2017 12 04 18:00 Wet 306.7 0.1 2.79 61.6 16.4 81.8 16.8
2017 12 04 19:00 265.9 0.0 0.00 52.8 11.5 66.2 17.6
2017 12 04 20:00 265.9 0.0 0.00 49.0 9.5 64.53 14.2
2017 12 04 21:00 266.0 0.0 0.00 45.5 7.5 64.93 15.1
2017 12 04 22:00 265.6 0.0 0.00 42.5 5.8 63.66 16.9
2017 12 04 23:00 265.4 0.0 0.00 40.4 4.7 62.22 17.2
2017 12 04 24:00 265.5 0.0 0.00 37.3 2.9 65.25 14.7
2017 12 05 1:00 265.6 0.0 0.00 32.6 0.3 68.42 19.1
2017 12 05 2:00 265.7 0.0 0.00 32.7 0.4 70.2 19.8
2017 12 05 3:00 265.9 0.0 0.00 31.5 -0.3 67.26 18.4
2017 12 05 4:00 265.7 0.0 0.00 29.7 -1.3 59.93 15.6
2017 12 05 5:00 265.8 0.0 0.00 28.4 -2.0 60.16 13.4
2017 12 05 6:00 265.8 0.0 0.00 27.4 -2.5 62.49 11.1
2017 12 05 7:00 265.8 0.0 0.00 27.1 -2.7 64.32 11.9
2017 12 05 8:00 265.8 0.0 0.00 27.7 -2.4 62.8 12.7
2017 12 05 9:00 265.8 0.0 0.00 28.4 -2.0 60.78 13.9
2017 12 05 10:00 265.2 0.0 0.00 30.8 -0.7 55.19 17.0
2017 12 05 11:00 264.5 0.0 0.00 33.7 1.0 47.65 18.6
2017 12 05 12:00 264.0 0.0 0.00 37.0 2.8 40.91 19.5
2017 12 05 13:00 263.3 0.0 0.00 38.3 3.5 39.18 18.9
2017 12 05 14:00 262.8 0.0 0.00 39.4 4.1 37.36 19.8
2017 12 05 15:00 263.1 0.0 0.00 39.7 4.3 37.79 18.8
2017 12 05 16:00 262.8 0.0 0.00 39.9 4.4 36.94 18.9
2017 12 05 17:00 263.6 0.0 0.00 38.2 3.5 40.82 11.7
2017 12 05 18:00 264.2 0.0 0.00 35.4 1.9 46.37 7.2
2017 12 05 19:00 264.5 0.0 0.00 33.5 0.8 50.23 5.8
2017 12 05 20:00 265.0 0.0 0.00 32.4 0.2 53.26 4.1
2017 12 05 21:00 265.0 0.0 0.00 33.1 0.6 53.84 5.3
2017 12 05 22:00 265.0 0.0 0.00 32.9 0.5 55.09 5.2
2017 12 05 23:00 265.0 0.0 0.00 33.9 1.1 55.64 7.4
2017 12 05 24:00 264.5 0.0 0.00 36.9 2.7 45.41 9.3
2017 12 06 1:00 264.3 0.0 0.00 36.6 2.6 44.66 11.2
2017 12 06 2:00 264.3 0.0 0.00 35.9 2.2 47.45 11.0
2017 12 06 3:00 264.9 0.0 0.00 34.7 1.5 53.54 8.8
2017 12 06 4:00 265.0 0.0 0.00 33.0 0.6 55.23 7.9
2017 12 06 5:00 265.0 0.0 0.00 33.5 0.9 56.55 10.1
2017 12 06 6:00 265.2 0.0 0.00 31.9 -0.0 63.09 7.7
2017 12 06 7:00 266.1 0.0 0.00 28.8 -1.8 72.54 5.0
2017 12 06 8:00 266.9 0.0 0.00 28.0 -2.2 78.94 4.7
2017 12 06 9:00 265.9 0.0 0.00 32.9 0.5 72.1 8.5
2017 12 06 10:00 265.6 0.0 0.00 36.4 2.4 66.2 10.2
2017 12 06 11:00 265.0 0.0 0.00 39.4 4.1 62.85 11.6
2017 12 06 12:00 264.4 0.0 0.00 41.5 5.3 58.46 12.8
2017 12 06 13:00 264.4 0.0 0.00 41.9 5.5 55.36 12.1
2017 12 06 14:00 265.0 0.0 0.00 41.7 5.4 53.4 12.5
2017 12 06 15:00 265.6 0.0 0.00 40.8 4.9 56.97 15.8
2017 12 06 16:00 264.8 0.0 0.00 40.5 4.7 51.41 13.0
2017 12 06 17:00 264.9 0.0 0.00 37.9 3.3 57.64 6.2
2017 12 06 18:00 265.2 0.0 0.00 37.3 3.0 58.96 6.3
2017 12 06 19:00 267.8 0.0 0.00 31.8 -0.1 95.5 10.2
2017 12 06 20:00 268.0 0.0 0.00 31.2 -0.5 92.3 10.0
2017 12 06 21:00 266.6 0.0 0.00 29.2 -1.5 70.62 13.7
2017 12 06 22:00 266.5 0.0 0.00 25.7 -3.5 71.08 11.0
2017 12 06 23:00 266.5 0.0 0.00 24.8 -4.0 72.31 10.9
2017 12 06 24:00 266.5 0.0 0.00 24.9 -3.9 69.85 14.9
2017 12 07 1:00 266.5 0.0 0.00 24.5 -4.2 71.1 14.0
2017 12 07 2:00 266.5 0.0 0.00 24.2 -4.3 70.57 15.0
2017 12 07 3:00 266.2 0.0 0.00 22.4 -5.3 69.08 16.5
2017 12 07 4:00 266.2 0.0 0.00 21.5 -5.9 70.59 15.6
2017 12 07 5:00 266.2 0.0 0.00 21.3 -5.9 71.02 14.1
2017 12 07 6:00 266.4 0.0 0.00 20.7 -6.3 71.25 13.3
2017 12 07 7:00 266.6 0.0 0.00 19.0 -7.2 71.71 12.0
2017 12 07 8:00 266.2 0.0 0.00 17.7 -7.9 70.59 11.8
2017 12 07 9:00 266.0 0.0 0.00 18.3 -7.6 70.74 12.4
2017 12 07 10:00 265.9 0.0 0.00 19.4 -7.0 66.5 13.4
2017 12 07 11:00 265.3 0.0 0.00 20.9 -6.2 62.47 12.4
2017 12 07 12:00 264.7 0.0 0.00 23.2 -4.9 57.05 11.9
2017 12 07 13:00 264.3 0.0 0.00 25.8 -3.5 50.3 11.6
2017 12 07 14:00 263.5 0.0 0.00 27.7 -2.4 41.6 13.0
2017 12 07 15:00 263.0 0.0 0.00 28.1 -2.2 39.94 11.5
2017 12 07 16:00 263.0 0.0 0.00 27.6 -2.4 39.41 11.0
2017 12 07 17:00 264.1 0.0 0.00 25.5 -3.6 45.77 7.5
2017 12 07 18:00 265.0 0.0 0.00 22.1 -5.5 54.93 6.5
2017 12 07 19:00 265.3 0.0 0.00 20.3 -6.5 60.39 5.6
2017 12 07 20:00 265.4 0.0 0.00 19.5 -7.0 62.96 6.5
2017 12 07 21:00 266.0 0.0 0.00 18.7 -7.4 65.01 5.7
2017 12 07 22:00 266.0 0.0 0.00 18.0 -7.8 65.06 5.6
2017 12 07 23:00 266.1 0.0 0.00 17.7 -7.9 62.49 6.0
2017 12 07 24:00 266.0 0.0 0.00 17.8 -7.9 60.06 6.0
2017 12 08 1:00 265.9 0.0 0.00 17.5 -8.0 60.48 5.8
2017 12 08 2:00 266.1 0.0 0.00 16.4 -8.6 65.45 5.9
2017 12 08 3:00 266.1 0.0 0.00 15.4 -9.2 70.46 5.5
2017 12 08 4:00 266.1 0.0 0.00 16.2 -8.8 67.04 5.6
2017 12 08 5:00 266.1 0.0 0.00 16.9 -8.4 64.49 7.0
2017 12 08 6:00 266.1 0.0 0.00 16.5 -8.6 68.1 7.0
2017 12 08 7:00 266.1 0.0 0.00 15.8 -9.0 72.82 6.9
2017 12 08 8:00 266.1 0.0 0.00 15.3 -9.3 73.57 5.6
2017 12 08 9:00 265.7 0.0 0.00 19.2 -7.1 65.53 7.3
2017 12 08 10:00 265.3 0.0 0.00 24.1 -4.4 55.74 9.2
2017 12 08 11:00 264.5 0.0 0.00 29.5 -1.4 49.35 9.1
2017 12 08 12:00 263.8 0.0 0.00 33.6 0.9 44.31 10.9
2017 12 08 13:00 262.9 0.0 0.00 36.3 2.4 40.38 11.6
2017 12 08 14:00 262.5 0.0 0.00 37.4 3.0 38.88 11.2
2017 12 08 15:00 262.1 0.0 0.00 38.5 3.6 38.49 9.6
2017 12 08 16:00 262.4 0.0 0.00 38.2 3.5 38.8 10.0
2017 12 08 17:00 263.5 0.0 0.00 36.0 2.2 43.2 7.5
2017 12 08 18:00 264.3 0.0 0.00 33.0 0.6 49.48 6.3
2017 12 08 19:00 264.8 0.0 0.00 30.5 -0.8 54.32 4.9
2017 12 08 20:00 265.1 0.0 0.00 29.2 -1.5 58.55 6.0
2017 12 08 21:00 265.1 0.0 0.00 27.9 -2.3 60.93 6.4
2017 12 08 22:00 265.3 0.0 0.00 27.6 -2.4 63.31 7.4
2017 12 08 23:00 265.8 0.0 0.00 27.0 -2.8 71.86 7.9
2017 12 08 24:00 266.2 0.0 0.00 28.1 -2.2 81.2 10.0
2017 12 09 1:00 267.1 0.0 0.00 26.9 -2.9 85.7 7.4
2017 12 09 2:00 267.2 0.0 0.00 27.3 -2.6 85.4 11.1
2017 12 09 3:00 267.2 0.0 0.00 27.1